Time,TemperatureF,DewpointF,PressureIn,WindDirection,WindDirectionDegrees,WindSpeedMPH,WindSpeedGustMPH,Humidity,HourlyPrecipIn,Conditions,Clouds,dailyrainin,SoftwareType,DateUTC
2013-01-03 00:00:00,32.1,31.1,30.23,West,271,0.0,0.0,96,0.00,,SKC,0.00,VWS V14.01,2013-01-02 10:00:00,
2013-01-03 00:01:00,31.9,30.9,30.23,West,271,0.0,0.0,96,0.00,,SKC,0.00,VWS V14.01,2013-01-02 10:01:00,
2013-01-03 00:02:00,31.9,30.9,30.23,West,271,0.0,0.0,96,0.00,,SKC,0.00,VWS V14.01,2013-01-02 10:02:00,
2013-01-03 00:03:00,31.9,30.9,30.23,West,271,0.0,0.0,96,0.00,,SKC,0.00,VWS V14.01,2013-01-02 10:03:00,
2013-01-03 00:04:00,31.7,30.4,30.23,West,271,0.0,0.0,95,0.00,,SKC,0.00,VWS V14.01,2013-01-02 10:04:00,
2013-01-03 00:05:00,31.7,30.4,30.23,West,271,0.0,1.0,95,0.00,,SKC,0.00,VWS V14.01,2013-01-02 10:05:00,
2013-01-03 00:06:00,31.6,30.6,30.23,West,271,0.0,0.0,96,0.00,,SKC,0.00,VWS V14.01,2013-01-02 10:06:00,
2013-01-03 00:07:00,31.6,30.6,30.23,West,271,0.0,0.0,96,0.00,,SKC,0.00,VWS V14.01,2013-01-02 10:07:00,
2013-01-03 00:08:00,31.6,30.6,30.23,West,271,0.0,0.0,96,0.00,,SKC,0.00,VWS V14.01,2013-01-02 10:08:00,
2013-01-03 00:09:00,31.6,30.6,30.23,West,271,0.0,0.0,96,0.00,,SKC,0.00,VWS V14.01,2013-01-02 10:09:00,
2013-01-03 00:10:00,31.5,30.5,30.23,West,271,0.0,0.0,96,0.00,,SKC,0.00,VWS V14.01,2013-01-02 10:10:00,
2013-01-03 00:11:00,31.5,30.5,30.23,West,271,0.0,0.0,96,0.00,,SKC,0.00,VWS V14.01,2013-01-02 10:11:00,
2013-01-03 00:12:00,31.5,30.5,30.23,West,271,0.0,0.0,96,0.00,,SKC,0.00,VWS V14.01,2013-01-02 10:12:00,
2013-01-03 00:13:00,31.5,30.5,30.23,West,271,0.0,0.0,96,0.00,,SKC,0.00,VWS V14.01,2013-01-02 10:13:00,
2013-01-03 00:14:00,31.5,30.5,30.23,West,271,0.0,0.0,96,0.00,,SKC,0.00,VWS V14.01,2013-01-02 10:14:00,
2013-01-03 00:15:00,31.4,30.4,30.23,West,271,0.0,0.0,96,0.00,,SKC,0.00,VWS V14.01,2013-01-02 10:15:00,
2013-01-03 00:16:00,31.4,30.4,30.23,West,271,0.0,0.0,96,0.00,,SKC,0.00,VWS V14.01,2013-01-02 10:16:00,
2013-01-03 00:17:00,31.4,30.4,30.23,West,271,0.0,0.0,96,0.00,,SKC,0.00,VWS V14.01,2013-01-02 10:17:00,
2013-01-03 00:18:00,31.4,30.4,30.23,West,271,0.0,0.0,96,0.00,,SKC,0.00,VWS V14.01,2013-01-02 10:18:00,
2013-01-03 00:19:00,31.4,30.4,30.23,West,271,0.0,0.0,96,0.00,,SKC,0.00,VWS V14.01,2013-01-02 10:19:00,
2013-01-03 00:20:00,31.4,30.4,30.23,West,271,0.0,0.0,96,0.00,,SKC,0.00,VWS V14.01,2013-01-02 10:20:00,
2013-01-03 00:21:00,31.4,30.4,30.23,West,271,0.0,0.0,96,0.00,,SKC,0.00,VWS V14.01,2013-01-02 10:21:00,
2013-01-03 00:22:00,31.4,30.4,30.23,West,271,0.0,0.0,96,0.00,,SKC,0.00,VWS V14.01,2013-01-02 10:22:00,
2013-01-03 00:23:00,31.4,30.4,30.23,West,271,0.0,0.0,96,0.00,,SKC,0.00,VWS V14.01,2013-01-02 10:23:00,
2013-01-03 00:24:00,31.4,30.4,30.23,West,271,0.0,1.0,96,0.00,,SKC,0.00,VWS V14.01,2013-01-02 10:24:00,
2013-01-03 00:25:00,31.4,30.4,30.23,West,271,0.0,0.0,96,0.00,,SKC,0.00,VWS V14.01,2013-01-02 10:25:00,
2013-01-03 00:26:00,31.4,30.4,30.23,West,271,0.0,0.0,96,0.00,,SKC,0.00,VWS V14.01,2013-01-02 10:26:00,
2013-01-03 00:27:00,31.4,30.4,30.23,West,271,0.0,0.0,96,0.00,,SKC,0.00,VWS V14.01,2013-01-02 10:27:00,
2013-01-03 00:28:00,31.4,30.4,30.23,West,271,0.0,0.0,96,0.00,,SKC,0.00,VWS V14.01,2013-01-02 10:28:00,
2013-01-03 00:29:00,31.4,30.4,30.23,West,271,0.0,0.0,96,0.00,,SKC,0.00,VWS V14.01,2013-01-02 10:29:00,
2013-01-03 00:31:00,31.3,30.3,30.23,West,271,0.0,0.0,96,0.00,,SKC,0.00,VWS V14.01,2013-01-02 10:31:00,
2013-01-03 00:33:00,31.3,30.3,30.23,West,271,0.0,0.0,96,0.00,,SKC,0.00,VWS V14.01,2013-01-02 10:33:00,
2013-01-03 00:34:00,31.3,30.3,30.23,West,271,0.0,0.0,96,0.00,,SKC,0.00,VWS V14.01,2013-01-02 10:34:00,
2013-01-03 00:35:00,31.3,30.3,30.23,West,271,0.0,0.0,96,0.00,,SKC,0.00,VWS V14.01,2013-01-02 10:35:00,
2013-01-03 00:36:00,31.2,30.2,30.23,West,271,0.0,0.0,96,0.00,,SKC,0.00,VWS V14.01,2013-01-02 10:36:00,
2013-01-03 00:37:00,31.2,30.2,30.23,West,271,0.0,0.0,96,0.00,,SKC,0.00,VWS V14.01,2013-01-02 10:37:00,
2013-01-03 00:38:00,31.1,30.1,30.23,West,271,0.0,0.0,96,0.00,,SKC,0.00,VWS V14.01,2013-01-02 10:38:00,
2013-01-03 00:39:00,31.1,30.1,30.23,West,271,0.0,0.0,96,0.00,,SKC,0.00,VWS V14.01,2013-01-02 10:39:00,
2013-01-03 00:40:00,31.1,30.1,30.23,West,271,0.0,0.0,96,0.00,,SKC,0.00,VWS V14.01,2013-01-02 10:40:00,
2013-01-03 00:41:00,31.1,30.1,30.23,West,271,0.0,0.0,96,0.00,,SKC,0.00,VWS V14.01,2013-01-02 10:41:00,
2013-01-03 00:42:00,31.1,30.1,30.23,West,271,0.0,0.0,96,0.00,,SKC,0.00,VWS V14.01,2013-01-02 10:42:00,
2013-01-03 00:43:00,31.1,30.1,30.23,West,271,0.0,0.0,96,0.00,,SKC,0.00,VWS V14.01,2013-01-02 10:43:00,
2013-01-03 00:44:00,31.1,30.1,30.23,West,271,0.0,0.0,96,0.00,,SKC,0.00,VWS V14.01,2013-01-02 10:44:00,
2013-01-03 00:45:00,31.1,30.1,30.23,West,271,0.0,0.0,96,0.00,,SKC,0.00,VWS V14.01,2013-01-02 10:45:00,
2013-01-03 00:46:00,31.1,30.1,30.23,West,271,0.0,0.0,96,0.00,,SKC,0.00,VWS V14.01,2013-01-02 10:46:00,
2013-01-03 00:47:00,31.1,30.1,30.23,West,271,0.0,0.0,96,0.00,,SKC,0.00,VWS V14.01,2013-01-02 10:47:00,
2013-01-03 00:48:00,31.1,30.1,30.23,West,271,0.0,0.0,96,0.00,,SKC,0.00,VWS V14.01,2013-01-02 10:48:00,
2013-01-03 00:49:00,31.1,30.1,30.23,West,271,0.0,0.0,96,0.00,,SKC,0.00,VWS V14.01,2013-01-02 10:49:00,
2013-01-03 00:50:00,31.2,30.2,30.23,West,271,0.0,0.0,96,0.00,,SKC,0.00,VWS V14.01,2013-01-02 10:50:00,
2013-01-03 00:51:00,31.2,30.2,30.23,West,271,0.0,0.0,96,0.00,,SKC,0.00,VWS V14.01,2013-01-02 10:51:00,
2013-01-03 00:52:00,31.2,30.2,30.23,West,271,0.0,0.0,96,0.00,,SKC,0.00,VWS V14.01,2013-01-02 10:52:00,
2013-01-03 00:53:00,31.2,30.2,30.23,West,271,0.0,0.0,96,0.00,,SKC,0.00,VWS V14.01,2013-01-02 10:53:00,
2013-01-03 00:54:00,31.1,30.1,30.24,West,271,1.0,1.0,96,0.00,,SKC,0.00,VWS V14.01,2013-01-02 10:54:00,
2013-01-03 00:55:00,31.1,30.1,30.24,West,271,0.0,1.0,96,0.00,,SKC,0.00,VWS V14.01,2013-01-02 10:55:00,
2013-01-03 00:56:00,31.1,30.1,30.24,West,271,0.0,0.0,96,0.00,,SKC,0.00,VWS V14.01,2013-01-02 10:56:00,
2013-01-03 00:57:00,31.1,30.1,30.24,West,271,0.0,0.0,96,0.00,,SKC,0.00,VWS V14.01,2013-01-02 10:57:00,
2013-01-03 00:58:00,31.1,30.1,30.23,West,271,0.0,0.0,96,0.00,,SKC,0.00,VWS V14.01,2013-01-02 10:58:00,
2013-01-03 00:59:00,31.1,30.1,30.24,West,271,0.0,0.0,96,0.00,,SKC,0.00,VWS V14.01,2013-01-02 10:59:00,
2013-01-03 01:00:00,31.2,30.2,30.24,West,271,0.0,0.0,96,0.00,,SKC,0.00,VWS V14.01,2013-01-02 11:00:00,
2013-01-03 01:01:00,31.4,30.4,30.23,West,271,0.0,0.0,96,0.00,,SKC,0.00,VWS V14.01,2013-01-02 11:01:00,
2013-01-03 01:02:00,31.3,30.3,30.23,West,271,0.0,0.0,96,0.00,,SKC,0.00,VWS V14.01,2013-01-02 11:02:00,
2013-01-03 01:03:00,31.4,30.4,30.24,West,271,0.0,0.0,96,0.00,,SKC,0.00,VWS V14.01,2013-01-02 11:03:00,
2013-01-03 01:04:00,31.4,30.4,30.23,West,271,0.0,0.0,96,0.00,,SKC,0.00,VWS V14.01,2013-01-02 11:04:00,
2013-01-03 01:05:00,31.4,30.4,30.23,West,271,0.0,0.0,96,0.00,,SKC,0.00,VWS V14.01,2013-01-02 11:05:00,
2013-01-03 01:06:00,31.3,30.3,30.23,West,271,0.0,0.0,96,0.00,,SKC,0.00,VWS V14.01,2013-01-02 11:06:00,
2013-01-03 01:07:00,31.3,30.3,30.24,West,271,0.0,0.0,96,0.00,,SKC,0.00,VWS V14.01,2013-01-02 11:07:00,
2013-01-03 01:08:00,31.3,30.3,30.23,West,271,0.0,0.0,96,0.00,,SKC,0.00,VWS V14.01,2013-01-02 11:08:00,
2013-01-03 01:09:00,31.2,30.2,30.23,West,271,0.0,0.0,96,0.00,,SKC,0.00,VWS V14.01,2013-01-02 11:09:00,
2013-01-03 01:10:00,31.1,30.1,30.23,West,271,0.0,0.0,96,0.00,,SKC,0.00,VWS V14.01,2013-01-02 11:10:00,
2013-01-03 01:11:00,31.0,30.0,30.23,West,271,0.0,0.0,96,0.00,,SKC,0.00,VWS V14.01,2013-01-02 11:11:00,
2013-01-03 01:12:00,31.0,30.0,30.23,West,271,0.0,0.0,96,0.00,,SKC,0.00,VWS V14.01,2013-01-02 11:12:00,
2013-01-03 01:13:00,31.0,30.0,30.23,West,271,0.0,0.0,96,0.00,,SKC,0.00,VWS V14.01,2013-01-02 11:13:00,
2013-01-03 01:14:00,31.0,30.0,30.23,West,271,0.0,0.0,96,0.00,,SKC,0.00,VWS V14.01,2013-01-02 11:14:00,
2013-01-03 01:15:00,31.1,30.1,30.23,West,271,0.0,0.0,96,0.00,,SKC,0.00,VWS V14.01,2013-01-02 11:15:00,
2013-01-03 01:16:00,31.1,30.1,30.23,West,271,0.0,0.0,96,0.00,,SKC,0.00,VWS V14.01,2013-01-02 11:16:00,
2013-01-03 01:17:00,31.1,30.1,30.23,West,271,0.0,0.0,96,0.00,,SKC,0.00,VWS V14.01,2013-01-02 11:17:00,
2013-01-03 01:18:00,31.1,30.1,30.23,West,271,0.0,0.0,96,0.00,,SKC,0.00,VWS V14.01,2013-01-02 11:18:00,
2013-01-03 01:19:00,31.0,30.0,30.23,West,271,0.0,0.0,96,0.00,,SKC,0.00,VWS V14.01,2013-01-02 11:19:00,
2013-01-03 01:20:00,31.0,30.0,30.23,West,271,0.0,0.0,96,0.00,,SKC,0.00,VWS V14.01,2013-01-02 11:20:00,
2013-01-03 01:21:00,30.9,29.9,30.23,West,271,0.0,0.0,96,0.00,,SKC,0.00,VWS V14.01,2013-01-02 11:21:00,
2013-01-03 01:22:00,30.9,29.9,30.23,West,271,0.0,0.0,96,0.00,,SKC,0.00,VWS V14.01,2013-01-02 11:22:00,
2013-01-03 01:23:00,30.9,29.9,30.23,West,271,0.0,0.0,96,0.00,,SKC,0.00,VWS V14.01,2013-01-02 11:23:00,
2013-01-03 01:24:00,30.9,29.9,30.23,West,271,0.0,0.0,96,0.00,,SKC,0.00,VWS V14.01,2013-01-02 11:24:00,
2013-01-03 01:25:00,30.8,29.8,30.23,West,271,0.0,0.0,96,0.00,,SKC,0.00,VWS V14.01,2013-01-02 11:25:00,
2013-01-03 01:26:00,30.6,29.6,30.22,West,271,0.0,1.0,96,0.00,,SKC,0.00,VWS V14.01,2013-01-02 11:26:00,
2013-01-03 01:27:00,30.7,29.7,30.23,West,271,0.0,1.0,96,0.00,,SKC,0.00,VWS V14.01,2013-01-02 11:27:00,
2013-01-03 01:28:00,30.6,29.6,30.22,West,271,0.0,1.0,96,0.00,,SKC,0.00,VWS V14.01,2013-01-02 11:28:00,
2013-01-03 01:29:00,30.6,29.6,30.22,West,271,0.0,0.0,96,0.00,,SKC,0.00,VWS V14.01,2013-01-02 11:29:00,
2013-01-03 01:30:00,30.6,29.6,30.22,West,271,0.0,1.0,96,0.00,,SKC,0.00,VWS V14.01,2013-01-02 11:30:00,
2013-01-03 01:31:00,30.5,29.5,30.22,West,271,0.0,0.0,96,0.00,,SKC,0.00,VWS V14.01,2013-01-02 11:31:00,
2013-01-03 01:32:00,30.6,29.6,30.22,West,271,0.0,0.0,96,0.00,,SKC,0.00,VWS V14.01,2013-01-02 11:32:00,
2013-01-03 01:33:00,30.5,29.5,30.22,West,271,0.0,0.0,96,0.00,,SKC,0.00,VWS V14.01,2013-01-02 11:33:00,
2013-01-03 01:34:00,30.5,29.5,30.22,West,271,0.0,0.0,96,0.00,,SKC,0.00,VWS V14.01,2013-01-02 11:34:00,
2013-01-03 01:35:00,30.5,29.5,30.22,West,271,0.0,2.0,96,0.00,,SKC,0.00,VWS V14.01,2013-01-02 11:35:00,
2013-01-03 01:36:00,30.7,29.7,30.23,West,271,0.0,0.0,96,0.00,,SKC,0.00,VWS V14.01,2013-01-02 11:36:00,
2013-01-03 01:37:00,30.7,29.7,30.23,West,271,0.0,1.0,96,0.00,,SKC,0.00,VWS V14.01,2013-01-02 11:37:00,
2013-01-03 01:38:00,30.7,29.7,30.23,West,271,0.0,0.0,96,0.00,,SKC,0.00,VWS V14.01,2013-01-02 11:38:00,
2013-01-03 01:39:00,30.7,29.7,30.23,West,271,0.0,0.0,96,0.00,,SKC,0.00,VWS V14.01,2013-01-02 11:39:00,
2013-01-03 01:40:00,30.8,29.8,30.23,West,271,0.0,0.0,96,0.00,,SKC,0.00,VWS V14.01,2013-01-02 11:40:00,
2013-01-03 01:41:00,30.9,30.1,30.23,West,271,0.0,0.0,97,0.00,,SKC,0.00,VWS V14.01,2013-01-02 11:41:00,
2013-01-03 01:42:00,30.8,29.8,30.23,West,271,0.0,0.0,96,0.00,,SKC,0.00,VWS V14.01,2013-01-02 11:42:00,
2013-01-03 01:43:00,30.9,30.1,30.23,West,271,0.0,0.0,97,0.00,,SKC,0.00,VWS V14.01,2013-01-02 11:43:00,
2013-01-03 01:44:00,31.0,30.2,30.23,West,271,0.0,0.0,97,0.00,,SKC,0.00,VWS V14.01,2013-01-02 11:44:00,
2013-01-03 01:45:00,31.1,30.4,30.23,West,271,0.0,0.0,97,0.00,,SKC,0.00,VWS V14.01,2013-01-02 11:45:00,
2013-01-03 01:46:00,31.0,30.0,30.23,West,271,0.0,0.0,96,0.00,,SKC,0.00,VWS V14.01,2013-01-02 11:46:00,
2013-01-03 01:47:00,31.0,30.0,30.23,West,271,0.0,0.0,96,0.00,,SKC,0.00,VWS V14.01,2013-01-02 11:47:00,
2013-01-03 01:48:00,31.0,30.0,30.22,West,271,0.0,0.0,96,0.00,,SKC,0.00,VWS V14.01,2013-01-02 11:48:00,
2013-01-03 01:49:00,30.9,29.9,30.23,West,271,0.0,0.0,96,0.00,,SKC,0.00,VWS V14.01,2013-01-02 11:49:00,
2013-01-03 01:50:00,30.9,29.9,30.23,West,271,0.0,0.0,96,0.00,,SKC,0.00,VWS V14.01,2013-01-02 11:50:00,
2013-01-03 01:51:00,30.7,29.7,30.22,West,271,0.0,0.0,96,0.00,,SKC,0.00,VWS V14.01,2013-01-02 11:51:00,
2013-01-03 01:52:00,30.7,29.7,30.22,West,271,0.0,0.0,96,0.00,,SKC,0.00,VWS V14.01,2013-01-02 11:52:00,
2013-01-03 01:53:00,30.7,29.7,30.23,West,271,0.0,0.0,96,0.00,,SKC,0.00,VWS V14.01,2013-01-02 11:53:00,
2013-01-03 01:54:00,30.6,29.6,30.23,West,271,0.0,0.0,96,0.00,,SKC,0.00,VWS V14.01,2013-01-02 11:54:00,
2013-01-03 01:55:00,30.6,29.6,30.22,West,271,0.0,0.0,96,0.00,,SKC,0.00,VWS V14.01,2013-01-02 11:55:00,
2013-01-03 01:56:00,30.5,29.5,30.22,West,271,0.0,0.0,96,0.00,,SKC,0.00,VWS V14.01,2013-01-02 11:56:00,
2013-01-03 01:57:00,30.6,29.6,30.22,West,271,0.0,0.0,96,0.00,,SKC,0.00,VWS V14.01,2013-01-02 11:57:00,
2013-01-03 01:58:00,30.5,29.5,30.22,West,271,0.0,0.0,96,0.00,,SKC,0.00,VWS V14.01,2013-01-02 11:58:00,
2013-01-03 01:59:00,30.5,29.5,30.22,West,271,0.0,0.0,96,0.00,,SKC,0.00,VWS V14.01,2013-01-02 11:59:00,
2013-01-03 02:01:00,30.4,29.4,30.22,West,271,0.0,0.0,96,0.00,,SKC,0.00,VWS V14.01,2013-01-02 12:01:00,
2013-01-03 02:03:00,30.4,29.4,30.22,West,271,0.0,0.0,96,0.00,,SKC,0.00,VWS V14.01,2013-01-02 12:03:00,
2013-01-03 02:04:00,30.4,29.4,30.22,West,271,0.0,0.0,96,0.00,,SKC,0.00,VWS V14.01,2013-01-02 12:04:00,
2013-01-03 02:05:00,30.4,29.4,30.22,West,271,0.0,0.0,96,0.00,,SKC,0.00,VWS V14.01,2013-01-02 12:05:00,
2013-01-03 02:06:00,30.3,29.3,30.22,West,271,0.0,0.0,96,0.00,,SKC,0.00,VWS V14.01,2013-01-02 12:06:00,
2013-01-03 02:07:00,30.4,29.4,30.22,West,271,0.0,0.0,96,0.00,,SKC,0.00,VWS V14.01,2013-01-02 12:07:00,
2013-01-03 02:08:00,30.3,29.3,30.22,West,271,0.0,0.0,96,0.00,,SKC,0.00,VWS V14.01,2013-01-02 12:08:00,
2013-01-03 02:09:00,30.3,29.3,30.22,West,271,0.0,0.0,96,0.00,,SKC,0.00,VWS V14.01,2013-01-02 12:09:00,
2013-01-03 02:10:00,30.2,29.2,30.22,West,271,0.0,0.0,96,0.00,,SKC,0.00,VWS V14.01,2013-01-02 12:10:00,
2013-01-03 02:11:00,30.2,29.2,30.22,West,271,0.0,0.0,96,0.00,,SKC,0.00,VWS V14.01,2013-01-02 12:11:00,
2013-01-03 02:12:00,30.2,29.2,30.22,West,271,0.0,0.0,96,0.00,,SKC,0.00,VWS V14.01,2013-01-02 12:12:00,
2013-01-03 02:13:00,30.2,29.2,30.22,West,271,0.0,0.0,96,0.00,,SKC,0.00,VWS V14.01,2013-01-02 12:13:00,
2013-01-03 02:14:00,30.2,29.2,30.22,West,271,0.0,0.0,96,0.00,,SKC,0.00,VWS V14.01,2013-01-02 12:14:00,
2013-01-03 02:16:00,30.2,29.2,30.22,West,271,0.0,0.0,96,0.00,,SKC,0.00,VWS V14.01,2013-01-02 12:16:00,
2013-01-03 02:18:00,30.2,29.2,30.22,West,271,0.0,0.0,96,0.00,,SKC,0.00,VWS V14.01,2013-01-02 12:18:00,
2013-01-03 02:19:00,30.3,29.5,30.22,West,271,0.0,0.0,97,0.00,,SKC,0.00,VWS V14.01,2013-01-02 12:19:00,
2013-01-03 02:20:00,30.3,29.5,30.22,West,271,0.0,0.0,97,0.00,,SKC,0.00,VWS V14.01,2013-01-02 12:20:00,
2013-01-03 02:21:00,30.3,29.3,30.22,West,271,0.0,0.0,96,0.00,,SKC,0.00,VWS V14.01,2013-01-02 12:21:00,
2013-01-03 02:22:00,30.3,29.5,30.22,West,271,0.0,0.0,97,0.00,,SKC,0.00,VWS V14.01,2013-01-02 12:22:00,
2013-01-03 02:23:00,30.2,29.2,30.22,West,271,0.0,0.0,96,0.00,,SKC,0.00,VWS V14.01,2013-01-02 12:23:00,
2013-01-03 02:24:00,30.2,29.2,30.22,West,271,0.0,0.0,96,0.00,,SKC,0.00,VWS V14.01,2013-01-02 12:24:00,
2013-01-03 02:25:00,30.3,29.5,30.22,West,271,0.0,0.0,97,0.00,,SKC,0.00,VWS V14.01,2013-01-02 12:25:00,
2013-01-03 02:26:00,30.2,29.2,30.22,West,271,0.0,0.0,96,0.00,,SKC,0.00,VWS V14.01,2013-01-02 12:26:00,
2013-01-03 02:27:00,30.2,29.5,30.22,West,271,0.0,0.0,97,0.00,,SKC,0.00,VWS V14.01,2013-01-02 12:27:00,
2013-01-03 02:28:00,30.2,29.2,30.22,West,271,0.0,0.0,96,0.00,,SKC,0.00,VWS V14.01,2013-01-02 12:28:00,
2013-01-03 02:29:00,30.2,29.2,30.22,West,271,0.0,0.0,96,0.00,,SKC,0.00,VWS V14.01,2013-01-02 12:29:00,
2013-01-03 02:30:00,30.2,29.2,30.22,West,271,0.0,0.0,96,0.00,,SKC,0.00,VWS V14.01,2013-01-02 12:30:00,
2013-01-03 02:31:00,30.1,29.1,30.22,West,271,0.0,0.0,96,0.00,,SKC,0.00,VWS V14.01,2013-01-02 12:31:00,
2013-01-03 02:32:00,30.1,29.1,30.22,West,271,0.0,0.0,96,0.00,,SKC,0.00,VWS V14.01,2013-01-02 12:32:00,
2013-01-03 02:33:00,30.1,29.1,30.22,West,271,0.0,0.0,96,0.00,,SKC,0.00,VWS V14.01,2013-01-02 12:33:00,
2013-01-03 02:34:00,30.1,29.1,30.22,West,271,0.0,0.0,96,0.00,,SKC,0.00,VWS V14.01,2013-01-02 12:34:00,
2013-01-03 02:35:00,30.0,29.0,30.22,West,271,0.0,0.0,96,0.00,,SKC,0.00,VWS V14.01,2013-01-02 12:35:00,
2013-01-03 02:36:00,29.9,28.9,30.22,West,271,0.0,0.0,96,0.00,,SKC,0.00,VWS V14.01,2013-01-02 12:36:00,
2013-01-03 02:37:00,30.0,29.0,30.22,West,271,0.0,0.0,96,0.00,,SKC,0.00,VWS V14.01,2013-01-02 12:37:00,
2013-01-03 02:38:00,29.9,28.9,30.22,West,271,0.0,0.0,96,0.00,,SKC,0.00,VWS V14.01,2013-01-02 12:38:00,
2013-01-03 02:39:00,29.9,28.9,30.22,West,271,0.0,0.0,96,0.00,,SKC,0.00,VWS V14.01,2013-01-02 12:39:00,
2013-01-03 02:40:00,29.9,28.9,30.22,West,271,0.0,0.0,96,0.00,,SKC,0.00,VWS V14.01,2013-01-02 12:40:00,
2013-01-03 02:41:00,29.8,28.8,30.22,West,271,0.0,0.0,96,0.00,,SKC,0.00,VWS V14.01,2013-01-02 12:41:00,
2013-01-03 02:42:00,29.8,28.8,30.22,West,271,0.0,0.0,96,0.00,,SKC,0.00,VWS V14.01,2013-01-02 12:42:00,
2013-01-03 02:43:00,29.8,28.8,30.22,West,271,0.0,0.0,96,0.00,,SKC,0.00,VWS V14.01,2013-01-02 12:43:00,
2013-01-03 02:44:00,29.8,28.8,30.22,West,271,0.0,0.0,96,0.00,,SKC,0.00,VWS V14.01,2013-01-02 12:44:00,
2013-01-03 02:45:00,29.9,28.9,30.22,West,271,0.0,0.0,96,0.00,,SKC,0.00,VWS V14.01,2013-01-02 12:45:00,
2013-01-03 02:46:00,29.9,29.1,30.22,West,271,0.0,0.0,97,0.00,,SKC,0.00,VWS V14.01,2013-01-02 12:46:00,
2013-01-03 02:47:00,29.9,29.1,30.22,West,271,0.0,0.0,97,0.00,,SKC,0.00,VWS V14.01,2013-01-02 12:47:00,
2013-01-03 02:48:00,29.9,28.9,30.22,West,271,0.0,0.0,96,0.00,,SKC,0.00,VWS V14.01,2013-01-02 12:48:00,
2013-01-03 02:49:00,29.9,29.1,30.22,West,271,0.0,0.0,97,0.00,,SKC,0.00,VWS V14.01,2013-01-02 12:49:00,
2013-01-03 02:50:00,29.9,28.9,30.22,West,271,0.0,0.0,96,0.00,,SKC,0.00,VWS V14.01,2013-01-02 12:50:00,
2013-01-03 02:51:00,29.9,28.9,30.22,West,271,0.0,0.0,96,0.00,,SKC,0.00,VWS V14.01,2013-01-02 12:51:00,
2013-01-03 02:52:00,29.9,29.1,30.22,West,271,0.0,0.0,97,0.00,,SKC,0.00,VWS V14.01,2013-01-02 12:52:00,
2013-01-03 02:53:00,29.9,28.9,30.22,West,271,0.0,0.0,96,0.00,,SKC,0.00,VWS V14.01,2013-01-02 12:53:00,
2013-01-03 02:54:00,29.9,28.9,30.22,West,271,0.0,0.0,96,0.00,,SKC,0.00,VWS V14.01,2013-01-02 12:54:00,
2013-01-03 02:55:00,30.0,29.0,30.22,West,271,0.0,0.0,96,0.00,,SKC,0.00,VWS V14.01,2013-01-02 12:55:00,
2013-01-03 02:56:00,30.1,29.4,30.22,West,271,0.0,0.0,97,0.00,,SKC,0.00,VWS V14.01,2013-01-02 12:56:00,
2013-01-03 02:57:00,30.1,29.4,30.22,West,271,0.0,0.0,97,0.00,,SKC,0.00,VWS V14.01,2013-01-02 12:57:00,
2013-01-03 02:58:00,30.1,29.4,30.22,West,271,0.0,0.0,97,0.00,,SKC,0.00,VWS V14.01,2013-01-02 12:58:00,
2013-01-03 02:59:00,30.1,29.4,30.22,West,271,0.0,0.0,97,0.00,,SKC,0.00,VWS V14.01,2013-01-02 12:59:00,
2013-01-03 03:00:00,30.1,29.4,30.22,West,271,0.0,0.0,97,0.00,,SKC,0.00,VWS V14.01,2013-01-02 13:00:00,
2013-01-03 03:01:00,30.0,29.0,30.22,West,271,0.0,0.0,96,0.00,,SKC,0.00,VWS V14.01,2013-01-02 13:01:00,
2013-01-03 03:02:00,30.0,29.0,30.22,West,271,0.0,0.0,96,0.00,,SKC,0.00,VWS V14.01,2013-01-02 13:02:00,
2013-01-03 03:03:00,30.0,29.0,30.22,West,271,0.0,0.0,96,0.00,,SKC,0.00,VWS V14.01,2013-01-02 13:03:00,
2013-01-03 03:04:00,30.0,29.0,30.22,West,271,0.0,0.0,96,0.00,,SKC,0.00,VWS V14.01,2013-01-02 13:04:00,
2013-01-03 03:05:00,29.9,28.9,30.22,West,271,0.0,0.0,96,0.00,,SKC,0.00,VWS V14.01,2013-01-02 13:05:00,
2013-01-03 03:06:00,29.9,29.1,30.22,West,271,0.0,0.0,97,0.00,,SKC,0.00,VWS V14.01,2013-01-02 13:06:00,
2013-01-03 03:07:00,29.9,29.1,30.22,West,271,0.0,0.0,97,0.00,,SKC,0.00,VWS V14.01,2013-01-02 13:07:00,
2013-01-03 03:08:00,29.9,29.1,30.22,West,271,0.0,0.0,97,0.00,,SKC,0.00,VWS V14.01,2013-01-02 13:08:00,
2013-01-03 03:09:00,29.9,29.1,30.22,West,271,0.0,0.0,97,0.00,,SKC,0.00,VWS V14.01,2013-01-02 13:09:00,
2013-01-03 03:10:00,29.8,29.0,30.22,West,271,0.0,1.0,97,0.00,,SKC,0.00,VWS V14.01,2013-01-02 13:10:00,
2013-01-03 03:11:00,29.7,29.0,30.22,West,271,0.0,0.0,97,0.00,,SKC,0.00,VWS V14.01,2013-01-02 13:11:00,
2013-01-03 03:12:00,29.7,29.0,30.22,West,271,0.0,0.0,97,0.00,,SKC,0.00,VWS V14.01,2013-01-02 13:12:00,
2013-01-03 03:13:00,29.7,28.7,30.22,West,271,0.0,0.0,96,0.00,,SKC,0.00,VWS V14.01,2013-01-02 13:13:00,
2013-01-03 03:14:00,29.6,28.6,30.21,West,271,0.0,0.0,96,0.00,,SKC,0.00,VWS V14.01,2013-01-02 13:14:00,
2013-01-03 03:15:00,29.6,28.9,30.22,West,271,0.0,1.0,97,0.00,,SKC,0.00,VWS V14.01,2013-01-02 13:15:00,
2013-01-03 03:16:00,29.6,28.6,30.21,West,271,0.0,0.0,96,0.00,,SKC,0.00,VWS V14.01,2013-01-02 13:16:00,
2013-01-03 03:17:00,29.6,28.6,30.21,West,271,0.0,0.0,96,0.00,,SKC,0.00,VWS V14.01,2013-01-02 13:17:00,
2013-01-03 03:18:00,29.6,28.6,30.21,West,271,0.0,0.0,96,0.00,,SKC,0.00,VWS V14.01,2013-01-02 13:18:00,
2013-01-03 03:19:00,29.6,28.6,30.21,West,271,0.0,0.0,96,0.00,,SKC,0.00,VWS V14.01,2013-01-02 13:19:00,
2013-01-03 03:20:00,29.6,28.6,30.21,West,271,0.0,0.0,96,0.00,,SKC,0.00,VWS V14.01,2013-01-02 13:20:00,
2013-01-03 03:21:00,29.6,28.6,30.21,West,271,1.0,1.0,96,0.00,,SKC,0.00,VWS V14.01,2013-01-02 13:21:00,
2013-01-03 03:22:00,29.6,28.9,30.21,West,271,0.0,0.0,97,0.00,,SKC,0.00,VWS V14.01,2013-01-02 13:22:00,
2013-01-03 03:23:00,29.6,28.6,30.21,West,271,1.0,1.0,96,0.00,,SKC,0.00,VWS V14.01,2013-01-02 13:23:00,
2013-01-03 03:24:00,29.6,28.6,30.21,West,271,0.0,1.0,96,0.00,,SKC,0.00,VWS V14.01,2013-01-02 13:24:00,
2013-01-03 03:25:00,29.6,28.6,30.21,West,271,0.0,1.0,96,0.00,,SKC,0.00,VWS V14.01,2013-01-02 13:25:00,
2013-01-03 03:26:00,29.6,28.9,30.22,West,271,0.0,0.0,97,0.00,,SKC,0.00,VWS V14.01,2013-01-02 13:26:00,
2013-01-03 03:27:00,29.6,28.9,30.21,West,271,0.0,0.0,97,0.00,,SKC,0.00,VWS V14.01,2013-01-02 13:27:00,
2013-01-03 03:28:00,29.6,28.9,30.22,West,271,0.0,0.0,97,0.00,,SKC,0.00,VWS V14.01,2013-01-02 13:28:00,
2013-01-03 03:29:00,29.6,28.9,30.21,West,271,0.0,0.0,97,0.00,,SKC,0.00,VWS V14.01,2013-01-02 13:29:00,
2013-01-03 03:30:00,29.6,28.9,30.21,West,271,0.0,0.0,97,0.00,,SKC,0.00,VWS V14.01,2013-01-02 13:30:00,
2013-01-03 03:31:00,29.6,28.9,30.21,West,271,0.0,0.0,97,0.00,,SKC,0.00,VWS V14.01,2013-01-02 13:31:00,
2013-01-03 03:32:00,29.6,28.9,30.21,West,271,0.0,0.0,97,0.00,,SKC,0.00,VWS V14.01,2013-01-02 13:32:00,
2013-01-03 03:33:00,29.6,28.9,30.21,West,271,0.0,0.0,97,0.00,,SKC,0.00,VWS V14.01,2013-01-02 13:33:00,
2013-01-03 03:34:00,29.6,28.9,30.22,West,271,0.0,0.0,97,0.00,,SKC,0.00,VWS V14.01,2013-01-02 13:34:00,
2013-01-03 03:35:00,29.6,28.9,30.22,West,271,0.0,0.0,97,0.00,,SKC,0.00,VWS V14.01,2013-01-02 13:35:00,
2013-01-03 03:36:00,29.6,28.9,30.22,West,271,0.0,0.0,97,0.00,,SKC,0.00,VWS V14.01,2013-01-02 13:36:00,
2013-01-03 03:37:00,29.6,28.9,30.22,West,271,0.0,0.0,97,0.00,,SKC,0.00,VWS V14.01,2013-01-02 13:37:00,
2013-01-03 03:38:00,29.6,28.9,30.22,West,271,0.0,0.0,97,0.00,,SKC,0.00,VWS V14.01,2013-01-02 13:38:00,
2013-01-03 03:39:00,29.7,29.0,30.22,West,271,0.0,0.0,97,0.00,,SKC,0.00,VWS V14.01,2013-01-02 13:39:00,
2013-01-03 03:40:00,29.8,29.0,30.22,West,271,0.0,0.0,97,0.00,,SKC,0.00,VWS V14.01,2013-01-02 13:40:00,
2013-01-03 03:41:00,29.7,29.0,30.22,West,271,0.0,0.0,97,0.00,,SKC,0.00,VWS V14.01,2013-01-02 13:41:00,
2013-01-03 03:42:00,29.7,29.0,30.22,West,271,0.0,0.0,97,0.00,,SKC,0.00,VWS V14.01,2013-01-02 13:42:00,
2013-01-03 03:43:00,29.7,29.0,30.22,West,271,0.0,0.0,97,0.00,,SKC,0.00,VWS V14.01,2013-01-02 13:43:00,
2013-01-03 03:44:00,29.6,28.9,30.21,West,271,0.0,0.0,97,0.00,,SKC,0.00,VWS V14.01,2013-01-02 13:44:00,
2013-01-03 03:45:00,29.6,28.9,30.21,West,271,0.0,0.0,97,0.00,,SKC,0.00,VWS V14.01,2013-01-02 13:45:00,
2013-01-03 03:46:00,29.7,29.0,30.21,West,271,0.0,0.0,97,0.00,,SKC,0.00,VWS V14.01,2013-01-02 13:46:00,
2013-01-03 03:47:00,29.8,29.0,30.21,West,271,0.0,0.0,97,0.00,,SKC,0.00,VWS V14.01,2013-01-02 13:47:00,
2013-01-03 03:48:00,29.7,29.0,30.21,West,271,0.0,0.0,97,0.00,,SKC,0.00,VWS V14.01,2013-01-02 13:48:00,
2013-01-03 03:49:00,29.6,28.9,30.21,West,271,0.0,0.0,97,0.00,,SKC,0.00,VWS V14.01,2013-01-02 13:49:00,
2013-01-03 03:50:00,29.6,28.9,30.21,West,271,0.0,0.0,97,0.00,,SKC,0.00,VWS V14.01,2013-01-02 13:50:00,
2013-01-03 03:51:00,29.6,28.9,30.21,West,271,0.0,0.0,97,0.00,,SKC,0.00,VWS V14.01,2013-01-02 13:51:00,
2013-01-03 03:52:00,29.6,28.9,30.21,West,271,0.0,0.0,97,0.00,,SKC,0.00,VWS V14.01,2013-01-02 13:52:00,
2013-01-03 03:53:00,29.6,28.9,30.21,West,271,0.0,0.0,97,0.00,,SKC,0.00,VWS V14.01,2013-01-02 13:53:00,
2013-01-03 03:54:00,29.7,29.0,30.21,West,271,0.0,0.0,97,0.00,,SKC,0.00,VWS V14.01,2013-01-02 13:54:00,
2013-01-03 03:55:00,29.7,29.0,30.21,West,271,0.0,0.0,97,0.00,,SKC,0.00,VWS V14.01,2013-01-02 13:55:00,
2013-01-03 03:56:00,29.5,28.8,30.22,West,271,0.0,0.0,97,0.00,,SKC,0.00,VWS V14.01,2013-01-02 13:56:00,
2013-01-03 03:57:00,29.5,28.8,30.22,West,271,0.0,0.0,97,0.00,,SKC,0.00,VWS V14.01,2013-01-02 13:57:00,
2013-01-03 03:58:00,29.4,28.7,30.22,West,271,0.0,0.0,97,0.00,,SKC,0.00,VWS V14.01,2013-01-02 13:58:00,
2013-01-03 03:59:00,29.4,28.7,30.21,West,271,0.0,0.0,97,0.00,,SKC,0.00,VWS V14.01,2013-01-02 13:59:00,
2013-01-03 04:00:00,29.4,28.7,30.21,West,271,0.0,0.0,97,0.00,,SKC,0.00,VWS V14.01,2013-01-02 14:00:00,
2013-01-03 04:01:00,29.4,28.7,30.22,West,271,0.0,0.0,97,0.00,,SKC,0.00,VWS V14.01,2013-01-02 14:01:00,
2013-01-03 04:02:00,29.4,28.7,30.22,West,271,0.0,0.0,97,0.00,,SKC,0.00,VWS V14.01,2013-01-02 14:02:00,
2013-01-03 04:03:00,29.4,28.7,30.22,West,271,0.0,0.0,97,0.00,,SKC,0.00,VWS V14.01,2013-01-02 14:03:00,
2013-01-03 04:04:00,29.4,28.7,30.21,West,271,0.0,0.0,97,0.00,,SKC,0.00,VWS V14.01,2013-01-02 14:04:00,
2013-01-03 04:05:00,29.5,28.8,30.21,West,271,0.0,0.0,97,0.00,,SKC,0.00,VWS V14.01,2013-01-02 14:05:00,
2013-01-03 04:06:00,29.5,28.8,30.22,West,271,0.0,0.0,97,0.00,,SKC,0.00,VWS V14.01,2013-01-02 14:06:00,
2013-01-03 04:07:00,29.5,28.8,30.22,West,271,0.0,0.0,97,0.00,,SKC,0.00,VWS V14.01,2013-01-02 14:07:00,
2013-01-03 04:08:00,29.4,28.7,30.22,West,271,0.0,0.0,97,0.00,,SKC,0.00,VWS V14.01,2013-01-02 14:08:00,
2013-01-03 04:09:00,29.4,28.7,30.22,West,271,0.0,0.0,97,0.00,,SKC,0.00,VWS V14.01,2013-01-02 14:09:00,
2013-01-03 04:10:00,29.4,28.7,30.22,West,271,0.0,0.0,97,0.00,,SKC,0.00,VWS V14.01,2013-01-02 14:10:00,
2013-01-03 04:11:00,29.4,28.7,30.22,West,271,0.0,0.0,97,0.00,,SKC,0.00,VWS V14.01,2013-01-02 14:11:00,
2013-01-03 04:12:00,29.4,28.7,30.22,West,271,0.0,0.0,97,0.00,,SKC,0.00,VWS V14.01,2013-01-02 14:12:00,
2013-01-03 04:13:00,29.5,28.8,30.22,West,271,0.0,0.0,97,0.00,,SKC,0.00,VWS V14.01,2013-01-02 14:13:00,
2013-01-03 04:14:00,29.6,28.9,30.22,West,271,0.0,0.0,97,0.00,,SKC,0.00,VWS V14.01,2013-01-02 14:14:00,
2013-01-03 04:15:00,29.6,28.9,30.22,West,271,0.0,0.0,97,0.00,,SKC,0.00,VWS V14.01,2013-01-02 14:15:00,
2013-01-03 04:16:00,29.6,28.9,30.22,West,271,0.0,0.0,97,0.00,,SKC,0.00,VWS V14.01,2013-01-02 14:16:00,
2013-01-03 04:17:00,29.6,28.9,30.22,West,271,0.0,0.0,97,0.00,,SKC,0.00,VWS V14.01,2013-01-02 14:17:00,
2013-01-03 04:18:00,29.6,28.9,30.22,West,271,0.0,0.0,97,0.00,,SKC,0.00,VWS V14.01,2013-01-02 14:18:00,
2013-01-03 04:19:00,29.6,28.9,30.22,West,271,0.0,0.0,97,0.00,,SKC,0.00,VWS V14.01,2013-01-02 14:19:00,
2013-01-03 04:20:00,29.6,28.9,30.22,West,271,0.0,0.0,97,0.00,,SKC,0.00,VWS V14.01,2013-01-02 14:20:00,
2013-01-03 04:21:00,29.5,28.8,30.22,West,271,0.0,0.0,97,0.00,,SKC,0.00,VWS V14.01,2013-01-02 14:21:00,
2013-01-03 04:22:00,29.6,28.9,30.22,West,271,0.0,0.0,97,0.00,,SKC,0.00,VWS V14.01,2013-01-02 14:22:00,
2013-01-03 04:23:00,29.5,28.8,30.22,West,271,0.0,0.0,97,0.00,,SKC,0.00,VWS V14.01,2013-01-02 14:23:00,
2013-01-03 04:24:00,29.4,28.7,30.22,West,271,0.0,0.0,97,0.00,,SKC,0.00,VWS V14.01,2013-01-02 14:24:00,
2013-01-03 04:25:00,29.4,28.7,30.22,West,271,0.0,0.0,97,0.00,,SKC,0.00,VWS V14.01,2013-01-02 14:25:00,
2013-01-03 04:26:00,29.4,28.7,30.22,West,271,0.0,0.0,97,0.00,,SKC,0.00,VWS V14.01,2013-01-02 14:26:00,
2013-01-03 04:27:00,29.3,28.6,30.22,West,271,0.0,0.0,97,0.00,,SKC,0.00,VWS V14.01,2013-01-02 14:27:00,
2013-01-03 04:28:00,29.3,28.6,30.22,West,271,0.0,0.0,97,0.00,,SKC,0.00,VWS V14.01,2013-01-02 14:28:00,
2013-01-03 04:29:00,29.3,28.6,30.22,West,271,0.0,0.0,97,0.00,,SKC,0.00,VWS V14.01,2013-01-02 14:29:00,
2013-01-03 04:30:00,29.3,28.6,30.22,West,271,0.0,0.0,97,0.00,,SKC,0.00,VWS V14.01,2013-01-02 14:30:00,
2013-01-03 04:31:00,29.4,28.7,30.22,West,271,0.0,0.0,97,0.00,,SKC,0.00,VWS V14.01,2013-01-02 14:31:00,
2013-01-03 04:32:00,29.3,28.6,30.22,West,271,0.0,0.0,97,0.00,,SKC,0.00,VWS V14.01,2013-01-02 14:32:00,
2013-01-03 04:33:00,29.4,28.7,30.22,West,271,0.0,0.0,97,0.00,,SKC,0.00,VWS V14.01,2013-01-02 14:33:00,
2013-01-03 04:34:00,29.4,28.7,30.22,West,271,0.0,1.0,97,0.00,,SKC,0.00,VWS V14.01,2013-01-02 14:34:00,
2013-01-03 04:35:00,29.4,28.7,30.22,West,271,0.0,0.0,97,0.00,,SKC,0.00,VWS V14.01,2013-01-02 14:35:00,
2013-01-03 04:36:00,29.4,28.7,30.22,West,271,0.0,0.0,97,0.00,,SKC,0.00,VWS V14.01,2013-01-02 14:36:00,
2013-01-03 04:37:00,29.4,28.7,30.22,West,271,0.0,0.0,97,0.00,,SKC,0.00,VWS V14.01,2013-01-02 14:37:00,
2013-01-03 04:38:00,29.4,28.7,30.22,West,271,0.0,0.0,97,0.00,,SKC,0.00,VWS V14.01,2013-01-02 14:38:00,
2013-01-03 04:39:00,29.5,28.8,30.22,West,271,0.0,0.0,97,0.00,,SKC,0.00,VWS V14.01,2013-01-02 14:39:00,
2013-01-03 04:40:00,29.5,28.8,30.22,West,271,0.0,0.0,97,0.00,,SKC,0.00,VWS V14.01,2013-01-02 14:40:00,
2013-01-03 04:41:00,29.5,28.8,30.22,West,271,0.0,0.0,97,0.00,,SKC,0.00,VWS V14.01,2013-01-02 14:41:00,
2013-01-03 04:42:00,29.5,28.8,30.22,West,271,0.0,0.0,97,0.00,,SKC,0.00,VWS V14.01,2013-01-02 14:42:00,
2013-01-03 04:43:00,29.4,28.7,30.22,West,271,0.0,0.0,97,0.00,,SKC,0.00,VWS V14.01,2013-01-02 14:43:00,
2013-01-03 04:44:00,29.4,28.7,30.22,West,271,0.0,0.0,97,0.00,,SKC,0.00,VWS V14.01,2013-01-02 14:44:00,
2013-01-03 04:45:00,29.4,28.7,30.22,West,271,0.0,0.0,97,0.00,,SKC,0.00,VWS V14.01,2013-01-02 14:45:00,
2013-01-03 04:46:00,29.4,28.7,30.22,West,271,0.0,0.0,97,0.00,,SKC,0.00,VWS V14.01,2013-01-02 14:46:00,
2013-01-03 04:47:00,29.4,28.7,30.22,West,271,0.0,0.0,97,0.00,,SKC,0.00,VWS V14.01,2013-01-02 14:47:00,
2013-01-03 04:48:00,29.4,28.7,30.22,West,271,0.0,0.0,97,0.00,,SKC,0.00,VWS V14.01,2013-01-02 14:48:00,
2013-01-03 04:49:00,29.4,28.7,30.22,West,271,0.0,0.0,97,0.00,,SKC,0.00,VWS V14.01,2013-01-02 14:49:00,
2013-01-03 04:50:00,29.3,28.6,30.22,West,271,0.0,0.0,97,0.00,,SKC,0.00,VWS V14.01,2013-01-02 14:50:00,
2013-01-03 04:51:00,29.3,28.6,30.22,West,271,0.0,0.0,97,0.00,,SKC,0.00,VWS V14.01,2013-01-02 14:51:00,
2013-01-03 04:52:00,29.4,28.7,30.22,West,271,0.0,0.0,97,0.00,,SKC,0.00,VWS V14.01,2013-01-02 14:52:00,
2013-01-03 04:53:00,29.3,28.6,30.22,West,271,0.0,0.0,97,0.00,,SKC,0.00,VWS V14.01,2013-01-02 14:53:00,
2013-01-03 04:54:00,29.3,28.6,30.22,West,271,0.0,1.0,97,0.00,,SKC,0.00,VWS V14.01,2013-01-02 14:54:00,
2013-01-03 04:55:00,29.3,28.6,30.22,West,271,1.0,1.0,97,0.00,,SKC,0.00,VWS V14.01,2013-01-02 14:55:00,
2013-01-03 04:56:00,29.3,28.6,30.22,West,271,0.0,0.0,97,0.00,,SKC,0.00,VWS V14.01,2013-01-02 14:56:00,
2013-01-03 04:57:00,29.3,28.6,30.22,West,271,0.0,0.0,97,0.00,,SKC,0.00,VWS V14.01,2013-01-02 14:57:00,
2013-01-03 04:58:00,29.4,28.7,30.22,West,271,0.0,0.0,97,0.00,,SKC,0.00,VWS V14.01,2013-01-02 14:58:00,
2013-01-03 04:59:00,29.5,28.8,30.22,West,271,0.0,0.0,97,0.00,,SKC,0.00,VWS V14.01,2013-01-02 14:59:00,
2013-01-03 05:00:00,29.5,28.8,30.22,West,271,0.0,0.0,97,0.00,,SKC,0.00,VWS V14.01,2013-01-02 15:00:00,
2013-01-03 05:01:00,29.6,28.9,30.22,West,271,0.0,0.0,97,0.00,,SKC,0.00,VWS V14.01,2013-01-02 15:01:00,
2013-01-03 05:02:00,29.6,28.9,30.22,West,271,0.0,0.0,97,0.00,,SKC,0.00,VWS V14.01,2013-01-02 15:02:00,
2013-01-03 05:03:00,29.6,28.9,30.22,West,271,0.0,0.0,97,0.00,,SKC,0.00,VWS V14.01,2013-01-02 15:03:00,
2013-01-03 05:04:00,29.6,28.9,30.22,West,271,0.0,0.0,97,0.00,,SKC,0.00,VWS V14.01,2013-01-02 15:04:00,
2013-01-03 05:05:00,29.6,28.9,30.22,West,271,0.0,1.0,97,0.00,,SKC,0.00,VWS V14.01,2013-01-02 15:05:00,
2013-01-03 05:06:00,29.5,28.8,30.22,West,271,0.0,0.0,97,0.00,,SKC,0.00,VWS V14.01,2013-01-02 15:06:00,
2013-01-03 05:07:00,29.5,28.8,30.22,West,271,0.0,0.0,97,0.00,,SKC,0.00,VWS V14.01,2013-01-02 15:07:00,
2013-01-03 05:08:00,29.5,28.8,30.22,West,271,0.0,0.0,97,0.00,,SKC,0.00,VWS V14.01,2013-01-02 15:08:00,
2013-01-03 05:09:00,29.5,28.8,30.22,West,271,0.0,0.0,97,0.00,,SKC,0.00,VWS V14.01,2013-01-02 15:09:00,
2013-01-03 05:10:00,29.4,28.7,30.22,West,271,0.0,1.0,97,0.00,,SKC,0.00,VWS V14.01,2013-01-02 15:10:00,
2013-01-03 05:11:00,29.4,28.7,30.22,West,271,1.0,1.0,97,0.00,,SKC,0.00,VWS V14.01,2013-01-02 15:11:00,
2013-01-03 05:12:00,29.4,28.7,30.22,West,271,0.0,1.0,97,0.00,,SKC,0.00,VWS V14.01,2013-01-02 15:12:00,
2013-01-03 05:13:00,29.5,28.8,30.22,West,271,0.0,1.0,97,0.00,,SKC,0.00,VWS V14.01,2013-01-02 15:13:00,
2013-01-03 05:14:00,29.5,28.8,30.22,West,271,0.0,1.0,97,0.00,,SKC,0.00,VWS V14.01,2013-01-02 15:14:00,
2013-01-03 05:15:00,29.5,28.8,30.22,West,271,0.0,0.0,97,0.00,,SKC,0.00,VWS V14.01,2013-01-02 15:15:00,
2013-01-03 05:16:00,29.4,28.7,30.22,West,271,0.0,0.0,97,0.00,,SKC,0.00,VWS V14.01,2013-01-02 15:16:00,
2013-01-03 05:17:00,29.4,28.7,30.22,West,271,0.0,1.0,97,0.00,,SKC,0.00,VWS V14.01,2013-01-02 15:17:00,
2013-01-03 05:18:00,29.4,28.7,30.22,West,271,0.0,0.0,97,0.00,,SKC,0.00,VWS V14.01,2013-01-02 15:18:00,
2013-01-03 05:19:00,29.4,28.7,30.22,West,271,0.0,0.0,97,0.00,,SKC,0.00,VWS V14.01,2013-01-02 15:19:00,
2013-01-03 05:20:00,29.4,28.7,30.22,West,271,0.0,0.0,97,0.00,,SKC,0.00,VWS V14.01,2013-01-02 15:20:00,
2013-01-03 05:21:00,29.6,28.9,30.22,West,271,0.0,0.0,97,0.00,,SKC,0.00,VWS V14.01,2013-01-02 15:21:00,
2013-01-03 05:22:00,29.5,28.8,30.22,West,271,0.0,0.0,97,0.00,,SKC,0.00,VWS V14.01,2013-01-02 15:22:00,
2013-01-03 05:23:00,29.6,28.9,30.22,West,271,0.0,0.0,97,0.00,,SKC,0.00,VWS V14.01,2013-01-02 15:23:00,
2013-01-03 05:24:00,29.7,29.0,30.22,West,271,0.0,0.0,97,0.00,,SKC,0.00,VWS V14.01,2013-01-02 15:24:00,
2013-01-03 05:25:00,29.7,29.0,30.22,West,271,0.0,0.0,97,0.00,,SKC,0.00,VWS V14.01,2013-01-02 15:25:00,
2013-01-03 05:26:00,29.6,28.9,30.22,West,271,0.0,0.0,97,0.00,,SKC,0.00,VWS V14.01,2013-01-02 15:26:00,
2013-01-03 05:27:00,29.6,28.9,30.22,West,271,0.0,0.0,97,0.00,,SKC,0.00,VWS V14.01,2013-01-02 15:27:00,
2013-01-03 05:28:00,29.5,28.8,30.22,West,271,0.0,0.0,97,0.00,,SKC,0.00,VWS V14.01,2013-01-02 15:28:00,
2013-01-03 05:29:00,29.5,28.8,30.22,West,271,0.0,0.0,97,0.00,,SKC,0.00,VWS V14.01,2013-01-02 15:29:00,
2013-01-03 05:30:00,29.4,28.7,30.22,West,271,0.0,0.0,97,0.00,,SKC,0.00,VWS V14.01,2013-01-02 15:30:00,
2013-01-03 05:31:00,29.4,28.7,30.22,West,271,0.0,0.0,97,0.00,,SKC,0.00,VWS V14.01,2013-01-02 15:31:00,
2013-01-03 05:32:00,29.4,28.7,30.22,West,271,0.0,0.0,97,0.00,,SKC,0.00,VWS V14.01,2013-01-02 15:32:00,
2013-01-03 05:33:00,29.4,28.7,30.22,West,271,0.0,0.0,97,0.00,,SKC,0.00,VWS V14.01,2013-01-02 15:33:00,
2013-01-03 05:34:00,29.5,28.8,30.22,West,271,0.0,0.0,97,0.00,,SKC,0.00,VWS V14.01,2013-01-02 15:34:00,
2013-01-03 05:35:00,29.5,28.8,30.22,West,271,0.0,0.0,97,0.00,,SKC,0.00,VWS V14.01,2013-01-02 15:35:00,
2013-01-03 05:36:00,29.6,28.9,30.22,West,271,0.0,0.0,97,0.00,,SKC,0.00,VWS V14.01,2013-01-02 15:36:00,
2013-01-03 05:37:00,29.6,28.9,30.22,West,271,0.0,0.0,97,0.00,,SKC,0.00,VWS V14.01,2013-01-02 15:37:00,
2013-01-03 05:38:00,29.5,28.8,30.22,West,271,0.0,0.0,97,0.00,,SKC,0.00,VWS V14.01,2013-01-02 15:38:00,
2013-01-03 05:39:00,29.5,28.8,30.22,West,271,0.0,0.0,97,0.00,,SKC,0.00,VWS V14.01,2013-01-02 15:39:00,
2013-01-03 05:40:00,29.6,28.9,30.22,West,271,0.0,0.0,97,0.00,,SKC,0.00,VWS V14.01,2013-01-02 15:40:00,
2013-01-03 05:41:00,29.9,29.1,30.22,West,271,0.0,0.0,97,0.00,,SKC,0.00,VWS V14.01,2013-01-02 15:41:00,
2013-01-03 05:42:00,29.9,29.1,30.22,West,271,0.0,0.0,97,0.00,,SKC,0.00,VWS V14.01,2013-01-02 15:42:00,
2013-01-03 05:43:00,29.9,29.1,30.22,West,271,0.0,0.0,97,0.00,,SKC,0.00,VWS V14.01,2013-01-02 15:43:00,
2013-01-03 05:44:00,29.9,29.1,30.23,West,271,0.0,0.0,97,0.00,,SKC,0.00,VWS V14.01,2013-01-02 15:44:00,
2013-01-03 05:45:00,29.9,29.1,30.22,West,271,0.0,0.0,97,0.00,,SKC,0.00,VWS V14.01,2013-01-02 15:45:00,
2013-01-03 05:46:00,29.9,29.1,30.22,West,271,0.0,0.0,97,0.00,,SKC,0.00,VWS V14.01,2013-01-02 15:46:00,
2013-01-03 05:48:00,29.9,29.1,30.22,West,271,0.0,0.0,97,0.00,,SKC,0.00,VWS V14.01,2013-01-02 15:48:00,
2013-01-03 05:49:00,29.8,29.0,30.22,West,271,0.0,0.0,97,0.00,,SKC,0.00,VWS V14.01,2013-01-02 15:49:00,
2013-01-03 05:50:00,29.8,29.0,30.22,West,271,0.0,0.0,97,0.00,,SKC,0.00,VWS V14.01,2013-01-02 15:50:00,
2013-01-03 05:51:00,29.9,29.1,30.22,West,271,0.0,0.0,97,0.00,,SKC,0.00,VWS V14.01,2013-01-02 15:51:00,
2013-01-03 05:52:00,29.9,29.1,30.22,West,271,0.0,0.0,97,0.00,,SKC,0.00,VWS V14.01,2013-01-02 15:52:00,
2013-01-03 05:53:00,29.9,29.1,30.22,West,271,0.0,0.0,97,0.00,,SKC,0.00,VWS V14.01,2013-01-02 15:53:00,
2013-01-03 05:54:00,29.9,29.1,30.22,West,271,0.0,0.0,97,0.00,,SKC,0.00,VWS V14.01,2013-01-02 15:54:00,
2013-01-03 05:55:00,30.0,29.2,30.22,West,271,0.0,0.0,97,0.00,,SKC,0.00,VWS V14.01,2013-01-02 15:55:00,
2013-01-03 05:56:00,30.2,29.5,30.22,West,271,0.0,0.0,97,0.00,,SKC,0.00,VWS V14.01,2013-01-02 15:56:00,
2013-01-03 05:57:00,30.1,29.4,30.22,West,271,0.0,0.0,97,0.00,,SKC,0.00,VWS V14.01,2013-01-02 15:57:00,
2013-01-03 05:58:00,30.2,29.5,30.22,West,271,0.0,0.0,97,0.00,,SKC,0.00,VWS V14.01,2013-01-02 15:58:00,
2013-01-03 05:59:00,30.3,29.5,30.23,West,271,0.0,0.0,97,0.00,,SKC,0.00,VWS V14.01,2013-01-02 15:59:00,
2013-01-03 06:00:00,30.3,29.5,30.23,West,271,0.0,0.0,97,0.00,,SKC,0.00,VWS V14.01,2013-01-02 16:00:00,
2013-01-03 06:01:00,30.4,29.6,30.23,West,271,0.0,0.0,97,0.00,,SKC,0.00,VWS V14.01,2013-01-02 16:01:00,
2013-01-03 06:02:00,30.4,29.6,30.23,West,271,0.0,0.0,97,0.00,,SKC,0.00,VWS V14.01,2013-01-02 16:02:00,
2013-01-03 06:03:00,30.5,29.8,30.23,West,271,0.0,0.0,97,0.00,,SKC,0.00,VWS V14.01,2013-01-02 16:03:00,
2013-01-03 06:04:00,30.6,29.9,30.23,West,271,0.0,0.0,97,0.00,,SKC,0.00,VWS V14.01,2013-01-02 16:04:00,
2013-01-03 06:05:00,30.8,30.0,30.23,West,271,0.0,0.0,97,0.00,,SKC,0.00,VWS V14.01,2013-01-02 16:05:00,
2013-01-03 06:06:00,31.3,30.5,30.23,West,271,0.0,0.0,97,0.00,,SKC,0.00,VWS V14.01,2013-01-02 16:06:00,
2013-01-03 06:07:00,31.2,30.5,30.23,West,271,0.0,0.0,97,0.00,,SKC,0.00,VWS V14.01,2013-01-02 16:07:00,
2013-01-03 06:08:00,31.5,30.8,30.23,West,271,0.0,0.0,97,0.00,,SKC,0.00,VWS V14.01,2013-01-02 16:08:00,
2013-01-03 06:09:00,31.5,30.8,30.23,West,271,0.0,0.0,97,0.00,,SKC,0.00,VWS V14.01,2013-01-02 16:09:00,
2013-01-03 06:10:00,31.4,30.6,30.23,West,271,0.0,0.0,97,0.00,,SKC,0.00,VWS V14.01,2013-01-02 16:10:00,
2013-01-03 06:11:00,31.3,30.5,30.23,West,271,0.0,0.0,97,0.00,,SKC,0.00,VWS V14.01,2013-01-02 16:11:00,
2013-01-03 06:12:00,31.3,30.5,30.23,West,271,0.0,0.0,97,0.00,,SKC,0.00,VWS V14.01,2013-01-02 16:12:00,
2013-01-03 06:13:00,31.4,30.6,30.23,West,271,0.0,0.0,97,0.00,,SKC,0.00,VWS V14.01,2013-01-02 16:13:00,
2013-01-03 06:14:00,31.7,31.0,30.23,West,271,0.0,0.0,97,0.00,,SKC,0.00,VWS V14.01,2013-01-02 16:14:00,
2013-01-03 06:15:00,32.0,31.2,30.23,West,271,0.0,0.0,97,0.00,,SKC,0.00,VWS V14.01,2013-01-02 16:15:00,
2013-01-03 06:16:00,32.7,32.2,30.23,West,271,0.0,0.0,98,0.00,,SKC,0.00,VWS V14.01,2013-01-02 16:16:00,
2013-01-03 06:17:00,32.7,32.2,30.23,West,271,0.0,0.0,98,0.00,,SKC,0.00,VWS V14.01,2013-01-02 16:17:00,
2013-01-03 06:18:00,32.8,32.3,30.23,West,271,0.0,0.0,98,0.01,,SKC,0.01,VWS V14.01,2013-01-02 16:18:00,
2013-01-03 06:19:00,32.9,32.1,30.23,West,271,0.0,0.0,97,0.01,,SKC,0.01,VWS V14.01,2013-01-02 16:19:00,
2013-01-03 06:21:00,32.9,32.1,30.23,West,271,0.0,0.0,97,0.01,,SKC,0.01,VWS V14.01,2013-01-02 16:21:00,
2013-01-03 06:22:00,32.9,32.1,30.23,West,271,0.0,0.0,97,0.01,,SKC,0.01,VWS V14.01,2013-01-02 16:22:00,
2013-01-03 06:23:00,32.8,32.0,30.23,West,271,0.0,0.0,97,0.01,,SKC,0.01,VWS V14.01,2013-01-02 16:23:00,
2013-01-03 06:24:00,32.8,32.0,30.23,West,271,0.0,0.0,97,0.01,,SKC,0.01,VWS V14.01,2013-01-02 16:24:00,
2013-01-03 06:25:00,32.9,32.1,30.23,West,271,0.0,0.0,97,0.01,,SKC,0.01,VWS V14.01,2013-01-02 16:25:00,
2013-01-03 06:26:00,33.3,32.5,30.23,West,271,0.0,0.0,97,0.01,,SKC,0.01,VWS V14.01,2013-01-02 16:26:00,
2013-01-03 06:27:00,33.2,32.4,30.23,West,271,0.0,0.0,97,0.01,,SKC,0.01,VWS V14.01,2013-01-02 16:27:00,
2013-01-03 06:28:00,33.3,32.5,30.23,West,271,0.0,0.0,97,0.01,,SKC,0.01,VWS V14.01,2013-01-02 16:28:00,
2013-01-03 06:29:00,33.4,32.6,30.23,West,271,0.0,0.0,97,0.01,,SKC,0.01,VWS V14.01,2013-01-02 16:29:00,
2013-01-03 06:30:00,33.5,32.7,30.23,West,271,0.0,0.0,97,0.01,,SKC,0.01,VWS V14.01,2013-01-02 16:30:00,
2013-01-03 06:31:00,33.5,32.7,30.23,West,271,0.0,0.0,97,0.01,,SKC,0.01,VWS V14.01,2013-01-02 16:31:00,
2013-01-03 06:32:00,33.5,32.7,30.23,West,271,0.0,0.0,97,0.01,,SKC,0.01,VWS V14.01,2013-01-02 16:32:00,
2013-01-03 06:33:00,33.7,32.9,30.23,West,271,0.0,0.0,97,0.01,,SKC,0.01,VWS V14.01,2013-01-02 16:33:00,
2013-01-03 06:34:00,33.9,33.1,30.23,West,271,0.0,0.0,97,0.01,,SKC,0.01,VWS V14.01,2013-01-02 16:34:00,
2013-01-03 06:35:00,34.0,33.2,30.23,West,271,0.0,0.0,97,0.01,,SKC,0.01,VWS V14.01,2013-01-02 16:35:00,
2013-01-03 06:36:00,34.1,33.1,30.23,West,271,0.0,0.0,96,0.01,,SKC,0.01,VWS V14.01,2013-01-02 16:36:00,
2013-01-03 06:37:00,34.1,33.1,30.23,West,271,0.0,0.0,96,0.01,,SKC,0.01,VWS V14.01,2013-01-02 16:37:00,
2013-01-03 06:38:00,34.3,33.5,30.23,West,271,0.0,0.0,97,0.01,,SKC,0.01,VWS V14.01,2013-01-02 16:38:00,
2013-01-03 06:39:00,34.5,33.7,30.23,West,271,0.0,0.0,97,0.01,,SKC,0.01,VWS V14.01,2013-01-02 16:39:00,
2013-01-03 06:40:00,34.8,34.0,30.23,West,271,0.0,0.0,97,0.01,,SKC,0.01,VWS V14.01,2013-01-02 16:40:00,
2013-01-03 06:41:00,35.2,34.2,30.23,West,271,0.0,0.0,96,0.01,,SKC,0.01,VWS V14.01,2013-01-02 16:41:00,
2013-01-03 06:42:00,35.2,34.2,30.23,West,271,0.0,0.0,96,0.01,,SKC,0.01,VWS V14.01,2013-01-02 16:42:00,
2013-01-03 06:43:00,35.3,34.3,30.23,West,271,0.0,0.0,96,0.01,,SKC,0.01,VWS V14.01,2013-01-02 16:43:00,
2013-01-03 06:44:00,35.4,34.4,30.23,West,271,0.0,0.0,96,0.01,,SKC,0.01,VWS V14.01,2013-01-02 16:44:00,
2013-01-03 06:45:00,35.5,34.5,30.23,West,271,0.0,0.0,96,0.01,,SKC,0.01,VWS V14.01,2013-01-02 16:45:00,
2013-01-03 06:46:00,35.7,34.7,30.23,West,271,0.0,0.0,96,0.01,,SKC,0.01,VWS V14.01,2013-01-02 16:46:00,
2013-01-03 06:47:00,35.7,34.7,30.23,West,271,0.0,0.0,96,0.01,,SKC,0.01,VWS V14.01,2013-01-02 16:47:00,
2013-01-03 06:48:00,35.9,34.9,30.23,West,271,0.0,0.0,96,0.01,,SKC,0.01,VWS V14.01,2013-01-02 16:48:00,
2013-01-03 06:49:00,36.1,35.1,30.23,West,271,0.0,0.0,96,0.01,,SKC,0.01,VWS V14.01,2013-01-02 16:49:00,
2013-01-03 06:50:00,36.3,35.3,30.23,West,271,0.0,0.0,96,0.01,,SKC,0.01,VWS V14.01,2013-01-02 16:50:00,
2013-01-03 06:51:00,37.1,36.1,30.23,West,271,0.0,0.0,96,0.01,,SKC,0.01,VWS V14.01,2013-01-02 16:51:00,
2013-01-03 06:52:00,37.0,36.0,30.23,West,271,0.0,0.0,96,0.01,,SKC,0.01,VWS V14.01,2013-01-02 16:52:00,
2013-01-03 06:53:00,37.5,36.5,30.23,West,271,0.0,0.0,96,0.01,,SKC,0.01,VWS V14.01,2013-01-02 16:53:00,
2013-01-03 06:54:00,37.7,36.4,30.23,West,271,0.0,0.0,95,0.01,,SKC,0.01,VWS V14.01,2013-01-02 16:54:00,
2013-01-03 06:55:00,37.7,36.4,30.23,West,271,0.0,0.0,95,0.01,,SKC,0.01,VWS V14.01,2013-01-02 16:55:00,
2013-01-03 06:56:00,37.7,35.9,30.23,West,271,0.0,0.0,93,0.01,,SKC,0.01,VWS V14.01,2013-01-02 16:56:00,
2013-01-03 06:57:00,37.7,35.9,30.23,West,271,0.0,0.0,93,0.01,,SKC,0.01,VWS V14.01,2013-01-02 16:57:00,
2013-01-03 06:58:00,37.9,36.1,30.23,West,271,0.0,0.0,93,0.01,,SKC,0.01,VWS V14.01,2013-01-02 16:58:00,
2013-01-03 06:59:00,37.9,36.1,30.23,West,271,0.0,0.0,93,0.01,,SKC,0.01,VWS V14.01,2013-01-02 16:59:00,
2013-01-03 07:00:00,38.0,36.2,30.23,West,271,0.0,0.0,93,0.01,,SKC,0.01,VWS V14.01,2013-01-02 17:00:00,
2013-01-03 07:01:00,38.2,36.1,30.23,West,271,0.0,0.0,92,0.01,,SKC,0.01,VWS V14.01,2013-01-02 17:01:00,
2013-01-03 07:02:00,38.2,36.1,30.24,West,271,0.0,0.0,92,0.01,,SKC,0.01,VWS V14.01,2013-01-02 17:02:00,
2013-01-03 07:03:00,38.2,35.8,30.23,West,271,0.0,0.0,91,0.01,,SKC,0.01,VWS V14.01,2013-01-02 17:03:00,
2013-01-03 07:04:00,38.2,35.8,30.23,West,271,0.0,0.0,91,0.01,,SKC,0.01,VWS V14.01,2013-01-02 17:04:00,
2013-01-03 07:05:00,38.2,35.8,30.24,West,271,0.0,0.0,91,0.01,,SKC,0.01,VWS V14.01,2013-01-02 17:05:00,
2013-01-03 07:06:00,38.5,36.1,30.24,West,271,0.0,0.0,91,0.01,,SKC,0.01,VWS V14.01,2013-01-02 17:06:00,
2013-01-03 07:07:00,38.5,36.1,30.24,West,271,0.0,0.0,91,0.01,,SKC,0.01,VWS V14.01,2013-01-02 17:07:00,
2013-01-03 07:08:00,38.7,36.0,30.24,West,271,0.0,1.0,90,0.01,,SKC,0.01,VWS V14.01,2013-01-02 17:08:00,
2013-01-03 07:09:00,38.9,36.2,30.24,West,271,0.0,0.0,90,0.01,,SKC,0.01,VWS V14.01,2013-01-02 17:09:00,
2013-01-03 07:10:00,39.1,36.4,30.24,West,271,1.0,1.0,90,0.01,,SKC,0.01,VWS V14.01,2013-01-02 17:10:00,
2013-01-03 07:11:00,39.3,36.3,30.24,West,271,1.0,1.0,89,0.01,,SKC,0.01,VWS V14.01,2013-01-02 17:11:00,
2013-01-03 07:12:00,39.3,36.3,30.24,West,271,0.0,2.0,89,0.01,,SKC,0.01,VWS V14.01,2013-01-02 17:12:00,
2013-01-03 07:13:00,39.4,36.4,30.24,West,271,0.0,1.0,89,0.01,,SKC,0.01,VWS V14.01,2013-01-02 17:13:00,
2013-01-03 07:14:00,39.5,36.5,30.24,West,271,0.0,1.0,89,0.01,,SKC,0.01,VWS V14.01,2013-01-02 17:14:00,
2013-01-03 07:15:00,39.6,36.6,30.24,West,271,0.0,0.0,89,0.01,,SKC,0.01,VWS V14.01,2013-01-02 17:15:00,
2013-01-03 07:16:00,39.7,36.2,30.24,West,271,1.0,1.0,87,0.01,,SKC,0.01,VWS V14.01,2013-01-02 17:16:00,
2013-01-03 07:17:00,39.6,36.1,30.24,West,271,1.0,1.0,87,0.01,,SKC,0.01,VWS V14.01,2013-01-02 17:17:00,
2013-01-03 07:18:00,39.7,36.2,30.24,West,271,1.0,1.0,87,0.01,,SKC,0.01,VWS V14.01,2013-01-02 17:18:00,
2013-01-03 07:19:00,39.8,36.2,30.24,West,271,1.0,1.0,87,0.00,,SKC,0.01,VWS V14.01,2013-01-02 17:19:00,
2013-01-03 07:20:00,39.9,36.3,30.24,West,271,0.0,1.0,87,0.00,,SKC,0.01,VWS V14.01,2013-01-02 17:20:00,
2013-01-03 07:21:00,40.1,36.5,30.24,West,273,1.0,1.0,87,0.00,,SKC,0.01,VWS V14.01,2013-01-02 17:21:00,
2013-01-03 07:22:00,40.1,36.5,30.24,West,273,0.0,2.0,87,0.00,,SKC,0.01,VWS V14.01,2013-01-02 17:22:00,
2013-01-03 07:23:00,40.2,36.7,30.24,West,273,0.0,1.0,87,0.00,,SKC,0.01,VWS V14.01,2013-01-02 17:23:00,
2013-01-03 07:24:00,40.2,36.7,30.24,West,273,0.0,1.0,87,0.00,,SKC,0.01,VWS V14.01,2013-01-02 17:24:00,
2013-01-03 07:25:00,40.3,36.8,30.24,West,273,0.0,1.0,87,0.00,,SKC,0.01,VWS V14.01,2013-01-02 17:25:00,
2013-01-03 07:26:00,40.5,36.7,30.24,West,273,0.0,0.0,86,0.00,,SKC,0.01,VWS V14.01,2013-01-02 17:26:00,
2013-01-03 07:27:00,40.5,36.7,30.24,West,273,0.0,2.0,86,0.00,,SKC,0.01,VWS V14.01,2013-01-02 17:27:00,
2013-01-03 07:28:00,40.5,36.7,30.24,WNW,294,1.0,2.0,86,0.00,,SKC,0.01,VWS V14.01,2013-01-02 17:28:00,
2013-01-03 07:29:00,40.7,36.5,30.24,WNW,294,0.0,1.0,85,0.00,,SKC,0.01,VWS V14.01,2013-01-02 17:29:00,
2013-01-03 07:30:00,40.9,36.8,30.24,WNW,294,0.0,0.0,85,0.00,,SKC,0.01,VWS V14.01,2013-01-02 17:30:00,
2013-01-03 07:31:00,41.4,37.2,30.24,WNW,294,0.0,0.0,85,0.00,,SKC,0.01,VWS V14.01,2013-01-02 17:31:00,
2013-01-03 07:32:00,41.3,37.1,30.24,WNW,294,0.0,0.0,85,0.00,,SKC,0.01,VWS V14.01,2013-01-02 17:32:00,
2013-01-03 07:33:00,41.6,37.1,30.24,WNW,294,0.0,0.0,84,0.00,,SKC,0.01,VWS V14.01,2013-01-02 17:33:00,
2013-01-03 07:34:00,41.8,37.3,30.24,WNW,294,0.0,1.0,84,0.00,,SKC,0.01,VWS V14.01,2013-01-02 17:34:00,
2013-01-03 07:35:00,41.9,37.1,30.24,NW,313,0.0,1.0,83,0.00,,SKC,0.01,VWS V14.01,2013-01-02 17:35:00,
2013-01-03 07:36:00,41.9,36.8,30.24,NW,313,0.0,1.0,82,0.00,,SKC,0.01,VWS V14.01,2013-01-02 17:36:00,
2013-01-03 07:37:00,41.9,36.8,30.24,NW,313,0.0,1.0,82,0.00,,SKC,0.01,VWS V14.01,2013-01-02 17:37:00,
2013-01-03 07:38:00,41.9,36.8,30.24,NW,313,0.0,1.0,82,0.00,,SKC,0.01,VWS V14.01,2013-01-02 17:38:00,
2013-01-03 07:39:00,41.9,36.8,30.24,NW,313,0.0,1.0,82,0.00,,SKC,0.01,VWS V14.01,2013-01-02 17:39:00,
2013-01-03 07:40:00,42.0,36.9,30.24,NW,313,0.0,0.0,82,0.00,,SKC,0.01,VWS V14.01,2013-01-02 17:40:00,
2013-01-03 07:41:00,42.5,37.4,30.25,NW,313,0.0,0.0,82,0.00,,SKC,0.01,VWS V14.01,2013-01-02 17:41:00,
2013-01-03 07:42:00,42.5,37.4,30.25,NW,313,0.0,0.0,82,0.00,,SKC,0.01,VWS V14.01,2013-01-02 17:42:00,
2013-01-03 07:43:00,42.7,37.6,30.25,NW,313,1.0,2.0,82,0.00,,SKC,0.01,VWS V14.01,2013-01-02 17:43:00,
2013-01-03 07:44:00,42.7,37.0,30.25,NW,313,0.0,1.0,80,0.00,,SKC,0.01,VWS V14.01,2013-01-02 17:44:00,
2013-01-03 07:45:00,42.9,37.5,30.25,NW,313,1.0,1.0,81,0.00,,SKC,0.01,VWS V14.01,2013-01-02 17:45:00,
2013-01-03 07:46:00,42.8,37.4,30.25,NW,313,0.0,0.0,81,0.00,,SKC,0.01,VWS V14.01,2013-01-02 17:46:00,
2013-01-03 07:47:00,42.8,37.4,30.25,NW,313,0.0,0.0,81,0.00,,SKC,0.01,VWS V14.01,2013-01-02 17:47:00,
2013-01-03 07:48:00,42.9,37.5,30.25,NW,313,0.0,0.0,81,0.00,,SKC,0.01,VWS V14.01,2013-01-02 17:48:00,
2013-01-03 07:49:00,42.9,37.2,30.25,NW,313,0.0,0.0,80,0.00,,SKC,0.01,VWS V14.01,2013-01-02 17:49:00,
2013-01-03 07:50:00,42.7,37.0,30.25,NW,313,0.0,1.0,80,0.00,,SKC,0.01,VWS V14.01,2013-01-02 17:50:00,
2013-01-03 07:51:00,42.7,36.7,30.25,NW,313,0.0,1.0,79,0.00,,SKC,0.01,VWS V14.01,2013-01-02 17:51:00,
2013-01-03 07:52:00,42.7,36.7,30.25,NW,313,0.0,1.0,79,0.00,,SKC,0.01,VWS V14.01,2013-01-02 17:52:00,
2013-01-03 07:53:00,42.7,37.0,30.25,NW,313,1.0,2.0,80,0.00,,SKC,0.01,VWS V14.01,2013-01-02 17:53:00,
2013-01-03 07:54:00,42.8,36.8,30.25,NW,313,0.0,1.0,79,0.00,,SKC,0.01,VWS V14.01,2013-01-02 17:54:00,
2013-01-03 07:55:00,42.9,36.8,30.25,NW,313,0.0,1.0,79,0.00,,SKC,0.01,VWS V14.01,2013-01-02 17:55:00,
2013-01-03 07:56:00,42.9,36.8,30.25,NW,313,0.0,0.0,79,0.00,,SKC,0.01,VWS V14.01,2013-01-02 17:56:00,
2013-01-03 07:57:00,42.9,36.8,30.25,NW,313,0.0,0.0,79,0.00,,SKC,0.01,VWS V14.01,2013-01-02 17:57:00,
2013-01-03 07:59:00,42.9,36.8,30.25,NW,313,0.0,1.0,79,0.00,,SKC,0.01,VWS V14.01,2013-01-02 17:59:00,
2013-01-03 08:00:00,43.0,36.6,30.25,NW,313,0.0,2.0,78,0.00,,SKC,0.01,VWS V14.01,2013-01-02 18:00:00,
2013-01-03 08:01:00,43.3,36.9,30.25,NW,313,0.0,1.0,78,0.00,,SKC,0.01,VWS V14.01,2013-01-02 18:01:00,
2013-01-03 08:02:00,43.3,36.9,30.25,NW,313,0.0,1.0,78,0.00,,SKC,0.01,VWS V14.01,2013-01-02 18:02:00,
2013-01-03 08:03:00,43.5,37.4,30.25,NW,313,0.0,0.0,79,0.00,,SKC,0.01,VWS V14.01,2013-01-02 18:03:00,
2013-01-03 08:04:00,43.6,37.2,30.25,NW,313,0.0,1.0,78,0.00,,SKC,0.01,VWS V14.01,2013-01-02 18:04:00,
2013-01-03 08:05:00,43.6,36.9,30.25,NW,313,0.0,2.0,77,0.00,,SKC,0.01,VWS V14.01,2013-01-02 18:05:00,
2013-01-03 08:06:00,43.6,36.9,30.25,NW,313,0.0,0.0,77,0.00,,SKC,0.01,VWS V14.01,2013-01-02 18:06:00,
2013-01-03 08:07:00,43.6,36.9,30.25,NW,313,0.0,0.0,77,0.00,,SKC,0.01,VWS V14.01,2013-01-02 18:07:00,
2013-01-03 08:08:00,43.6,36.5,30.25,NW,313,0.0,0.0,76,0.00,,SKC,0.01,VWS V14.01,2013-01-02 18:08:00,
2013-01-03 08:09:00,43.6,36.5,30.25,NW,313,0.0,0.0,76,0.00,,SKC,0.01,VWS V14.01,2013-01-02 18:09:00,
2013-01-03 08:10:00,43.7,36.6,30.25,NW,313,1.0,1.0,76,0.00,,SKC,0.01,VWS V14.01,2013-01-02 18:10:00,
2013-01-03 08:11:00,43.7,36.6,30.25,NW,313,0.0,0.0,76,0.00,,SKC,0.01,VWS V14.01,2013-01-02 18:11:00,
2013-01-03 08:12:00,43.7,36.6,30.25,NW,313,0.0,0.0,76,0.00,,SKC,0.01,VWS V14.01,2013-01-02 18:12:00,
2013-01-03 08:13:00,43.7,36.6,30.25,NW,313,0.0,1.0,76,0.00,,SKC,0.01,VWS V14.01,2013-01-02 18:13:00,
2013-01-03 08:14:00,43.8,36.7,30.25,NW,313,0.0,0.0,76,0.00,,SKC,0.01,VWS V14.01,2013-01-02 18:14:00,
2013-01-03 08:15:00,43.9,36.8,30.25,NW,313,0.0,0.0,76,0.00,,SKC,0.01,VWS V14.01,2013-01-02 18:15:00,
2013-01-03 08:16:00,44.0,36.9,30.25,NW,313,0.0,1.0,76,0.00,,SKC,0.01,VWS V14.01,2013-01-02 18:16:00,
2013-01-03 08:17:00,44.0,36.9,30.25,NW,313,1.0,1.0,76,0.00,,SKC,0.01,VWS V14.01,2013-01-02 18:17:00,
2013-01-03 08:18:00,44.0,36.9,30.25,NW,313,0.0,2.0,76,0.00,,SKC,0.01,VWS V14.01,2013-01-02 18:18:00,
2013-01-03 08:19:00,44.1,36.7,30.25,NW,313,0.0,1.0,75,0.00,,SKC,0.01,VWS V14.01,2013-01-02 18:19:00,
2013-01-03 08:20:00,44.1,36.7,30.25,NW,313,0.0,0.0,75,0.00,,SKC,0.01,VWS V14.01,2013-01-02 18:20:00,
2013-01-03 08:21:00,44.3,36.9,30.25,NW,313,0.0,1.0,75,0.00,,SKC,0.01,VWS V14.01,2013-01-02 18:21:00,
2013-01-03 08:22:00,44.3,36.9,30.25,NW,313,0.0,1.0,75,0.00,,SKC,0.01,VWS V14.01,2013-01-02 18:22:00,
2013-01-03 08:23:00,44.5,37.1,30.25,NW,313,0.0,1.0,75,0.00,,SKC,0.01,VWS V14.01,2013-01-02 18:23:00,
2013-01-03 08:24:00,44.6,37.2,30.25,NW,313,0.0,0.0,75,0.00,,SKC,0.01,VWS V14.01,2013-01-02 18:24:00,
2013-01-03 08:25:00,44.7,36.9,30.25,NW,313,0.0,0.0,74,0.00,,SKC,0.01,VWS V14.01,2013-01-02 18:25:00,
2013-01-03 08:26:00,44.9,36.8,30.25,NW,313,1.0,2.0,73,0.00,,SKC,0.01,VWS V14.01,2013-01-02 18:26:00,
2013-01-03 08:27:00,44.9,36.8,30.25,NW,313,1.0,2.0,73,0.00,,SKC,0.01,VWS V14.01,2013-01-02 18:27:00,
2013-01-03 08:28:00,45.0,36.5,30.25,NW,313,1.0,3.0,72,0.00,,SKC,0.01,VWS V14.01,2013-01-02 18:28:00,
2013-01-03 08:29:00,45.0,36.5,30.25,NW,313,1.0,1.0,72,0.00,,SKC,0.01,VWS V14.01,2013-01-02 18:29:00,
2013-01-03 08:30:00,45.1,36.6,30.25,NW,313,0.0,1.0,72,0.00,,SKC,0.01,VWS V14.01,2013-01-02 18:30:00,
2013-01-03 08:31:00,45.3,36.8,30.25,NW,313,0.0,2.0,72,0.00,,SKC,0.01,VWS V14.01,2013-01-02 18:31:00,
2013-01-03 08:32:00,45.3,36.8,30.25,NW,313,0.0,2.0,72,0.00,,SKC,0.01,VWS V14.01,2013-01-02 18:32:00,
2013-01-03 08:33:00,45.4,36.9,30.25,NW,313,0.0,0.0,72,0.00,,SKC,0.01,VWS V14.01,2013-01-02 18:33:00,
2013-01-03 08:34:00,45.5,36.7,30.25,NW,313,0.0,1.0,71,0.00,,SKC,0.01,VWS V14.01,2013-01-02 18:34:00,
2013-01-03 08:35:00,45.4,36.6,30.25,NW,313,0.0,1.0,71,0.00,,SKC,0.01,VWS V14.01,2013-01-02 18:35:00,
2013-01-03 08:36:00,45.6,36.8,30.25,NW,313,0.0,1.0,71,0.00,,SKC,0.01,VWS V14.01,2013-01-02 18:36:00,
2013-01-03 08:37:00,45.6,36.8,30.25,NW,313,0.0,1.0,71,0.00,,SKC,0.01,VWS V14.01,2013-01-02 18:37:00,
2013-01-03 08:38:00,45.7,36.8,30.25,NW,313,0.0,0.0,71,0.00,,SKC,0.01,VWS V14.01,2013-01-02 18:38:00,
2013-01-03 08:39:00,45.8,36.9,30.25,NW,313,0.0,0.0,71,0.00,,SKC,0.01,VWS V14.01,2013-01-02 18:39:00,
2013-01-03 08:40:00,45.8,36.6,30.25,NW,313,1.0,1.0,70,0.00,,SKC,0.01,VWS V14.01,2013-01-02 18:40:00,
2013-01-03 08:41:00,46.1,36.9,30.25,NW,313,0.0,0.0,70,0.00,,SKC,0.01,VWS V14.01,2013-01-02 18:41:00,
2013-01-03 08:42:00,46.1,36.9,30.25,NW,313,0.0,0.0,70,0.00,,SKC,0.01,VWS V14.01,2013-01-02 18:42:00,
2013-01-03 08:43:00,46.2,37.0,30.25,NW,313,0.0,1.0,70,0.00,,SKC,0.01,VWS V14.01,2013-01-02 18:43:00,
2013-01-03 08:44:00,46.2,36.6,30.25,NW,313,0.0,0.0,69,0.00,,SKC,0.01,VWS V14.01,2013-01-02 18:44:00,
2013-01-03 08:45:00,46.3,36.7,30.25,NW,313,0.0,0.0,69,0.00,,SKC,0.01,VWS V14.01,2013-01-02 18:45:00,
2013-01-03 08:46:00,46.4,36.4,30.25,NW,313,1.0,2.0,68,0.00,,SKC,0.01,VWS V14.01,2013-01-02 18:46:00,
2013-01-03 08:47:00,46.4,36.4,30.25,NW,313,2.0,2.0,68,0.00,,SKC,0.01,VWS V14.01,2013-01-02 18:47:00,
2013-01-03 08:48:00,46.4,36.0,30.25,NW,313,2.0,3.0,67,0.00,,SKC,0.01,VWS V14.01,2013-01-02 18:48:00,
2013-01-03 08:49:00,46.4,35.7,30.25,NW,313,2.0,3.0,66,0.00,,SKC,0.01,VWS V14.01,2013-01-02 18:49:00,
2013-01-03 08:50:00,46.5,35.8,30.25,NW,313,1.0,2.0,66,0.00,,SKC,0.01,VWS V14.01,2013-01-02 18:50:00,
2013-01-03 08:51:00,46.6,35.5,30.25,NW,313,1.0,3.0,65,0.00,,SKC,0.01,VWS V14.01,2013-01-02 18:51:00,
2013-01-03 08:52:00,46.6,35.5,30.25,NW,313,0.0,3.0,65,0.00,,SKC,0.01,VWS V14.01,2013-01-02 18:52:00,
2013-01-03 08:53:00,46.7,36.0,30.25,NW,313,2.0,2.0,66,0.00,,SKC,0.01,VWS V14.01,2013-01-02 18:53:00,
2013-01-03 08:54:00,46.8,36.1,30.25,NW,313,2.0,2.0,66,0.00,,SKC,0.01,VWS V14.01,2013-01-02 18:54:00,
2013-01-03 08:55:00,46.9,36.2,30.25,NW,313,1.0,2.0,66,0.00,,SKC,0.01,VWS V14.01,2013-01-02 18:55:00,
2013-01-03 08:56:00,47.2,36.4,30.24,NW,313,2.0,2.0,66,0.00,,SKC,0.01,VWS V14.01,2013-01-02 18:56:00,
2013-01-03 08:57:00,47.2,36.4,30.24,NW,313,1.0,2.0,66,0.00,,SKC,0.01,VWS V14.01,2013-01-02 18:57:00,
2013-01-03 08:58:00,47.3,36.2,30.24,NW,313,1.0,2.0,65,0.00,,SKC,0.01,VWS V14.01,2013-01-02 18:58:00,
2013-01-03 08:59:00,47.4,36.2,30.24,NW,313,1.0,2.0,65,0.00,,SKC,0.01,VWS V14.01,2013-01-02 18:59:00,
2013-01-03 09:00:00,47.5,35.9,30.24,NW,313,0.0,1.0,64,0.00,,SKC,0.01,VWS V14.01,2013-01-02 19:00:00,
2013-01-03 09:01:00,47.6,35.6,30.24,NW,313,0.0,2.0,63,0.00,,SKC,0.01,VWS V14.01,2013-01-02 19:01:00,
2013-01-03 09:02:00,47.6,35.6,30.24,NW,313,1.0,2.0,63,0.00,,SKC,0.01,VWS V14.01,2013-01-02 19:02:00,
2013-01-03 09:03:00,47.7,35.7,30.24,NW,313,1.0,2.0,63,0.00,,SKC,0.01,VWS V14.01,2013-01-02 19:03:00,
2013-01-03 09:04:00,47.9,35.9,30.24,NW,313,2.0,2.0,63,0.00,,SKC,0.01,VWS V14.01,2013-01-02 19:04:00,
2013-01-03 09:05:00,48.0,35.6,30.24,NW,313,1.0,2.0,62,0.00,,SKC,0.01,VWS V14.01,2013-01-02 19:05:00,
2013-01-03 09:06:00,48.0,35.2,30.24,NW,313,0.0,1.0,61,0.00,,SKC,0.01,VWS V14.01,2013-01-02 19:06:00,
2013-01-03 09:07:00,48.0,35.2,30.24,NW,313,0.0,1.0,61,0.00,,SKC,0.01,VWS V14.01,2013-01-02 19:07:00,
2013-01-03 09:08:00,48.1,35.7,30.24,NW,313,0.0,1.0,62,0.00,,SKC,0.01,VWS V14.01,2013-01-02 19:08:00,
2013-01-03 09:09:00,48.4,36.4,30.24,NW,313,0.0,0.0,63,0.00,,SKC,0.01,VWS V14.01,2013-01-02 19:09:00,
2013-01-03 09:10:00,48.8,36.8,30.24,NW,313,0.0,1.0,63,0.00,,SKC,0.01,VWS V14.01,2013-01-02 19:10:00,
2013-01-03 09:11:00,49.0,35.3,30.24,NW,313,0.0,1.0,59,0.00,,SKC,0.01,VWS V14.01,2013-01-02 19:11:00,
2013-01-03 09:13:00,49.0,35.3,30.24,NW,313,0.0,1.0,59,0.00,,SKC,0.01,VWS V14.01,2013-01-02 19:13:00,
2013-01-03 09:14:00,49.0,35.3,30.24,NW,313,0.0,0.0,59,0.00,,SKC,0.01,VWS V14.01,2013-01-02 19:14:00,
2013-01-03 09:15:00,49.1,35.4,30.23,NW,313,0.0,0.0,59,0.00,,SKC,0.01,VWS V14.01,2013-01-02 19:15:00,
2013-01-03 09:16:00,49.2,35.1,30.23,NW,313,2.0,2.0,58,0.00,,SKC,0.01,VWS V14.01,2013-01-02 19:16:00,
2013-01-03 09:17:00,49.2,35.1,30.23,NW,313,1.0,2.0,58,0.00,,SKC,0.01,VWS V14.01,2013-01-02 19:17:00,
2013-01-03 09:18:00,49.1,35.0,30.23,NW,313,0.0,1.0,58,0.00,,SKC,0.01,VWS V14.01,2013-01-02 19:18:00,
2013-01-03 09:20:00,49.0,34.9,30.23,NW,315,0.0,2.0,58,0.00,,SKC,0.01,VWS V14.01,2013-01-02 19:20:00,
2013-01-03 09:21:00,49.1,35.4,30.23,NW,315,2.0,2.0,59,0.00,,SKC,0.01,VWS V14.01,2013-01-02 19:21:00,
2013-01-03 09:22:00,49.1,35.4,30.23,NW,315,1.0,2.0,59,0.00,,SKC,0.01,VWS V14.01,2013-01-02 19:22:00,
2013-01-03 09:23:00,49.1,35.0,30.23,NW,315,0.0,2.0,58,0.00,,SKC,0.01,VWS V14.01,2013-01-02 19:23:00,
2013-01-03 09:24:00,49.2,35.1,30.23,NW,315,0.0,1.0,58,0.00,,SKC,0.01,VWS V14.01,2013-01-02 19:24:00,
2013-01-03 09:25:00,49.2,35.5,30.22,NW,315,1.0,1.0,59,0.00,,SKC,0.01,VWS V14.01,2013-01-02 19:25:00,
2013-01-03 09:26:00,49.4,35.7,30.22,NW,315,0.0,1.0,59,0.00,,SKC,0.01,VWS V14.01,2013-01-02 19:26:00,
2013-01-03 09:27:00,49.4,35.7,30.22,NW,315,0.0,1.0,59,0.00,,SKC,0.01,VWS V14.01,2013-01-02 19:27:00,
2013-01-03 09:28:00,49.4,35.3,30.22,NW,315,2.0,2.0,58,0.00,,SKC,0.01,VWS V14.01,2013-01-02 19:28:00,
2013-01-03 09:29:00,49.4,35.3,30.22,NW,315,1.0,2.0,58,0.00,,SKC,0.01,VWS V14.01,2013-01-02 19:29:00,
2013-01-03 09:30:00,49.5,35.3,30.22,NW,315,0.0,1.0,58,0.00,,SKC,0.01,VWS V14.01,2013-01-02 19:30:00,
2013-01-03 09:31:00,49.7,35.5,30.22,WNW,290,2.0,3.0,58,0.00,,SKC,0.01,VWS V14.01,2013-01-02 19:31:00,
2013-01-03 09:32:00,49.7,35.5,30.22,WNW,290,1.0,3.0,58,0.00,,SKC,0.01,VWS V14.01,2013-01-02 19:32:00,
2013-01-03 09:33:00,49.7,35.5,30.22,WNW,290,0.0,1.0,58,0.00,,SKC,0.01,VWS V14.01,2013-01-02 19:33:00,
2013-01-03 09:34:00,49.8,35.2,30.22,WNW,290,0.0,1.0,57,0.00,,SKC,0.01,VWS V14.01,2013-01-02 19:34:00,
2013-01-03 09:35:00,50.3,35.7,30.22,WNW,290,0.0,0.0,57,0.00,,SKC,0.01,VWS V14.01,2013-01-02 19:35:00,
2013-01-03 09:36:00,50.0,35.4,30.22,WNW,290,0.0,1.0,57,0.00,,SKC,0.01,VWS V14.01,2013-01-02 19:36:00,
2013-01-03 09:37:00,50.3,35.7,30.22,WNW,290,0.0,0.0,57,0.00,,SKC,0.01,VWS V14.01,2013-01-02 19:37:00,
2013-01-03 09:38:00,50.7,36.0,30.22,WNW,290,0.0,0.0,57,0.00,,SKC,0.01,VWS V14.01,2013-01-02 19:38:00,
2013-01-03 09:39:00,50.8,36.1,30.22,WNW,290,1.0,1.0,57,0.00,,SKC,0.01,VWS V14.01,2013-01-02 19:39:00,
2013-01-03 09:40:00,50.7,35.6,30.22,WNW,290,0.0,1.0,56,0.00,,SKC,0.01,VWS V14.01,2013-01-02 19:40:00,
2013-01-03 09:41:00,50.6,35.5,30.22,WNW,290,0.0,1.0,56,0.00,,SKC,0.01,VWS V14.01,2013-01-02 19:41:00,
2013-01-03 09:42:00,50.7,35.6,30.22,WNW,290,0.0,1.0,56,0.00,,SKC,0.01,VWS V14.01,2013-01-02 19:42:00,
2013-01-03 09:43:00,50.8,35.7,30.22,WNW,290,0.0,1.0,56,0.00,,SKC,0.01,VWS V14.01,2013-01-02 19:43:00,
2013-01-03 09:44:00,51.1,35.5,30.22,WNW,290,0.0,1.0,55,0.00,,SKC,0.01,VWS V14.01,2013-01-02 19:44:00,
2013-01-03 09:45:00,50.9,34.9,30.21,WNW,290,0.0,0.0,54,0.00,,SKC,0.01,VWS V14.01,2013-01-02 19:45:00,
2013-01-03 09:46:00,51.0,35.0,30.22,WNW,290,0.0,1.0,54,0.00,,SKC,0.01,VWS V14.01,2013-01-02 19:46:00,
2013-01-03 09:47:00,50.9,34.9,30.21,WNW,290,0.0,0.0,54,0.00,,SKC,0.01,VWS V14.01,2013-01-02 19:47:00,
2013-01-03 09:48:00,50.9,34.9,30.22,WNW,290,0.0,1.0,54,0.00,,SKC,0.01,VWS V14.01,2013-01-02 19:48:00,
2013-01-03 09:49:00,51.0,35.4,30.21,WNW,290,0.0,1.0,55,0.00,,SKC,0.01,VWS V14.01,2013-01-02 19:49:00,
2013-01-03 09:50:00,50.9,34.9,30.21,WNW,290,0.0,1.0,54,0.00,,SKC,0.01,VWS V14.01,2013-01-02 19:50:00,
2013-01-03 09:51:00,50.9,34.9,30.21,WNW,290,0.0,1.0,54,0.00,,SKC,0.01,VWS V14.01,2013-01-02 19:51:00,
2013-01-03 09:52:00,50.9,34.9,30.21,WNW,290,1.0,1.0,54,0.00,,SKC,0.01,VWS V14.01,2013-01-02 19:52:00,
2013-01-03 09:53:00,50.9,34.4,30.21,WNW,290,0.0,1.0,53,0.00,,SKC,0.01,VWS V14.01,2013-01-02 19:53:00,
2013-01-03 09:54:00,51.1,34.6,30.21,WNW,290,0.0,1.0,53,0.00,,SKC,0.01,VWS V14.01,2013-01-02 19:54:00,
2013-01-03 09:55:00,51.9,35.8,30.21,NW,307,0.0,2.0,54,0.00,,SKC,0.01,VWS V14.01,2013-01-02 19:55:00,
2013-01-03 09:56:00,51.6,36.0,30.21,WNW,290,0.0,1.0,55,0.00,,SKC,0.01,VWS V14.01,2013-01-02 19:56:00,
2013-01-03 09:57:00,51.9,35.8,30.21,NW,307,0.0,2.0,54,0.00,,SKC,0.01,VWS V14.01,2013-01-02 19:57:00,
2013-01-03 09:58:00,52.0,35.9,30.21,NW,307,1.0,1.0,54,0.00,,SKC,0.01,VWS V14.01,2013-01-02 19:58:00,
2013-01-03 09:59:00,51.9,35.3,30.21,NW,307,0.0,1.0,53,0.00,,SKC,0.01,VWS V14.01,2013-01-02 19:59:00,
2013-01-03 10:00:00,51.8,36.2,30.21,NW,307,1.0,1.0,55,0.00,,SKC,0.01,VWS V14.01,2013-01-02 20:00:00,
2013-01-03 10:01:00,51.8,36.2,30.21,NW,307,0.0,0.0,55,0.00,,SKC,0.01,VWS V14.01,2013-01-02 20:01:00,
2013-01-03 10:02:00,51.8,35.7,30.21,NNE,15,2.0,2.0,54,0.00,,SKC,0.01,VWS V14.01,2013-01-02 20:02:00,
2013-01-03 10:03:00,51.7,35.1,30.21,NNE,15,2.0,3.0,53,0.00,,SKC,0.01,VWS V14.01,2013-01-02 20:03:00,
2013-01-03 10:04:00,51.5,35.0,30.21,NNE,15,1.0,2.0,53,0.00,,SKC,0.01,VWS V14.01,2013-01-02 20:04:00,
2013-01-03 10:05:00,51.2,34.7,30.20,NE,35,3.0,3.0,53,0.00,,SKC,0.01,VWS V14.01,2013-01-02 20:05:00,
2013-01-03 10:06:00,51.3,35.2,30.20,NE,34,2.0,3.0,54,0.00,,SKC,0.01,VWS V14.01,2013-01-02 20:06:00,
2013-01-03 10:07:00,51.2,34.7,30.20,NE,35,1.0,3.0,53,0.00,,SKC,0.01,VWS V14.01,2013-01-02 20:07:00,
2013-01-03 10:08:00,51.2,34.7,30.20,NE,34,0.0,2.0,53,0.00,,SKC,0.01,VWS V14.01,2013-01-02 20:08:00,
2013-01-03 10:09:00,51.3,35.2,30.20,NE,34,1.0,1.0,54,0.00,,SKC,0.01,VWS V14.01,2013-01-02 20:09:00,
2013-01-03 10:10:00,51.5,35.0,30.20,ENE,67,1.0,2.0,53,0.00,,SKC,0.01,VWS V14.01,2013-01-02 20:10:00,
2013-01-03 10:11:00,51.4,35.3,30.20,ENE,67,0.0,1.0,54,0.00,,SKC,0.01,VWS V14.01,2013-01-02 20:11:00,
2013-01-03 10:12:00,51.5,35.0,30.20,ENE,67,3.0,3.0,53,0.00,,SKC,0.01,VWS V14.01,2013-01-02 20:12:00,
2013-01-03 10:13:00,51.5,35.0,30.20,ENE,67,0.0,3.0,53,0.00,,SKC,0.01,VWS V14.01,2013-01-02 20:13:00,
2013-01-03 10:14:00,51.6,35.0,30.20,ENE,67,0.0,1.0,53,0.00,,SKC,0.01,VWS V14.01,2013-01-02 20:14:00,
2013-01-03 10:15:00,51.9,34.8,30.20,ENE,67,0.0,1.0,52,0.00,,SKC,0.01,VWS V14.01,2013-01-02 20:15:00,
2013-01-03 10:16:00,51.9,35.3,30.20,ENE,67,0.0,0.0,53,0.00,,SKC,0.01,VWS V14.01,2013-01-02 20:16:00,
2013-01-03 10:17:00,51.9,34.8,30.20,ENE,67,0.0,1.0,52,0.00,,SKC,0.01,VWS V14.01,2013-01-02 20:17:00,
2013-01-03 10:18:00,51.9,34.8,30.20,ENE,67,0.0,1.0,52,0.00,,SKC,0.01,VWS V14.01,2013-01-02 20:18:00,
2013-01-03 10:19:00,52.1,35.5,30.20,ENE,67,0.0,1.0,53,0.00,,SKC,0.01,VWS V14.01,2013-01-02 20:19:00,
2013-01-03 10:20:00,52.1,34.5,30.20,NE,48,0.0,3.0,51,0.00,,SKC,0.01,VWS V14.01,2013-01-02 20:20:00,
2013-01-03 10:21:00,52.1,34.5,30.20,NE,48,3.0,4.0,51,0.00,,SKC,0.01,VWS V14.01,2013-01-02 20:21:00,
2013-01-03 10:22:00,52.1,34.5,30.20,NE,48,0.0,3.0,51,0.00,,SKC,0.01,VWS V14.01,2013-01-02 20:22:00,
2013-01-03 10:23:00,52.3,35.2,30.20,NE,48,0.0,0.0,52,0.00,,SKC,0.01,VWS V14.01,2013-01-02 20:23:00,
2013-01-03 10:24:00,52.3,35.2,30.20,NE,48,2.0,2.0,52,0.00,,SKC,0.01,VWS V14.01,2013-01-02 20:24:00,
2013-01-03 10:25:00,52.0,34.5,30.19,NE,48,1.0,2.0,51,0.00,,SKC,0.01,VWS V14.01,2013-01-02 20:25:00,
2013-01-03 10:26:00,52.0,34.5,30.20,NE,48,1.0,2.0,51,0.00,,SKC,0.01,VWS V14.01,2013-01-02 20:26:00,
2013-01-03 10:27:00,51.9,34.4,30.19,NE,48,2.0,2.0,51,0.00,,SKC,0.01,VWS V14.01,2013-01-02 20:27:00,
2013-01-03 10:28:00,51.8,34.3,30.19,NE,48,3.0,3.0,51,0.00,,SKC,0.01,VWS V14.01,2013-01-02 20:28:00,
2013-01-03 10:29:00,51.7,33.7,30.19,NE,48,2.0,3.0,50,0.00,,SKC,0.01,VWS V14.01,2013-01-02 20:29:00,
2013-01-03 10:30:00,51.4,33.9,30.19,NE,48,0.0,2.0,51,0.00,,SKC,0.01,VWS V14.01,2013-01-02 20:30:00,
2013-01-03 10:31:00,51.3,33.8,30.19,NE,48,0.0,3.0,51,0.00,,SKC,0.01,VWS V14.01,2013-01-02 20:31:00,
2013-01-03 10:32:00,51.4,33.9,30.19,NE,48,0.0,2.0,51,0.00,,SKC,0.01,VWS V14.01,2013-01-02 20:32:00,
2013-01-03 10:33:00,51.7,34.2,30.19,NE,48,1.0,1.0,51,0.00,,SKC,0.01,VWS V14.01,2013-01-02 20:33:00,
2013-01-03 10:34:00,51.9,34.4,30.19,NE,48,0.0,2.0,51,0.00,,SKC,0.01,VWS V14.01,2013-01-02 20:34:00,
2013-01-03 10:35:00,51.9,32.8,30.19,NE,48,1.0,2.0,48,0.00,,SKC,0.01,VWS V14.01,2013-01-02 20:35:00,
2013-01-03 10:36:00,51.8,32.8,30.19,NE,48,1.0,2.0,48,0.00,,SKC,0.01,VWS V14.01,2013-01-02 20:36:00,
2013-01-03 10:37:00,51.9,33.4,30.19,NE,48,1.0,2.0,49,0.00,,SKC,0.01,VWS V14.01,2013-01-02 20:37:00,
2013-01-03 10:38:00,52.1,33.0,30.19,NE,48,2.0,3.0,48,0.00,,SKC,0.01,VWS V14.01,2013-01-02 20:38:00,
2013-01-03 10:39:00,52.0,32.4,30.19,NE,48,0.0,4.0,47,0.00,,SKC,0.01,VWS V14.01,2013-01-02 20:39:00,
2013-01-03 10:40:00,52.2,33.6,30.19,NE,48,0.0,0.0,49,0.00,,SKC,0.01,VWS V14.01,2013-01-02 20:40:00,
2013-01-03 10:41:00,51.9,32.8,30.19,NE,48,0.0,1.0,48,0.00,,SKC,0.01,VWS V14.01,2013-01-02 20:41:00,
2013-01-03 10:42:00,52.3,33.2,30.19,NE,48,1.0,1.0,48,0.00,,SKC,0.01,VWS V14.01,2013-01-02 20:42:00,
2013-01-03 10:43:00,52.3,33.2,30.19,NE,48,2.0,3.0,48,0.00,,SKC,0.01,VWS V14.01,2013-01-02 20:43:00,
2013-01-03 10:45:00,52.4,33.3,30.19,NE,48,1.0,1.0,48,0.00,,SKC,0.01,VWS V14.01,2013-01-02 20:45:00,
2013-01-03 10:46:00,52.4,33.8,30.19,NE,48,1.0,1.0,49,0.00,,SKC,0.01,VWS V14.01,2013-01-02 20:46:00,
2013-01-03 10:47:00,52.4,33.3,30.19,NE,48,0.0,2.0,48,0.00,,SKC,0.01,VWS V14.01,2013-01-02 20:47:00,
2013-01-03 10:48:00,52.4,32.8,30.19,NE,48,1.0,1.0,47,0.00,,SKC,0.01,VWS V14.01,2013-01-02 20:48:00,
2013-01-03 10:49:00,52.3,33.2,30.19,NE,48,1.0,1.0,48,0.00,,SKC,0.01,VWS V14.01,2013-01-02 20:49:00,
2013-01-03 10:50:00,52.4,32.8,30.19,ESE,108,0.0,1.0,47,0.00,,SKC,0.01,VWS V14.01,2013-01-02 20:50:00,
2013-01-03 10:51:00,52.3,32.7,30.19,ESE,108,1.0,2.0,47,0.00,,SKC,0.01,VWS V14.01,2013-01-02 20:51:00,
2013-01-03 10:52:00,52.4,32.8,30.19,ESE,108,0.0,1.0,47,0.00,,SKC,0.01,VWS V14.01,2013-01-02 20:52:00,
2013-01-03 10:53:00,52.3,32.7,30.18,ESE,108,0.0,1.0,47,0.00,,SKC,0.01,VWS V14.01,2013-01-02 20:53:00,
2013-01-03 10:54:00,52.3,32.2,30.18,ESE,108,1.0,1.0,46,0.00,,SKC,0.01,VWS V14.01,2013-01-02 20:54:00,
2013-01-03 10:55:00,53.1,33.4,30.19,ESE,108,0.0,0.0,47,0.00,,SKC,0.01,VWS V14.01,2013-01-02 20:55:00,
2013-01-03 10:56:00,52.8,33.2,30.18,ESE,108,0.0,0.0,47,0.00,,SKC,0.01,VWS V14.01,2013-01-02 20:56:00,
2013-01-03 10:57:00,53.2,33.5,30.19,ESE,108,0.0,0.0,47,0.00,,SKC,0.01,VWS V14.01,2013-01-02 20:57:00,
2013-01-03 10:58:00,53.9,34.7,30.18,ESE,108,1.0,1.0,48,0.00,,SKC,0.01,VWS V14.01,2013-01-02 20:58:00,
2013-01-03 10:59:00,54.4,34.6,30.18,ESE,108,1.0,2.0,47,0.00,,SKC,0.01,VWS V14.01,2013-01-02 20:59:00,
2013-01-03 11:00:00,54.6,33.7,30.18,NE,34,1.0,2.0,45,0.00,,SKC,0.01,VWS V14.01,2013-01-02 21:00:00,
2013-01-03 11:01:00,54.7,34.9,30.18,NE,34,2.0,3.0,47,0.00,,SKC,0.01,VWS V14.01,2013-01-02 21:01:00,
2013-01-03 11:02:00,54.5,33.6,30.18,NE,34,1.0,2.0,45,0.00,,SKC,0.01,VWS V14.01,2013-01-02 21:02:00,
2013-01-03 11:03:00,54.4,34.1,30.18,NE,34,1.0,2.0,46,0.00,,SKC,0.01,VWS V14.01,2013-01-02 21:03:00,
2013-01-03 11:04:00,54.4,34.1,30.18,NE,34,0.0,1.0,46,0.00,,SKC,0.01,VWS V14.01,2013-01-02 21:04:00,
2013-01-03 11:05:00,54.6,34.8,30.18,NE,36,0.0,1.0,47,0.00,,SKC,0.01,VWS V14.01,2013-01-02 21:05:00,
2013-01-03 11:06:00,54.8,35.0,30.18,NE,36,0.0,2.0,47,0.00,,SKC,0.01,VWS V14.01,2013-01-02 21:06:00,
2013-01-03 11:07:00,54.6,34.8,30.18,NE,36,2.0,2.0,47,0.00,,SKC,0.01,VWS V14.01,2013-01-02 21:07:00,
2013-01-03 11:08:00,54.2,34.4,30.18,NE,36,0.0,2.0,47,0.00,,SKC,0.01,VWS V14.01,2013-01-02 21:08:00,
2013-01-03 11:09:00,54.3,35.0,30.18,NE,36,0.0,0.0,48,0.00,,SKC,0.01,VWS V14.01,2013-01-02 21:09:00,
2013-01-03 11:10:00,54.5,34.7,30.18,NE,36,0.0,0.0,47,0.00,,SKC,0.01,VWS V14.01,2013-01-02 21:10:00,
2013-01-03 11:11:00,54.4,34.6,30.18,NE,36,0.0,1.0,47,0.00,,SKC,0.01,VWS V14.01,2013-01-02 21:11:00,
2013-01-03 11:12:00,54.5,35.2,30.18,NE,36,0.0,1.0,48,0.00,,SKC,0.01,VWS V14.01,2013-01-02 21:12:00,
2013-01-03 11:13:00,54.4,35.1,30.18,NE,36,1.0,1.0,48,0.00,,SKC,0.01,VWS V14.01,2013-01-02 21:13:00,
2013-01-03 11:14:00,54.2,35.0,30.18,NE,36,1.0,1.0,48,0.00,,SKC,0.01,VWS V14.01,2013-01-02 21:14:00,
2013-01-03 11:15:00,53.9,36.2,30.18,NE,36,1.0,3.0,51,0.00,,SKC,0.01,VWS V14.01,2013-01-02 21:15:00,
2013-01-03 11:16:00,53.9,35.7,30.18,NE,36,1.0,2.0,50,0.00,,SKC,0.01,VWS V14.01,2013-01-02 21:16:00,
2013-01-03 11:17:00,53.8,36.6,30.18,NE,36,1.0,3.0,52,0.00,,SKC,0.01,VWS V14.01,2013-01-02 21:17:00,
2013-01-03 11:18:00,53.7,36.5,30.18,NE,39,2.0,3.0,52,0.00,,SKC,0.01,VWS V14.01,2013-01-02 21:18:00,
2013-01-03 11:19:00,53.7,36.5,30.18,NE,39,0.0,2.0,52,0.00,,SKC,0.01,VWS V14.01,2013-01-02 21:19:00,
2013-01-03 11:20:00,54.0,37.3,30.18,NE,39,0.0,1.0,53,0.00,,SKC,0.01,VWS V14.01,2013-01-02 21:20:00,
2013-01-03 11:21:00,54.0,37.3,30.18,NE,39,0.0,2.0,53,0.00,,SKC,0.01,VWS V14.01,2013-01-02 21:21:00,
2013-01-03 11:22:00,54.0,37.3,30.18,NE,39,0.0,1.0,53,0.00,,SKC,0.01,VWS V14.01,2013-01-02 21:22:00,
2013-01-03 11:23:00,54.1,37.4,30.18,NE,39,1.0,1.0,53,0.00,,SKC,0.01,VWS V14.01,2013-01-02 21:23:00,
2013-01-03 11:24:00,54.2,37.9,30.18,NE,39,0.0,1.0,54,0.00,,SKC,0.01,VWS V14.01,2013-01-02 21:24:00,
2013-01-03 11:25:00,54.3,38.0,30.17,NE,39,1.0,3.0,54,0.00,,SKC,0.01,VWS V14.01,2013-01-02 21:25:00,
2013-01-03 11:26:00,54.4,38.1,30.18,NE,39,2.0,2.0,54,0.00,,SKC,0.01,VWS V14.01,2013-01-02 21:26:00,
2013-01-03 11:27:00,54.2,37.9,30.17,East,95,1.0,3.0,54,0.00,,SKC,0.01,VWS V14.01,2013-01-02 21:27:00,
2013-01-03 11:28:00,54.6,38.8,30.17,ESE,104,1.0,1.0,55,0.00,,SKC,0.01,VWS V14.01,2013-01-02 21:28:00,
2013-01-03 11:29:00,55.0,39.2,30.17,ESE,109,0.0,3.0,55,0.00,,SKC,0.01,VWS V14.01,2013-01-02 21:29:00,
2013-01-03 11:30:00,54.9,38.6,30.17,NE,46,2.0,5.0,54,0.00,,SKC,0.01,VWS V14.01,2013-01-02 21:30:00,
2013-01-03 11:31:00,55.0,38.7,30.17,SE,126,2.0,3.0,54,0.00,,SKC,0.01,VWS V14.01,2013-01-02 21:31:00,
2013-01-03 11:32:00,54.8,38.5,30.17,NE,46,1.0,5.0,54,0.00,,SKC,0.01,VWS V14.01,2013-01-02 21:32:00,
2013-01-03 11:33:00,54.6,38.8,30.17,NE,45,4.0,4.0,55,0.00,,SKC,0.01,VWS V14.01,2013-01-02 21:33:00,
2013-01-03 11:34:00,54.5,38.7,30.17,NE,46,3.0,4.0,55,0.00,,SKC,0.01,VWS V14.01,2013-01-02 21:34:00,
2013-01-03 11:35:00,54.4,39.0,30.17,NE,40,2.0,4.0,56,0.00,,SKC,0.01,VWS V14.01,2013-01-02 21:35:00,
2013-01-03 11:36:00,54.4,39.0,30.17,NE,40,1.0,4.0,56,0.00,,SKC,0.01,VWS V14.01,2013-01-02 21:36:00,
2013-01-03 11:37:00,54.4,39.0,30.17,NE,40,2.0,4.0,56,0.00,,SKC,0.01,VWS V14.01,2013-01-02 21:37:00,
2013-01-03 11:38:00,54.5,39.1,30.17,NE,40,1.0,2.0,56,0.00,,SKC,0.01,VWS V14.01,2013-01-02 21:38:00,
2013-01-03 11:39:00,54.5,39.1,30.17,NE,40,0.0,1.0,56,0.00,,SKC,0.01,VWS V14.01,2013-01-02 21:39:00,
2013-01-03 11:40:00,54.7,39.3,30.17,NE,40,0.0,2.0,56,0.00,,SKC,0.01,VWS V14.01,2013-01-02 21:40:00,
2013-01-03 11:41:00,54.7,39.3,30.17,NE,40,1.0,2.0,56,0.00,,SKC,0.01,VWS V14.01,2013-01-02 21:41:00,
2013-01-03 11:42:00,54.8,39.0,30.17,NE,40,0.0,2.0,55,0.00,,SKC,0.01,VWS V14.01,2013-01-02 21:42:00,
2013-01-03 11:43:00,54.8,39.0,30.17,NE,40,0.0,1.0,55,0.00,,SKC,0.01,VWS V14.01,2013-01-02 21:43:00,
2013-01-03 11:44:00,55.0,38.7,30.17,NE,40,0.0,1.0,54,0.00,,SKC,0.01,VWS V14.01,2013-01-02 21:44:00,
2013-01-03 11:45:00,56.5,40.1,30.17,NE,40,0.0,1.0,54,0.00,,SKC,0.01,VWS V14.01,2013-01-02 21:45:00,
2013-01-03 11:46:00,56.2,40.3,30.17,NE,40,0.0,1.0,55,0.00,,SKC,0.01,VWS V14.01,2013-01-02 21:46:00,
2013-01-03 11:47:00,56.6,40.2,30.17,NE,40,0.0,1.0,54,0.00,,SKC,0.01,VWS V14.01,2013-01-02 21:47:00,
2013-01-03 11:48:00,56.8,40.3,30.17,NE,40,0.0,1.0,54,0.00,,SKC,0.01,VWS V14.01,2013-01-02 21:48:00,
2013-01-03 11:49:00,56.6,39.7,30.17,NE,40,0.0,1.0,53,0.00,,SKC,0.01,VWS V14.01,2013-01-02 21:49:00,
2013-01-03 11:50:00,55.9,39.5,30.17,NE,40,1.0,1.0,54,0.00,,SKC,0.01,VWS V14.01,2013-01-02 21:50:00,
2013-01-03 11:51:00,56.1,39.7,30.17,NE,40,0.0,1.0,54,0.00,,SKC,0.01,VWS V14.01,2013-01-02 21:51:00,
2013-01-03 11:52:00,55.9,39.5,30.17,East,86,1.0,3.0,54,0.00,,SKC,0.01,VWS V14.01,2013-01-02 21:52:00,
2013-01-03 11:53:00,55.7,39.3,30.17,East,86,0.0,2.0,54,0.00,,SKC,0.01,VWS V14.01,2013-01-02 21:53:00,
2013-01-03 11:54:00,55.7,39.3,30.17,East,86,0.0,1.0,54,0.00,,SKC,0.01,VWS V14.01,2013-01-02 21:54:00,
2013-01-03 11:55:00,55.8,39.4,30.17,NE,50,4.0,4.0,54,0.00,,SKC,0.01,VWS V14.01,2013-01-02 21:55:00,
2013-01-03 11:56:00,55.9,39.5,30.17,ENE,65,3.0,3.0,54,0.00,,SKC,0.01,VWS V14.01,2013-01-02 21:56:00,
2013-01-03 11:57:00,55.7,39.3,30.17,NE,50,3.0,4.0,54,0.00,,SKC,0.01,VWS V14.01,2013-01-02 21:57:00,
2013-01-03 11:58:00,55.5,39.1,30.17,NE,50,0.0,3.0,54,0.00,,SKC,0.01,VWS V14.01,2013-01-02 21:58:00,
2013-01-03 11:59:00,55.3,39.4,30.17,NE,50,0.0,1.0,55,0.00,,SKC,0.01,VWS V14.01,2013-01-02 21:59:00,
2013-01-03 12:00:00,55.4,39.5,30.16,NE,50,3.0,3.0,55,0.00,,SKC,0.01,VWS V14.01,2013-01-02 22:00:00,
2013-01-03 12:01:00,55.3,39.4,30.16,NE,50,0.0,2.0,55,0.00,,SKC,0.01,VWS V14.01,2013-01-02 22:01:00,
2013-01-03 12:02:00,55.4,39.5,30.16,NE,50,1.0,3.0,55,0.00,,SKC,0.01,VWS V14.01,2013-01-02 22:02:00,
2013-01-03 12:03:00,55.4,39.0,30.16,NE,50,1.0,2.0,54,0.00,,SKC,0.01,VWS V14.01,2013-01-02 22:03:00,
2013-01-03 12:04:00,55.5,39.6,30.16,NE,50,1.0,2.0,55,0.00,,SKC,0.01,VWS V14.01,2013-01-02 22:04:00,
2013-01-03 12:05:00,55.8,39.4,30.17,NE,50,0.0,1.0,54,0.00,,SKC,0.01,VWS V14.01,2013-01-02 22:05:00,
2013-01-03 12:06:00,55.7,39.3,30.17,NE,50,0.0,1.0,54,0.00,,SKC,0.01,VWS V14.01,2013-01-02 22:06:00,
2013-01-03 12:07:00,55.8,39.4,30.17,NE,50,0.0,2.0,54,0.00,,SKC,0.01,VWS V14.01,2013-01-02 22:07:00,
2013-01-03 12:08:00,55.9,39.5,30.17,NE,50,1.0,1.0,54,0.00,,SKC,0.01,VWS V14.01,2013-01-02 22:08:00,
2013-01-03 12:09:00,55.8,38.9,30.17,NE,50,1.0,2.0,53,0.00,,SKC,0.01,VWS V14.01,2013-01-02 22:09:00,
2013-01-03 12:10:00,55.4,38.6,30.17,NE,50,0.0,1.0,53,0.00,,SKC,0.01,VWS V14.01,2013-01-02 22:10:00,
2013-01-03 12:11:00,55.5,38.7,30.17,NE,50,0.0,1.0,53,0.00,,SKC,0.01,VWS V14.01,2013-01-02 22:11:00,
2013-01-03 12:12:00,55.5,39.1,30.17,NE,50,0.0,1.0,54,0.00,,SKC,0.01,VWS V14.01,2013-01-02 22:12:00,
2013-01-03 12:13:00,55.5,39.1,30.16,NE,50,1.0,2.0,54,0.00,,SKC,0.01,VWS V14.01,2013-01-02 22:13:00,
2013-01-03 12:14:00,55.3,39.0,30.16,NE,50,0.0,2.0,54,0.00,,SKC,0.01,VWS V14.01,2013-01-02 22:14:00,
2013-01-03 12:15:00,55.5,39.1,30.16,NE,50,0.0,1.0,54,0.00,,SKC,0.01,VWS V14.01,2013-01-02 22:15:00,
2013-01-03 12:16:00,55.5,39.1,30.16,NE,50,0.0,1.0,54,0.00,,SKC,0.01,VWS V14.01,2013-01-02 22:16:00,
2013-01-03 12:17:00,55.5,39.1,30.16,NE,50,1.0,1.0,54,0.00,,SKC,0.01,VWS V14.01,2013-01-02 22:17:00,
2013-01-03 12:18:00,55.5,39.1,30.16,NE,50,1.0,2.0,54,0.00,,SKC,0.01,VWS V14.01,2013-01-02 22:18:00,
2013-01-03 12:19:00,55.5,38.7,30.16,NE,50,2.0,2.0,53,0.00,,SKC,0.01,VWS V14.01,2013-01-02 22:19:00,
2013-01-03 12:20:00,55.4,38.6,30.16,NE,50,2.0,3.0,53,0.00,,SKC,0.01,VWS V14.01,2013-01-02 22:20:00,
2013-01-03 12:21:00,55.4,39.0,30.16,NE,50,1.0,3.0,54,0.00,,SKC,0.01,VWS V14.01,2013-01-02 22:21:00,
2013-01-03 12:22:00,55.3,39.0,30.16,NE,50,2.0,3.0,54,0.00,,SKC,0.01,VWS V14.01,2013-01-02 22:22:00,
2013-01-03 12:23:00,55.3,39.0,30.16,NE,50,1.0,3.0,54,0.00,,SKC,0.01,VWS V14.01,2013-01-02 22:23:00,
2013-01-03 12:24:00,55.3,39.0,30.16,NE,50,1.0,2.0,54,0.00,,SKC,0.01,VWS V14.01,2013-01-02 22:24:00,
2013-01-03 12:25:00,55.3,39.0,30.16,East,80,3.0,3.0,54,0.00,,SKC,0.01,VWS V14.01,2013-01-02 22:25:00,
2013-01-03 12:26:00,55.3,39.0,30.16,East,82,1.0,2.0,54,0.00,,SKC,0.01,VWS V14.01,2013-01-02 22:26:00,
2013-01-03 12:27:00,55.3,39.0,30.16,ENE,74,2.0,4.0,54,0.00,,SKC,0.01,VWS V14.01,2013-01-02 22:27:00,
2013-01-03 12:28:00,55.2,38.4,30.16,ENE,74,2.0,3.0,53,0.00,,SKC,0.01,VWS V14.01,2013-01-02 22:28:00,
2013-01-03 12:29:00,55.2,38.4,30.16,ENE,74,0.0,2.0,53,0.00,,SKC,0.01,VWS V14.01,2013-01-02 22:29:00,
2013-01-03 12:30:00,55.4,38.6,30.16,ENE,74,2.0,2.0,53,0.00,,SKC,0.01,VWS V14.01,2013-01-02 22:30:00,
2013-01-03 12:31:00,55.4,39.0,30.16,ENE,74,0.0,2.0,54,0.00,,SKC,0.01,VWS V14.01,2013-01-02 22:31:00,
2013-01-03 12:32:00,55.4,38.6,30.16,ENE,74,1.0,2.0,53,0.00,,SKC,0.01,VWS V14.01,2013-01-02 22:32:00,
2013-01-03 12:33:00,55.4,39.0,30.16,ENE,74,0.0,2.0,54,0.00,,SKC,0.01,VWS V14.01,2013-01-02 22:33:00,
2013-01-03 12:34:00,55.5,39.1,30.16,ENE,74,0.0,1.0,54,0.00,,SKC,0.01,VWS V14.01,2013-01-02 22:34:00,
2013-01-03 12:35:00,56.0,39.1,30.16,ENE,61,2.0,4.0,53,0.00,,SKC,0.01,VWS V14.01,2013-01-02 22:35:00,
2013-01-03 12:36:00,56.0,39.1,30.16,ENE,74,1.0,1.0,53,0.00,,SKC,0.01,VWS V14.01,2013-01-02 22:36:00,
2013-01-03 12:37:00,56.0,39.1,30.16,ENE,61,2.0,4.0,53,0.00,,SKC,0.01,VWS V14.01,2013-01-02 22:37:00,
2013-01-03 12:38:00,55.9,39.0,30.16,ENE,61,2.0,3.0,53,0.00,,SKC,0.01,VWS V14.01,2013-01-02 22:38:00,
2013-01-03 12:39:00,55.8,38.5,30.16,ENE,61,1.0,3.0,52,0.00,,SKC,0.01,VWS V14.01,2013-01-02 22:39:00,
2013-01-03 12:40:00,55.8,38.9,30.16,ENE,61,1.0,1.0,53,0.00,,SKC,0.01,VWS V14.01,2013-01-02 22:40:00,
2013-01-03 12:41:00,55.8,38.9,30.16,ENE,61,0.0,1.0,53,0.00,,SKC,0.01,VWS V14.01,2013-01-02 22:41:00,
2013-01-03 12:42:00,55.8,38.9,30.16,ENE,61,0.0,1.0,53,0.00,,SKC,0.01,VWS V14.01,2013-01-02 22:42:00,
2013-01-03 12:43:00,55.8,38.9,30.16,ENE,61,0.0,2.0,53,0.00,,SKC,0.01,VWS V14.01,2013-01-02 22:43:00,
2013-01-03 12:44:00,55.8,38.5,30.16,ENE,61,0.0,0.0,52,0.00,,SKC,0.01,VWS V14.01,2013-01-02 22:44:00,
2013-01-03 12:45:00,56.0,38.6,30.16,ENE,61,0.0,2.0,52,0.00,,SKC,0.01,VWS V14.01,2013-01-02 22:45:00,
2013-01-03 12:46:00,56.1,38.7,30.15,ENE,61,1.0,3.0,52,0.00,,SKC,0.01,VWS V14.01,2013-01-02 22:46:00,
2013-01-03 12:47:00,56.0,38.6,30.16,ENE,61,0.0,2.0,52,0.00,,SKC,0.01,VWS V14.01,2013-01-02 22:47:00,
2013-01-03 12:48:00,55.9,39.0,30.15,ENE,61,0.0,1.0,53,0.00,,SKC,0.01,VWS V14.01,2013-01-02 22:48:00,
2013-01-03 12:49:00,55.9,38.5,30.15,ENE,61,1.0,2.0,52,0.00,,SKC,0.01,VWS V14.01,2013-01-02 22:49:00,
2013-01-03 12:50:00,55.7,38.4,30.15,ENE,61,0.0,0.0,52,0.00,,SKC,0.01,VWS V14.01,2013-01-02 22:50:00,
2013-01-03 12:51:00,55.7,38.4,30.15,ENE,61,0.0,1.0,52,0.00,,SKC,0.01,VWS V14.01,2013-01-02 22:51:00,
2013-01-03 12:52:00,55.7,38.8,30.15,ENE,61,1.0,1.0,53,0.00,,SKC,0.01,VWS V14.01,2013-01-02 22:52:00,
2013-01-03 12:53:00,55.7,38.8,30.15,ENE,61,0.0,2.0,53,0.00,,SKC,0.01,VWS V14.01,2013-01-02 22:53:00,
2013-01-03 12:54:00,55.7,38.8,30.15,ENE,61,0.0,1.0,53,0.00,,SKC,0.01,VWS V14.01,2013-01-02 22:54:00,
2013-01-03 12:55:00,55.9,39.0,30.15,ENE,61,2.0,2.0,53,0.00,,SKC,0.01,VWS V14.01,2013-01-02 22:55:00,
2013-01-03 12:56:00,55.9,39.0,30.15,ENE,61,1.0,2.0,53,0.00,,SKC,0.01,VWS V14.01,2013-01-02 22:56:00,
2013-01-03 12:57:00,55.8,38.5,30.15,ENE,61,1.0,2.0,52,0.00,,SKC,0.01,VWS V14.01,2013-01-02 22:57:00,
2013-01-03 12:58:00,55.8,38.5,30.15,ENE,61,0.0,1.0,52,0.00,,SKC,0.01,VWS V14.01,2013-01-02 22:58:00,
2013-01-03 12:59:00,55.9,38.5,30.15,ENE,61,0.0,1.0,52,0.00,,SKC,0.01,VWS V14.01,2013-01-02 22:59:00,
2013-01-03 13:00:00,56.0,39.1,30.15,ENE,61,0.0,0.0,53,0.00,,SKC,0.01,VWS V14.01,2013-01-02 23:00:00,
2013-01-03 13:01:00,55.9,39.0,30.15,ENE,61,0.0,1.0,53,0.00,,SKC,0.01,VWS V14.01,2013-01-02 23:01:00,
2013-01-03 13:02:00,56.0,39.1,30.15,ENE,61,0.0,0.0,53,0.00,,SKC,0.01,VWS V14.01,2013-01-02 23:02:00,
2013-01-03 13:03:00,56.0,38.6,30.15,ENE,61,0.0,1.0,52,0.00,,SKC,0.01,VWS V14.01,2013-01-02 23:03:00,
2013-01-03 13:04:00,56.2,38.3,30.15,ENE,61,1.0,1.0,51,0.00,,SKC,0.01,VWS V14.01,2013-01-02 23:04:00,
2013-01-03 13:05:00,56.3,37.9,30.15,ENE,61,0.0,1.0,50,0.00,,SKC,0.01,VWS V14.01,2013-01-02 23:05:00,
2013-01-03 13:06:00,56.4,38.0,30.15,ENE,61,0.0,1.0,50,0.00,,SKC,0.01,VWS V14.01,2013-01-02 23:06:00,
2013-01-03 13:07:00,56.3,37.9,30.15,ENE,61,1.0,1.0,50,0.00,,SKC,0.01,VWS V14.01,2013-01-02 23:07:00,
2013-01-03 13:08:00,56.2,38.3,30.15,ENE,61,1.0,1.0,51,0.00,,SKC,0.01,VWS V14.01,2013-01-02 23:08:00,
2013-01-03 13:09:00,56.2,37.8,30.15,ENE,61,0.0,1.0,50,0.00,,SKC,0.01,VWS V14.01,2013-01-02 23:09:00,
2013-01-03 13:10:00,56.2,37.3,30.15,ENE,61,1.0,2.0,49,0.00,,SKC,0.01,VWS V14.01,2013-01-02 23:10:00,
2013-01-03 13:11:00,56.2,37.8,30.15,ENE,61,1.0,1.0,50,0.00,,SKC,0.01,VWS V14.01,2013-01-02 23:11:00,
2013-01-03 13:12:00,56.2,37.3,30.15,ENE,61,2.0,3.0,49,0.00,,SKC,0.01,VWS V14.01,2013-01-02 23:12:00,
2013-01-03 13:13:00,56.2,37.3,30.15,ENE,61,1.0,2.0,49,0.00,,SKC,0.01,VWS V14.01,2013-01-02 23:13:00,
2013-01-03 13:14:00,56.1,37.7,30.15,ENE,61,0.0,1.0,50,0.00,,SKC,0.01,VWS V14.01,2013-01-02 23:14:00,
2013-01-03 13:15:00,56.3,37.9,30.15,ENE,61,0.0,0.0,50,0.00,,SKC,0.01,VWS V14.01,2013-01-02 23:15:00,
2013-01-03 13:16:00,56.3,37.9,30.15,ENE,61,0.0,0.0,50,0.00,,SKC,0.01,VWS V14.01,2013-01-02 23:16:00,
2013-01-03 13:17:00,56.4,38.5,30.15,ENE,61,0.0,0.0,51,0.00,,SKC,0.01,VWS V14.01,2013-01-02 23:17:00,
2013-01-03 13:18:00,56.4,38.0,30.15,ENE,61,0.0,1.0,50,0.00,,SKC,0.01,VWS V14.01,2013-01-02 23:18:00,
2013-01-03 13:19:00,56.5,38.6,30.15,ENE,61,0.0,0.0,51,0.00,,SKC,0.01,VWS V14.01,2013-01-02 23:19:00,
2013-01-03 13:20:00,56.3,38.9,30.15,ENE,59,1.0,2.0,52,0.00,,SKC,0.01,VWS V14.01,2013-01-02 23:20:00,
2013-01-03 13:21:00,56.4,39.0,30.15,ENE,59,2.0,2.0,52,0.00,,SKC,0.01,VWS V14.01,2013-01-02 23:21:00,
2013-01-03 13:22:00,56.2,38.8,30.15,ENE,59,0.0,2.0,52,0.00,,SKC,0.01,VWS V14.01,2013-01-02 23:22:00,
2013-01-03 13:23:00,56.1,38.7,30.15,ENE,59,1.0,1.0,52,0.00,,SKC,0.01,VWS V14.01,2013-01-02 23:23:00,
2013-01-03 13:24:00,56.0,38.6,30.15,ENE,59,2.0,2.0,52,0.00,,SKC,0.01,VWS V14.01,2013-01-02 23:24:00,
2013-01-03 13:25:00,56.1,38.2,30.15,ENE,59,0.0,0.0,51,0.00,,SKC,0.01,VWS V14.01,2013-01-02 23:25:00,
2013-01-03 13:26:00,56.0,38.2,30.15,ENE,59,0.0,1.0,51,0.00,,SKC,0.01,VWS V14.01,2013-01-02 23:26:00,
2013-01-03 13:27:00,56.2,38.3,30.15,ENE,59,1.0,2.0,51,0.00,,SKC,0.01,VWS V14.01,2013-01-02 23:27:00,
2013-01-03 13:28:00,56.2,38.3,30.15,ENE,59,1.0,2.0,51,0.00,,SKC,0.01,VWS V14.01,2013-01-02 23:28:00,
2013-01-03 13:30:00,55.8,38.0,30.14,ENE,59,1.0,3.0,51,0.00,,SKC,0.01,VWS V14.01,2013-01-02 23:30:00,
2013-01-03 13:31:00,55.9,38.0,30.14,ENE,59,3.0,3.0,51,0.00,,SKC,0.01,VWS V14.01,2013-01-02 23:31:00,
2013-01-03 13:32:00,55.8,38.0,30.14,ENE,59,2.0,3.0,51,0.00,,SKC,0.01,VWS V14.01,2013-01-02 23:32:00,
2013-01-03 13:33:00,55.8,38.0,30.14,ENE,59,1.0,2.0,51,0.00,,SKC,0.01,VWS V14.01,2013-01-02 23:33:00,
2013-01-03 13:34:00,55.8,38.5,30.15,ENE,59,0.0,1.0,52,0.00,,SKC,0.01,VWS V14.01,2013-01-02 23:34:00,
2013-01-03 13:35:00,55.8,38.5,30.15,ENE,59,1.0,2.0,52,0.00,,SKC,0.01,VWS V14.01,2013-01-02 23:35:00,
2013-01-03 13:36:00,55.8,38.5,30.15,ENE,59,2.0,2.0,52,0.00,,SKC,0.01,VWS V14.01,2013-01-02 23:36:00,
2013-01-03 13:37:00,55.8,38.5,30.15,ENE,59,1.0,2.0,52,0.00,,SKC,0.01,VWS V14.01,2013-01-02 23:37:00,
2013-01-03 13:38:00,55.9,38.5,30.15,ENE,59,1.0,2.0,52,0.00,,SKC,0.01,VWS V14.01,2013-01-02 23:38:00,
2013-01-03 13:39:00,55.9,38.5,30.15,ENE,59,0.0,1.0,52,0.00,,SKC,0.01,VWS V14.01,2013-01-02 23:39:00,
2013-01-03 13:40:00,55.7,38.4,30.14,ENE,59,1.0,1.0,52,0.00,,SKC,0.01,VWS V14.01,2013-01-02 23:40:00,
2013-01-03 13:41:00,55.7,38.4,30.15,ENE,59,0.0,1.0,52,0.00,,SKC,0.01,VWS V14.01,2013-01-02 23:41:00,
2013-01-03 13:42:00,55.7,38.4,30.14,ENE,64,1.0,1.0,52,0.00,,SKC,0.01,VWS V14.01,2013-01-02 23:42:00,
2013-01-03 13:43:00,55.8,38.5,30.14,ENE,76,0.0,3.0,52,0.00,,SKC,0.01,VWS V14.01,2013-01-02 23:43:00,
2013-01-03 13:44:00,55.7,38.8,30.14,ENE,76,0.0,1.0,53,0.00,,SKC,0.01,VWS V14.01,2013-01-02 23:44:00,
2013-01-03 13:45:00,55.7,38.4,30.14,ENE,76,0.0,0.0,52,0.00,,SKC,0.01,VWS V14.01,2013-01-02 23:45:00,
2013-01-03 13:46:00,55.6,38.8,30.14,ENE,76,0.0,1.0,53,0.00,,SKC,0.01,VWS V14.01,2013-01-02 23:46:00,
2013-01-03 13:47:00,55.7,38.4,30.14,ENE,76,0.0,1.0,52,0.00,,SKC,0.01,VWS V14.01,2013-01-02 23:47:00,
2013-01-03 13:48:00,55.8,38.5,30.14,ENE,76,0.0,1.0,52,0.00,,SKC,0.01,VWS V14.01,2013-01-02 23:48:00,
2013-01-03 13:49:00,55.9,39.0,30.14,ENE,76,0.0,0.0,53,0.00,,SKC,0.01,VWS V14.01,2013-01-02 23:49:00,
2013-01-03 13:50:00,56.1,39.2,30.14,ENE,76,0.0,1.0,53,0.00,,SKC,0.01,VWS V14.01,2013-01-02 23:50:00,
2013-01-03 13:51:00,56.2,39.3,30.14,ENE,76,0.0,0.0,53,0.00,,SKC,0.01,VWS V14.01,2013-01-02 23:51:00,
2013-01-03 13:52:00,56.0,39.6,30.14,ENE,76,1.0,1.0,54,0.00,,SKC,0.01,VWS V14.01,2013-01-02 23:52:00,
2013-01-03 13:53:00,55.9,39.0,30.14,ENE,76,0.0,2.0,53,0.00,,SKC,0.01,VWS V14.01,2013-01-02 23:53:00,
2013-01-03 13:54:00,55.8,38.9,30.14,ENE,76,0.0,1.0,53,0.00,,SKC,0.01,VWS V14.01,2013-01-02 23:54:00,
2013-01-03 13:55:00,55.5,39.1,30.14,ENE,76,0.0,0.0,54,0.00,,SKC,0.01,VWS V14.01,2013-01-02 23:55:00,
2013-01-03 13:56:00,55.5,39.1,30.14,ENE,76,0.0,1.0,54,0.00,,SKC,0.01,VWS V14.01,2013-01-02 23:56:00,
2013-01-03 13:57:00,55.4,39.0,30.14,ENE,76,0.0,0.0,54,0.00,,SKC,0.01,VWS V14.01,2013-01-02 23:57:00,
2013-01-03 13:58:00,55.3,39.0,30.14,ENE,76,1.0,1.0,54,0.00,,SKC,0.01,VWS V14.01,2013-01-02 23:58:00,
2013-01-03 13:59:00,55.4,39.0,30.14,ENE,76,0.0,1.0,54,0.00,,SKC,0.01,VWS V14.01,2013-01-02 23:59:00,
2013-01-03 14:00:00,55.4,39.5,30.14,ENE,76,0.0,0.0,55,0.00,,SKC,0.01,VWS V14.01,2013-01-03 00:00:00,
2013-01-03 14:01:00,55.5,39.6,30.14,ENE,76,0.0,1.0,55,0.00,,SKC,0.01,VWS V14.01,2013-01-03 00:01:00,
2013-01-03 14:02:00,55.4,39.5,30.14,ENE,76,0.0,0.0,55,0.00,,SKC,0.01,VWS V14.01,2013-01-03 00:02:00,
2013-01-03 14:03:00,55.3,39.4,30.14,ENE,76,0.0,0.0,55,0.00,,SKC,0.01,VWS V14.01,2013-01-03 00:03:00,
2013-01-03 14:04:00,55.2,39.3,30.14,ENE,76,1.0,1.0,55,0.00,,SKC,0.01,VWS V14.01,2013-01-03 00:04:00,
2013-01-03 14:05:00,55.2,38.9,30.14,ENE,76,0.0,1.0,54,0.00,,SKC,0.01,VWS V14.01,2013-01-03 00:05:00,
2013-01-03 14:06:00,55.2,38.9,30.14,ENE,76,1.0,1.0,54,0.00,,SKC,0.01,VWS V14.01,2013-01-03 00:06:00,
2013-01-03 14:07:00,55.2,38.9,30.14,ENE,76,0.0,1.0,54,0.00,,SKC,0.01,VWS V14.01,2013-01-03 00:07:00,
2013-01-03 14:08:00,55.2,38.9,30.14,ENE,76,0.0,1.0,54,0.00,,SKC,0.01,VWS V14.01,2013-01-03 00:08:00,
2013-01-03 14:09:00,55.2,38.9,30.14,ENE,76,0.0,0.0,54,0.00,,SKC,0.01,VWS V14.01,2013-01-03 00:09:00,
2013-01-03 14:10:00,55.2,39.3,30.14,ENE,76,0.0,0.0,55,0.00,,SKC,0.01,VWS V14.01,2013-01-03 00:10:00,
2013-01-03 14:11:00,55.2,39.3,30.14,ENE,76,0.0,0.0,55,0.00,,SKC,0.01,VWS V14.01,2013-01-03 00:11:00,
2013-01-03 14:12:00,55.3,39.4,30.14,ENE,76,0.0,0.0,55,0.00,,SKC,0.01,VWS V14.01,2013-01-03 00:12:00,
2013-01-03 14:13:00,55.3,39.9,30.14,ENE,76,0.0,0.0,56,0.00,,SKC,0.01,VWS V14.01,2013-01-03 00:13:00,
2013-01-03 14:14:00,55.3,39.9,30.14,ENE,76,0.0,0.0,56,0.00,,SKC,0.01,VWS V14.01,2013-01-03 00:14:00,
2013-01-03 14:15:00,55.4,40.0,30.14,ENE,76,0.0,0.0,56,0.00,,SKC,0.01,VWS V14.01,2013-01-03 00:15:00,
2013-01-03 14:16:00,55.4,40.0,30.14,ENE,76,0.0,1.0,56,0.00,,SKC,0.01,VWS V14.01,2013-01-03 00:16:00,
2013-01-03 14:17:00,55.4,40.0,30.14,ENE,76,0.0,0.0,56,0.00,,SKC,0.01,VWS V14.01,2013-01-03 00:17:00,
2013-01-03 14:18:00,55.2,39.8,30.14,ENE,76,0.0,1.0,56,0.00,,SKC,0.01,VWS V14.01,2013-01-03 00:18:00,
2013-01-03 14:19:00,55.1,39.7,30.14,ENE,76,0.0,0.0,56,0.00,,SKC,0.01,VWS V14.01,2013-01-03 00:19:00,
2013-01-03 14:20:00,54.9,40.0,30.14,ENE,76,0.0,0.0,57,0.00,,SKC,0.01,VWS V14.01,2013-01-03 00:20:00,
2013-01-03 14:21:00,55.0,40.1,30.14,ENE,76,0.0,0.0,57,0.00,,SKC,0.01,VWS V14.01,2013-01-03 00:21:00,
2013-01-03 14:22:00,54.9,39.5,30.14,ENE,76,0.0,0.0,56,0.00,,SKC,0.01,VWS V14.01,2013-01-03 00:22:00,
2013-01-03 14:23:00,55.1,39.7,30.14,ENE,76,0.0,0.0,56,0.00,,SKC,0.01,VWS V14.01,2013-01-03 00:23:00,
2013-01-03 14:24:00,55.1,40.2,30.14,ENE,76,0.0,0.0,57,0.00,,SKC,0.01,VWS V14.01,2013-01-03 00:24:00,
2013-01-03 14:25:00,55.1,39.7,30.14,ENE,76,0.0,0.0,56,0.00,,SKC,0.01,VWS V14.01,2013-01-03 00:25:00,
2013-01-03 14:26:00,55.1,39.7,30.14,ENE,76,0.0,0.0,56,0.00,,SKC,0.01,VWS V14.01,2013-01-03 00:26:00,
2013-01-03 14:27:00,55.0,39.6,30.14,ENE,76,0.0,0.0,56,0.00,,SKC,0.01,VWS V14.01,2013-01-03 00:27:00,
2013-01-03 14:28:00,54.9,39.5,30.14,ENE,76,0.0,0.0,56,0.00,,SKC,0.01,VWS V14.01,2013-01-03 00:28:00,
2013-01-03 14:29:00,54.8,39.4,30.14,ENE,76,0.0,0.0,56,0.00,,SKC,0.01,VWS V14.01,2013-01-03 00:29:00,
2013-01-03 14:30:00,54.4,39.5,30.14,ENE,76,0.0,0.0,57,0.00,,SKC,0.01,VWS V14.01,2013-01-03 00:30:00,
2013-01-03 14:31:00,54.5,39.6,30.14,ENE,76,0.0,1.0,57,0.00,,SKC,0.01,VWS V14.01,2013-01-03 00:31:00,
2013-01-03 14:32:00,54.3,39.4,30.14,ENE,76,0.0,0.0,57,0.00,,SKC,0.01,VWS V14.01,2013-01-03 00:32:00,
2013-01-03 14:33:00,54.1,39.7,30.14,ENE,76,0.0,0.0,58,0.00,,SKC,0.01,VWS V14.01,2013-01-03 00:33:00,
2013-01-03 14:34:00,54.1,40.1,30.14,ENE,76,0.0,0.0,59,0.00,,SKC,0.01,VWS V14.01,2013-01-03 00:34:00,
2013-01-03 14:35:00,53.8,40.3,30.14,ENE,76,0.0,0.0,60,0.00,,SKC,0.01,VWS V14.01,2013-01-03 00:35:00,
2013-01-03 14:36:00,53.9,39.9,30.14,ENE,76,0.0,0.0,59,0.00,,SKC,0.01,VWS V14.01,2013-01-03 00:36:00,
2013-01-03 14:37:00,53.8,40.3,30.14,ENE,76,0.0,0.0,60,0.00,,SKC,0.01,VWS V14.01,2013-01-03 00:37:00,
2013-01-03 14:38:00,53.6,40.5,30.14,ENE,76,0.0,0.0,61,0.00,,SKC,0.01,VWS V14.01,2013-01-03 00:38:00,
2013-01-03 14:39:00,53.5,40.4,30.13,ENE,76,0.0,0.0,61,0.00,,SKC,0.01,VWS V14.01,2013-01-03 00:39:00,
2013-01-03 14:40:00,53.3,39.8,30.13,ENE,76,0.0,0.0,60,0.00,,SKC,0.01,VWS V14.01,2013-01-03 00:40:00,
2013-01-03 14:41:00,53.4,39.9,30.13,ENE,76,0.0,1.0,60,0.00,,SKC,0.01,VWS V14.01,2013-01-03 00:41:00,
2013-01-03 14:42:00,53.3,39.8,30.13,ENE,76,0.0,0.0,60,0.00,,SKC,0.01,VWS V14.01,2013-01-03 00:42:00,
2013-01-03 14:43:00,53.3,39.8,30.13,ENE,76,0.0,0.0,60,0.00,,SKC,0.01,VWS V14.01,2013-01-03 00:43:00,
2013-01-03 14:44:00,53.3,40.6,30.13,ENE,76,0.0,0.0,62,0.00,,SKC,0.01,VWS V14.01,2013-01-03 00:44:00,
2013-01-03 14:45:00,53.2,40.5,30.13,ENE,76,0.0,1.0,62,0.00,,SKC,0.01,VWS V14.01,2013-01-03 00:45:00,
2013-01-03 14:46:00,53.3,40.6,30.13,ENE,76,1.0,1.0,62,0.00,,SKC,0.01,VWS V14.01,2013-01-03 00:46:00,
2013-01-03 14:47:00,53.2,40.5,30.13,ENE,76,0.0,1.0,62,0.00,,SKC,0.01,VWS V14.01,2013-01-03 00:47:00,
2013-01-03 14:48:00,53.2,40.1,30.13,ENE,76,0.0,1.0,61,0.00,,SKC,0.01,VWS V14.01,2013-01-03 00:48:00,
2013-01-03 14:49:00,53.2,39.7,30.13,ENE,76,1.0,1.0,60,0.00,,SKC,0.01,VWS V14.01,2013-01-03 00:49:00,
2013-01-03 14:50:00,53.2,40.1,30.13,ENE,76,0.0,0.0,61,0.00,,SKC,0.01,VWS V14.01,2013-01-03 00:50:00,
2013-01-03 14:51:00,53.2,39.7,30.13,ENE,76,0.0,1.0,60,0.00,,SKC,0.01,VWS V14.01,2013-01-03 00:51:00,
2013-01-03 14:52:00,53.2,40.1,30.13,ENE,76,0.0,0.0,61,0.00,,SKC,0.01,VWS V14.01,2013-01-03 00:52:00,
2013-01-03 14:53:00,53.1,39.6,30.13,ENE,76,0.0,0.0,60,0.00,,SKC,0.01,VWS V14.01,2013-01-03 00:53:00,
2013-01-03 14:54:00,53.0,39.9,30.13,ENE,76,0.0,0.0,61,0.00,,SKC,0.01,VWS V14.01,2013-01-03 00:54:00,
2013-01-03 14:55:00,52.7,40.1,30.13,ENE,76,0.0,0.0,62,0.00,,SKC,0.01,VWS V14.01,2013-01-03 00:55:00,
2013-01-03 14:56:00,52.8,39.7,30.13,ENE,76,0.0,0.0,61,0.00,,SKC,0.01,VWS V14.01,2013-01-03 00:56:00,
2013-01-03 14:57:00,52.6,40.0,30.13,ENE,76,0.0,0.0,62,0.00,,SKC,0.01,VWS V14.01,2013-01-03 00:57:00,
2013-01-03 14:58:00,52.4,39.8,30.13,ENE,76,0.0,0.0,62,0.00,,SKC,0.01,VWS V14.01,2013-01-03 00:58:00,
2013-01-03 14:59:00,52.2,39.6,30.13,ENE,76,0.0,0.0,62,0.00,,SKC,0.01,VWS V14.01,2013-01-03 00:59:00,
2013-01-03 15:00:00,51.8,39.2,30.13,ENE,76,0.0,0.0,62,0.00,,SKC,0.01,VWS V14.01,2013-01-03 01:00:00,
2013-01-03 15:01:00,51.9,39.3,30.13,ENE,76,0.0,0.0,62,0.00,,SKC,0.01,VWS V14.01,2013-01-03 01:01:00,
2013-01-03 15:02:00,51.8,39.6,30.13,ENE,76,0.0,0.0,63,0.00,,SKC,0.01,VWS V14.01,2013-01-03 01:02:00,
2013-01-03 15:03:00,51.7,39.9,30.13,ENE,76,0.0,0.0,64,0.00,,SKC,0.01,VWS V14.01,2013-01-03 01:03:00,
2013-01-03 15:04:00,51.6,39.8,30.14,ENE,76,0.0,0.0,64,0.00,,SKC,0.01,VWS V14.01,2013-01-03 01:04:00,
2013-01-03 15:05:00,51.2,40.2,30.14,ENE,76,0.0,0.0,66,0.00,,SKC,0.01,VWS V14.01,2013-01-03 01:05:00,
2013-01-03 15:06:00,51.3,40.3,30.14,ENE,76,0.0,0.0,66,0.00,,SKC,0.01,VWS V14.01,2013-01-03 01:06:00,
2013-01-03 15:07:00,51.1,40.2,30.14,ENE,76,0.0,0.0,66,0.00,,SKC,0.01,VWS V14.01,2013-01-03 01:07:00,
2013-01-03 15:08:00,51.0,40.4,30.14,ENE,76,0.0,0.0,67,0.00,,SKC,0.01,VWS V14.01,2013-01-03 01:08:00,
2013-01-03 15:09:00,50.8,40.2,30.14,ENE,76,0.0,0.0,67,0.00,,SKC,0.01,VWS V14.01,2013-01-03 01:09:00,
2013-01-03 15:10:00,50.6,40.4,30.13,ENE,76,0.0,0.0,68,0.00,,SKC,0.01,VWS V14.01,2013-01-03 01:10:00,
2013-01-03 15:11:00,50.7,40.2,30.13,ENE,76,0.0,0.0,67,0.00,,SKC,0.01,VWS V14.01,2013-01-03 01:11:00,
2013-01-03 15:12:00,50.6,40.1,30.13,ENE,76,0.0,0.0,67,0.00,,SKC,0.01,VWS V14.01,2013-01-03 01:12:00,
2013-01-03 15:13:00,50.6,40.1,30.13,ENE,76,0.0,0.0,67,0.00,,SKC,0.01,VWS V14.01,2013-01-03 01:13:00,
2013-01-03 15:14:00,50.5,40.0,30.13,ENE,76,0.0,0.0,67,0.00,,SKC,0.01,VWS V14.01,2013-01-03 01:14:00,
2013-01-03 15:15:00,50.1,39.6,30.14,ENE,76,0.0,0.0,67,0.00,,SKC,0.01,VWS V14.01,2013-01-03 01:15:00,
2013-01-03 15:16:00,50.2,39.7,30.14,ENE,76,0.0,0.0,67,0.00,,SKC,0.01,VWS V14.01,2013-01-03 01:16:00,
2013-01-03 15:17:00,50.1,39.6,30.14,ENE,76,0.0,0.0,67,0.00,,SKC,0.01,VWS V14.01,2013-01-03 01:17:00,
2013-01-03 15:18:00,50.0,39.5,30.14,ENE,76,0.0,0.0,67,0.00,,SKC,0.01,VWS V14.01,2013-01-03 01:18:00,
2013-01-03 15:19:00,49.9,39.4,30.14,ENE,76,0.0,1.0,67,0.00,,SKC,0.01,VWS V14.01,2013-01-03 01:19:00,
2013-01-03 15:20:00,49.7,39.6,30.14,ENE,76,0.0,0.0,68,0.00,,SKC,0.01,VWS V14.01,2013-01-03 01:20:00,
2013-01-03 15:21:00,49.7,39.6,30.14,ENE,76,0.0,0.0,68,0.00,,SKC,0.01,VWS V14.01,2013-01-03 01:21:00,
2013-01-03 15:22:00,49.7,39.6,30.14,ENE,76,0.0,0.0,68,0.00,,SKC,0.01,VWS V14.01,2013-01-03 01:22:00,
2013-01-03 15:23:00,49.7,39.6,30.14,ENE,76,0.0,0.0,68,0.00,,SKC,0.01,VWS V14.01,2013-01-03 01:23:00,
2013-01-03 15:24:00,49.7,39.6,30.14,ENE,76,0.0,0.0,68,0.00,,SKC,0.01,VWS V14.01,2013-01-03 01:24:00,
2013-01-03 15:25:00,49.7,39.6,30.14,ENE,76,0.0,0.0,68,0.00,,SKC,0.01,VWS V14.01,2013-01-03 01:25:00,
2013-01-03 15:26:00,49.7,39.6,30.14,ENE,76,0.0,0.0,68,0.00,,SKC,0.01,VWS V14.01,2013-01-03 01:26:00,
2013-01-03 15:27:00,49.6,39.5,30.14,ENE,76,0.0,0.0,68,0.00,,SKC,0.01,VWS V14.01,2013-01-03 01:27:00,
2013-01-03 15:28:00,49.5,39.4,30.14,ENE,76,0.0,0.0,68,0.00,,SKC,0.01,VWS V14.01,2013-01-03 01:28:00,
2013-01-03 15:29:00,49.4,39.7,30.14,ENE,76,0.0,0.0,69,0.00,,SKC,0.01,VWS V14.01,2013-01-03 01:29:00,
2013-01-03 15:30:00,49.1,39.8,30.14,ENE,76,0.0,0.0,70,0.00,,SKC,0.01,VWS V14.01,2013-01-03 01:30:00,
2013-01-03 15:31:00,49.2,39.8,30.14,ENE,76,0.0,0.0,70,0.00,,SKC,0.01,VWS V14.01,2013-01-03 01:31:00,
2013-01-03 15:32:00,49.0,39.7,30.14,ENE,76,0.0,0.0,70,0.00,,SKC,0.01,VWS V14.01,2013-01-03 01:32:00,
2013-01-03 15:33:00,48.8,39.8,30.14,ENE,76,0.0,0.0,71,0.00,,SKC,0.01,VWS V14.01,2013-01-03 01:33:00,
2013-01-03 15:34:00,48.7,39.7,30.14,ENE,76,0.0,0.0,71,0.00,,SKC,0.01,VWS V14.01,2013-01-03 01:34:00,
2013-01-03 15:35:00,48.4,39.8,30.14,ENE,76,0.0,0.0,72,0.00,,SKC,0.01,VWS V14.01,2013-01-03 01:35:00,
2013-01-03 15:36:00,48.5,39.9,30.14,ENE,76,0.0,0.0,72,0.00,,SKC,0.01,VWS V14.01,2013-01-03 01:36:00,
2013-01-03 15:37:00,48.3,39.7,30.14,ENE,76,0.0,0.0,72,0.00,,SKC,0.01,VWS V14.01,2013-01-03 01:37:00,
2013-01-03 15:38:00,48.3,39.7,30.14,ENE,76,0.0,0.0,72,0.00,,SKC,0.01,VWS V14.01,2013-01-03 01:38:00,
2013-01-03 15:39:00,48.2,39.6,30.14,ENE,76,0.0,0.0,72,0.00,,SKC,0.01,VWS V14.01,2013-01-03 01:39:00,
2013-01-03 15:40:00,48.1,39.5,30.14,ENE,76,0.0,0.0,72,0.00,,SKC,0.01,VWS V14.01,2013-01-03 01:40:00,
2013-01-03 15:41:00,48.1,39.5,30.14,ENE,76,0.0,0.0,72,0.00,,SKC,0.01,VWS V14.01,2013-01-03 01:41:00,
2013-01-03 15:42:00,48.0,39.4,30.14,ENE,76,0.0,0.0,72,0.00,,SKC,0.01,VWS V14.01,2013-01-03 01:42:00,
2013-01-03 15:43:00,47.8,39.2,30.14,ENE,76,0.0,0.0,72,0.00,,SKC,0.01,VWS V14.01,2013-01-03 01:43:00,
2013-01-03 15:44:00,47.7,39.5,30.14,ENE,76,0.0,0.0,73,0.00,,SKC,0.01,VWS V14.01,2013-01-03 01:44:00,
2013-01-03 15:45:00,47.4,39.2,30.15,ENE,76,0.0,0.0,73,0.00,,SKC,0.01,VWS V14.01,2013-01-03 01:45:00,
2013-01-03 15:46:00,47.4,39.2,30.15,ENE,76,0.0,0.0,73,0.00,,SKC,0.01,VWS V14.01,2013-01-03 01:46:00,
2013-01-03 15:47:00,47.3,39.4,30.15,ENE,76,0.0,0.0,74,0.00,,SKC,0.01,VWS V14.01,2013-01-03 01:47:00,
2013-01-03 15:48:00,47.2,39.3,30.15,ENE,76,0.0,0.0,74,0.00,,SKC,0.01,VWS V14.01,2013-01-03 01:48:00,
2013-01-03 15:49:00,47.1,39.2,30.15,ENE,76,0.0,0.0,74,0.00,,SKC,0.01,VWS V14.01,2013-01-03 01:49:00,
2013-01-03 15:50:00,46.9,39.4,30.15,ENE,76,1.0,2.0,75,0.00,,SKC,0.01,VWS V14.01,2013-01-03 01:50:00,
2013-01-03 15:51:00,47.0,39.5,30.15,ENE,76,2.0,3.0,75,0.00,,SKC,0.01,VWS V14.01,2013-01-03 01:51:00,
2013-01-03 15:52:00,46.9,39.4,30.15,ENE,76,1.0,2.0,75,0.00,,SKC,0.01,VWS V14.01,2013-01-03 01:52:00,
2013-01-03 15:53:00,46.9,39.4,30.15,ENE,76,0.0,1.0,75,0.00,,SKC,0.01,VWS V14.01,2013-01-03 01:53:00,
2013-01-03 15:54:00,46.9,39.4,30.15,ENE,76,0.0,0.0,75,0.00,,SKC,0.01,VWS V14.01,2013-01-03 01:54:00,
2013-01-03 15:55:00,46.8,39.7,30.15,ENE,76,2.0,2.0,76,0.00,,SKC,0.01,VWS V14.01,2013-01-03 01:55:00,
2013-01-03 15:56:00,46.8,39.7,30.15,ENE,76,2.0,2.0,76,0.00,,SKC,0.01,VWS V14.01,2013-01-03 01:56:00,
2013-01-03 15:57:00,46.8,39.7,30.15,ENE,76,1.0,2.0,76,0.00,,SKC,0.01,VWS V14.01,2013-01-03 01:57:00,
2013-01-03 15:58:00,46.8,39.7,30.15,ENE,76,2.0,2.0,76,0.00,,SKC,0.01,VWS V14.01,2013-01-03 01:58:00,
2013-01-03 15:59:00,46.9,39.7,30.15,ENE,76,0.0,2.0,76,0.00,,SKC,0.01,VWS V14.01,2013-01-03 01:59:00,
2013-01-03 16:00:00,46.9,39.7,30.15,ENE,76,0.0,0.0,76,0.00,,SKC,0.01,VWS V14.01,2013-01-03 02:00:00,
2013-01-03 16:01:00,46.9,39.7,30.15,ENE,76,0.0,0.0,76,0.00,,SKC,0.01,VWS V14.01,2013-01-03 02:01:00,
2013-01-03 16:02:00,46.8,39.7,30.15,ENE,76,0.0,0.0,76,0.00,,SKC,0.01,VWS V14.01,2013-01-03 02:02:00,
2013-01-03 16:03:00,46.8,39.7,30.15,ENE,76,0.0,0.0,76,0.00,,SKC,0.01,VWS V14.01,2013-01-03 02:03:00,
2013-01-03 16:04:00,46.8,39.7,30.15,ENE,76,0.0,0.0,76,0.00,,SKC,0.01,VWS V14.01,2013-01-03 02:04:00,
2013-01-03 16:05:00,46.7,39.5,30.15,ENE,76,0.0,0.0,76,0.00,,SKC,0.01,VWS V14.01,2013-01-03 02:05:00,
2013-01-03 16:06:00,46.8,39.7,30.15,ENE,76,0.0,0.0,76,0.00,,SKC,0.01,VWS V14.01,2013-01-03 02:06:00,
2013-01-03 16:07:00,46.7,39.5,30.15,ENE,76,0.0,0.0,76,0.00,,SKC,0.01,VWS V14.01,2013-01-03 02:07:00,
2013-01-03 16:08:00,46.6,39.5,30.15,ENE,76,0.0,0.0,76,0.00,,SKC,0.01,VWS V14.01,2013-01-03 02:08:00,
2013-01-03 16:09:00,46.5,39.3,30.15,ENE,76,0.0,0.0,76,0.00,,SKC,0.01,VWS V14.01,2013-01-03 02:09:00,
2013-01-03 16:10:00,46.4,39.3,30.15,ENE,76,0.0,0.0,76,0.00,,SKC,0.01,VWS V14.01,2013-01-03 02:10:00,
2013-01-03 16:11:00,46.4,39.3,30.15,ENE,76,0.0,0.0,76,0.00,,SKC,0.01,VWS V14.01,2013-01-03 02:11:00,
2013-01-03 16:12:00,46.4,39.3,30.15,ENE,76,0.0,0.0,76,0.00,,SKC,0.01,VWS V14.01,2013-01-03 02:12:00,
2013-01-03 16:13:00,46.3,39.2,30.15,ENE,76,0.0,0.0,76,0.00,,SKC,0.01,VWS V14.01,2013-01-03 02:13:00,
2013-01-03 16:14:00,46.3,39.2,30.15,ENE,76,0.0,0.0,76,0.00,,SKC,0.01,VWS V14.01,2013-01-03 02:14:00,
2013-01-03 16:15:00,46.2,39.1,30.15,ENE,76,0.0,0.0,76,0.00,,SKC,0.01,VWS V14.01,2013-01-03 02:15:00,
2013-01-03 16:16:00,46.2,39.1,30.15,ENE,76,0.0,0.0,76,0.00,,SKC,0.01,VWS V14.01,2013-01-03 02:16:00,
2013-01-03 16:17:00,46.2,39.1,30.15,ENE,76,0.0,0.0,76,0.00,,SKC,0.01,VWS V14.01,2013-01-03 02:17:00,
2013-01-03 16:18:00,46.2,39.1,30.15,ENE,76,0.0,0.0,76,0.00,,SKC,0.01,VWS V14.01,2013-01-03 02:18:00,
2013-01-03 16:19:00,46.2,39.1,30.15,ENE,76,0.0,0.0,76,0.00,,SKC,0.01,VWS V14.01,2013-01-03 02:19:00,
2013-01-03 16:20:00,46.1,39.0,30.15,ENE,76,0.0,0.0,76,0.00,,SKC,0.01,VWS V14.01,2013-01-03 02:20:00,
2013-01-03 16:21:00,46.2,39.1,30.15,ENE,76,0.0,0.0,76,0.00,,SKC,0.01,VWS V14.01,2013-01-03 02:21:00,
2013-01-03 16:22:00,46.0,38.9,30.15,ENE,76,0.0,0.0,76,0.00,,SKC,0.01,VWS V14.01,2013-01-03 02:22:00,
2013-01-03 16:23:00,45.8,39.0,30.15,ENE,76,0.0,0.0,77,0.00,,SKC,0.01,VWS V14.01,2013-01-03 02:23:00,
2013-01-03 16:24:00,45.6,38.8,30.15,ENE,76,0.0,0.0,77,0.00,,SKC,0.01,VWS V14.01,2013-01-03 02:24:00,
2013-01-03 16:25:00,45.2,39.1,30.15,ENE,76,0.0,0.0,79,0.00,,SKC,0.01,VWS V14.01,2013-01-03 02:25:00,
2013-01-03 16:26:00,45.3,38.9,30.14,ENE,76,0.0,0.0,78,0.00,,SKC,0.01,VWS V14.01,2013-01-03 02:26:00,
2013-01-03 16:27:00,45.1,39.0,30.15,ENE,76,0.0,0.0,79,0.00,,SKC,0.01,VWS V14.01,2013-01-03 02:27:00,
2013-01-03 16:28:00,45.0,38.9,30.15,ENE,76,0.0,0.0,79,0.00,,SKC,0.01,VWS V14.01,2013-01-03 02:28:00,
2013-01-03 16:29:00,44.9,38.8,30.15,ENE,76,0.0,0.0,79,0.00,,SKC,0.01,VWS V14.01,2013-01-03 02:29:00,
2013-01-03 16:30:00,44.6,38.8,30.15,ENE,76,0.0,0.0,80,0.00,,SKC,0.01,VWS V14.01,2013-01-03 02:30:00,
2013-01-03 16:31:00,44.6,38.8,30.15,ENE,76,0.0,0.0,80,0.00,,SKC,0.01,VWS V14.01,2013-01-03 02:31:00,
2013-01-03 16:32:00,44.5,38.7,30.15,ENE,76,0.0,0.0,80,0.00,,SKC,0.01,VWS V14.01,2013-01-03 02:32:00,
2013-01-03 16:33:00,44.3,38.5,30.15,ENE,76,0.0,0.0,80,0.00,,SKC,0.01,VWS V14.01,2013-01-03 02:33:00,
2013-01-03 16:34:00,44.2,38.8,30.15,ENE,76,0.0,0.0,81,0.00,,SKC,0.01,VWS V14.01,2013-01-03 02:34:00,
2013-01-03 16:35:00,44.0,38.5,30.15,ENE,76,0.0,0.0,81,0.00,,SKC,0.01,VWS V14.01,2013-01-03 02:35:00,
2013-01-03 16:36:00,44.1,38.7,30.15,ENE,76,0.0,0.0,81,0.00,,SKC,0.01,VWS V14.01,2013-01-03 02:36:00,
2013-01-03 16:37:00,44.0,38.5,30.15,ENE,76,0.0,0.0,81,0.00,,SKC,0.01,VWS V14.01,2013-01-03 02:37:00,
2013-01-03 16:38:00,43.9,38.5,30.15,ENE,76,0.0,0.0,81,0.00,,SKC,0.01,VWS V14.01,2013-01-03 02:38:00,
2013-01-03 16:39:00,43.9,38.5,30.15,ENE,76,0.0,1.0,81,0.00,,SKC,0.01,VWS V14.01,2013-01-03 02:39:00,
2013-01-03 16:40:00,43.9,38.8,30.15,ENE,76,0.0,0.0,82,0.00,,SKC,0.01,VWS V14.01,2013-01-03 02:40:00,
2013-01-03 16:41:00,43.8,38.7,30.15,ENE,76,0.0,1.0,82,0.00,,SKC,0.01,VWS V14.01,2013-01-03 02:41:00,
2013-01-03 16:42:00,44.0,38.9,30.15,ENE,76,0.0,0.0,82,0.00,,SKC,0.01,VWS V14.01,2013-01-03 02:42:00,
2013-01-03 16:43:00,44.0,38.9,30.15,ENE,76,0.0,1.0,82,0.00,,SKC,0.01,VWS V14.01,2013-01-03 02:43:00,
2013-01-03 16:44:00,44.1,38.7,30.15,ENE,76,0.0,0.0,81,0.00,,SKC,0.01,VWS V14.01,2013-01-03 02:44:00,
2013-01-03 16:45:00,44.1,38.7,30.15,ENE,76,0.0,0.0,81,0.00,,SKC,0.01,VWS V14.01,2013-01-03 02:45:00,
2013-01-03 16:46:00,44.1,38.7,30.15,ENE,76,0.0,0.0,81,0.00,,SKC,0.01,VWS V14.01,2013-01-03 02:46:00,
2013-01-03 16:47:00,44.0,38.5,30.15,ENE,76,0.0,0.0,81,0.00,,SKC,0.01,VWS V14.01,2013-01-03 02:47:00,
2013-01-03 16:48:00,44.0,38.5,30.15,ENE,76,0.0,0.0,81,0.00,,SKC,0.01,VWS V14.01,2013-01-03 02:48:00,
2013-01-03 16:49:00,44.0,38.5,30.15,ENE,76,0.0,0.0,81,0.00,,SKC,0.01,VWS V14.01,2013-01-03 02:49:00,
2013-01-03 16:50:00,44.0,38.9,30.15,ENE,76,0.0,0.0,82,0.00,,SKC,0.01,VWS V14.01,2013-01-03 02:50:00,
2013-01-03 16:51:00,44.0,38.9,30.15,ENE,76,0.0,0.0,82,0.00,,SKC,0.01,VWS V14.01,2013-01-03 02:51:00,
2013-01-03 16:52:00,44.0,38.9,30.15,ENE,76,0.0,0.0,82,0.00,,SKC,0.01,VWS V14.01,2013-01-03 02:52:00,
2013-01-03 16:53:00,44.0,38.5,30.15,ENE,76,0.0,0.0,81,0.00,,SKC,0.01,VWS V14.01,2013-01-03 02:53:00,
2013-01-03 16:54:00,43.9,38.5,30.15,ENE,76,0.0,0.0,81,0.00,,SKC,0.01,VWS V14.01,2013-01-03 02:54:00,
2013-01-03 16:55:00,43.6,38.5,30.15,ENE,76,0.0,0.0,82,0.00,,SKC,0.01,VWS V14.01,2013-01-03 02:55:00,
2013-01-03 16:56:00,43.7,38.3,30.15,ENE,76,0.0,0.0,81,0.00,,SKC,0.01,VWS V14.01,2013-01-03 02:56:00,
2013-01-03 16:57:00,43.6,38.5,30.15,ENE,76,0.0,0.0,82,0.00,,SKC,0.01,VWS V14.01,2013-01-03 02:57:00,
2013-01-03 16:58:00,43.5,38.4,30.15,ENE,76,0.0,0.0,82,0.00,,SKC,0.01,VWS V14.01,2013-01-03 02:58:00,
2013-01-03 16:59:00,43.4,38.3,30.15,ENE,76,0.0,0.0,82,0.00,,SKC,0.01,VWS V14.01,2013-01-03 02:59:00,
2013-01-03 17:00:00,43.4,38.6,30.15,ENE,76,0.0,0.0,83,0.00,,SKC,0.01,VWS V14.01,2013-01-03 03:00:00,
2013-01-03 17:01:00,43.4,38.3,30.15,ENE,76,0.0,0.0,82,0.00,,SKC,0.01,VWS V14.01,2013-01-03 03:01:00,
2013-01-03 17:02:00,43.4,38.6,30.15,ENE,76,0.0,0.0,83,0.00,,SKC,0.01,VWS V14.01,2013-01-03 03:02:00,
2013-01-03 17:03:00,43.3,38.2,30.15,ENE,76,0.0,0.0,82,0.00,,SKC,0.01,VWS V14.01,2013-01-03 03:03:00,
2013-01-03 17:04:00,43.2,38.1,30.15,ENE,76,0.0,0.0,82,0.00,,SKC,0.01,VWS V14.01,2013-01-03 03:04:00,
2013-01-03 17:05:00,43.0,38.2,30.15,ENE,76,0.0,0.0,83,0.00,,SKC,0.01,VWS V14.01,2013-01-03 03:05:00,
2013-01-03 17:06:00,43.1,38.3,30.15,ENE,76,0.0,0.0,83,0.00,,SKC,0.01,VWS V14.01,2013-01-03 03:06:00,
2013-01-03 17:07:00,43.0,38.2,30.15,ENE,76,0.0,0.0,83,0.00,,SKC,0.01,VWS V14.01,2013-01-03 03:07:00,
2013-01-03 17:08:00,42.8,38.0,30.15,ENE,76,0.0,0.0,83,0.00,,SKC,0.01,VWS V14.01,2013-01-03 03:08:00,
2013-01-03 17:09:00,42.7,37.9,30.15,ENE,76,0.0,0.0,83,0.00,,SKC,0.01,VWS V14.01,2013-01-03 03:09:00,
2013-01-03 17:10:00,42.5,37.7,30.15,ENE,76,0.0,0.0,83,0.00,,SKC,0.01,VWS V14.01,2013-01-03 03:10:00,
2013-01-03 17:11:00,42.5,37.7,30.15,ENE,76,0.0,0.0,83,0.00,,SKC,0.01,VWS V14.01,2013-01-03 03:11:00,
2013-01-03 17:12:00,42.4,37.6,30.15,ENE,76,0.0,0.0,83,0.00,,SKC,0.01,VWS V14.01,2013-01-03 03:12:00,
2013-01-03 17:13:00,42.3,37.8,30.15,ENE,76,0.0,0.0,84,0.00,,SKC,0.01,VWS V14.01,2013-01-03 03:13:00,
2013-01-03 17:14:00,42.3,37.8,30.15,ENE,76,0.0,0.0,84,0.00,,SKC,0.01,VWS V14.01,2013-01-03 03:14:00,
2013-01-03 17:15:00,42.0,37.5,30.15,ENE,76,0.0,0.0,84,0.00,,SKC,0.01,VWS V14.01,2013-01-03 03:15:00,
2013-01-03 17:16:00,42.0,37.5,30.15,ENE,76,0.0,0.0,84,0.00,,SKC,0.01,VWS V14.01,2013-01-03 03:16:00,
2013-01-03 17:17:00,41.9,37.4,30.15,ENE,76,0.0,0.0,84,0.00,,SKC,0.01,VWS V14.01,2013-01-03 03:17:00,
2013-01-03 17:18:00,41.9,37.7,30.15,ENE,76,0.0,0.0,85,0.00,,SKC,0.01,VWS V14.01,2013-01-03 03:18:00,
2013-01-03 17:19:00,41.8,37.6,30.15,ENE,76,0.0,1.0,85,0.00,,SKC,0.01,VWS V14.01,2013-01-03 03:19:00,
2013-01-03 17:20:00,41.7,37.5,30.15,ENE,76,0.0,1.0,85,0.00,,SKC,0.01,VWS V14.01,2013-01-03 03:20:00,
2013-01-03 17:21:00,41.7,37.5,30.15,ENE,76,1.0,1.0,85,0.00,,SKC,0.01,VWS V14.01,2013-01-03 03:21:00,
2013-01-03 17:22:00,41.7,37.8,30.15,ENE,76,1.0,1.0,86,0.00,,SKC,0.01,VWS V14.01,2013-01-03 03:22:00,
2013-01-03 17:23:00,41.7,37.8,30.15,ENE,76,0.0,2.0,86,0.00,,SKC,0.01,VWS V14.01,2013-01-03 03:23:00,
2013-01-03 17:24:00,41.7,37.8,30.15,ENE,76,0.0,1.0,86,0.00,,SKC,0.01,VWS V14.01,2013-01-03 03:24:00,
2013-01-03 17:25:00,41.7,37.8,30.15,ENE,76,0.0,1.0,86,0.00,,SKC,0.01,VWS V14.01,2013-01-03 03:25:00,
2013-01-03 17:26:00,41.7,37.8,30.15,ENE,76,0.0,0.0,86,0.00,,SKC,0.01,VWS V14.01,2013-01-03 03:26:00,
2013-01-03 17:27:00,41.6,37.7,30.15,ENE,76,0.0,1.0,86,0.00,,SKC,0.01,VWS V14.01,2013-01-03 03:27:00,
2013-01-03 17:28:00,41.6,37.7,30.15,ENE,76,0.0,0.0,86,0.00,,SKC,0.01,VWS V14.01,2013-01-03 03:28:00,
2013-01-03 17:29:00,41.5,37.6,30.15,ENE,76,0.0,0.0,86,0.00,,SKC,0.01,VWS V14.01,2013-01-03 03:29:00,
2013-01-03 17:30:00,41.5,37.6,30.15,ENE,76,0.0,0.0,86,0.00,,SKC,0.01,VWS V14.01,2013-01-03 03:30:00,
2013-01-03 17:31:00,41.5,37.6,30.15,ENE,76,0.0,0.0,86,0.00,,SKC,0.01,VWS V14.01,2013-01-03 03:31:00,
2013-01-03 17:32:00,41.5,37.6,30.15,ENE,76,0.0,0.0,86,0.00,,SKC,0.01,VWS V14.01,2013-01-03 03:32:00,
2013-01-03 17:33:00,41.4,37.5,30.15,ENE,76,0.0,0.0,86,0.00,,SKC,0.01,VWS V14.01,2013-01-03 03:33:00,
2013-01-03 17:34:00,41.4,37.5,30.15,ENE,76,1.0,1.0,86,0.00,,SKC,0.01,VWS V14.01,2013-01-03 03:34:00,
2013-01-03 17:35:00,41.3,37.7,30.15,ENE,76,0.0,0.0,87,0.00,,SKC,0.01,VWS V14.01,2013-01-03 03:35:00,
2013-01-03 17:36:00,41.3,37.7,30.15,ENE,76,0.0,0.0,87,0.00,,SKC,0.01,VWS V14.01,2013-01-03 03:36:00,
2013-01-03 17:37:00,41.3,37.7,30.15,ENE,76,0.0,0.0,87,0.00,,SKC,0.01,VWS V14.01,2013-01-03 03:37:00,
2013-01-03 17:38:00,41.3,37.7,30.15,ENE,76,0.0,0.0,87,0.00,,SKC,0.01,VWS V14.01,2013-01-03 03:38:00,
2013-01-03 17:39:00,41.3,37.7,30.15,ENE,76,0.0,0.0,87,0.00,,SKC,0.01,VWS V14.01,2013-01-03 03:39:00,
2013-01-03 17:40:00,41.2,37.6,30.15,ENE,76,0.0,0.0,87,0.00,,SKC,0.01,VWS V14.01,2013-01-03 03:40:00,
2013-01-03 17:41:00,41.1,37.5,30.15,ENE,76,0.0,0.0,87,0.00,,SKC,0.01,VWS V14.01,2013-01-03 03:41:00,
2013-01-03 17:42:00,41.1,37.5,30.15,ENE,76,0.0,0.0,87,0.00,,SKC,0.01,VWS V14.01,2013-01-03 03:42:00,
2013-01-03 17:43:00,41.0,37.4,30.15,ENE,76,0.0,0.0,87,0.00,,SKC,0.01,VWS V14.01,2013-01-03 03:43:00,
2013-01-03 17:44:00,40.9,37.3,30.15,ENE,76,0.0,0.0,87,0.00,,SKC,0.01,VWS V14.01,2013-01-03 03:44:00,
2013-01-03 17:45:00,40.9,37.3,30.15,ENE,76,0.0,0.0,87,0.00,,SKC,0.01,VWS V14.01,2013-01-03 03:45:00,
2013-01-03 17:46:00,40.8,37.2,30.15,ENE,76,0.0,0.0,87,0.00,,SKC,0.01,VWS V14.01,2013-01-03 03:46:00,
2013-01-03 17:47:00,40.9,37.3,30.15,ENE,76,0.0,0.0,87,0.00,,SKC,0.01,VWS V14.01,2013-01-03 03:47:00,
2013-01-03 17:48:00,40.9,37.3,30.15,ENE,76,0.0,0.0,87,0.00,,SKC,0.01,VWS V14.01,2013-01-03 03:48:00,
2013-01-03 17:49:00,40.9,37.6,30.15,ENE,76,0.0,0.0,88,0.00,,SKC,0.01,VWS V14.01,2013-01-03 03:49:00,
2013-01-03 17:50:00,40.9,37.6,30.15,ENE,76,0.0,0.0,88,0.00,,SKC,0.01,VWS V14.01,2013-01-03 03:50:00,
2013-01-03 17:51:00,40.8,37.2,30.15,ENE,76,0.0,0.0,87,0.00,,SKC,0.01,VWS V14.01,2013-01-03 03:51:00,
2013-01-03 17:52:00,40.8,37.2,30.15,ENE,76,0.0,0.0,87,0.00,,SKC,0.01,VWS V14.01,2013-01-03 03:52:00,
2013-01-03 17:53:00,40.7,37.1,30.15,ENE,76,0.0,0.0,87,0.00,,SKC,0.01,VWS V14.01,2013-01-03 03:53:00,
2013-01-03 17:54:00,40.6,37.3,30.15,ENE,76,0.0,1.0,88,0.00,,SKC,0.01,VWS V14.01,2013-01-03 03:54:00,
2013-01-03 17:55:00,40.6,37.3,30.15,ENE,76,0.0,1.0,88,0.00,,SKC,0.01,VWS V14.01,2013-01-03 03:55:00,
2013-01-03 17:56:00,40.6,37.3,30.15,ENE,76,0.0,0.0,88,0.00,,SKC,0.01,VWS V14.01,2013-01-03 03:56:00,
2013-01-03 17:57:00,40.6,37.3,30.15,ENE,76,0.0,1.0,88,0.00,,SKC,0.01,VWS V14.01,2013-01-03 03:57:00,
2013-01-03 17:58:00,40.7,37.4,30.15,ENE,76,0.0,0.0,88,0.00,,SKC,0.01,VWS V14.01,2013-01-03 03:58:00,
2013-01-03 17:59:00,40.6,37.3,30.15,ENE,76,0.0,0.0,88,0.00,,SKC,0.01,VWS V14.01,2013-01-03 03:59:00,
2013-01-03 18:00:00,40.6,37.3,30.15,ENE,76,0.0,0.0,88,0.00,,SKC,0.01,VWS V14.01,2013-01-03 04:00:00,
2013-01-03 18:01:00,40.6,37.3,30.16,ENE,76,0.0,0.0,88,0.00,,SKC,0.01,VWS V14.01,2013-01-03 04:01:00,
2013-01-03 18:02:00,40.6,37.3,30.16,ENE,76,0.0,0.0,88,0.00,,SKC,0.01,VWS V14.01,2013-01-03 04:02:00,
2013-01-03 18:03:00,40.7,37.4,30.16,ENE,76,0.0,0.0,88,0.00,,SKC,0.01,VWS V14.01,2013-01-03 04:03:00,
2013-01-03 18:04:00,40.7,37.4,30.16,ENE,76,0.0,0.0,88,0.00,,SKC,0.01,VWS V14.01,2013-01-03 04:04:00,
2013-01-03 18:05:00,40.7,37.4,30.16,ENE,76,0.0,0.0,88,0.00,,SKC,0.01,VWS V14.01,2013-01-03 04:05:00,
2013-01-03 18:06:00,40.6,37.3,30.16,ENE,76,0.0,0.0,88,0.00,,SKC,0.01,VWS V14.01,2013-01-03 04:06:00,
2013-01-03 18:07:00,40.6,37.3,30.15,ENE,76,0.0,0.0,88,0.00,,SKC,0.01,VWS V14.01,2013-01-03 04:07:00,
2013-01-03 18:08:00,40.5,37.2,30.15,ENE,76,0.0,0.0,88,0.00,,SKC,0.01,VWS V14.01,2013-01-03 04:08:00,
2013-01-03 18:09:00,40.4,37.1,30.15,ENE,76,0.0,0.0,88,0.00,,SKC,0.01,VWS V14.01,2013-01-03 04:09:00,
2013-01-03 18:10:00,40.3,37.0,30.15,ENE,76,0.0,0.0,88,0.00,,SKC,0.01,VWS V14.01,2013-01-03 04:10:00,
2013-01-03 18:11:00,40.2,36.9,30.15,ENE,76,0.0,0.0,88,0.00,,SKC,0.01,VWS V14.01,2013-01-03 04:11:00,
2013-01-03 18:12:00,40.2,36.9,30.15,ENE,76,0.0,0.0,88,0.00,,SKC,0.01,VWS V14.01,2013-01-03 04:12:00,
2013-01-03 18:13:00,40.2,36.9,30.15,ENE,76,0.0,0.0,88,0.00,,SKC,0.01,VWS V14.01,2013-01-03 04:13:00,
2013-01-03 18:14:00,40.2,37.2,30.15,ENE,76,0.0,0.0,89,0.00,,SKC,0.01,VWS V14.01,2013-01-03 04:14:00,
2013-01-03 18:15:00,40.2,36.9,30.15,ENE,76,0.0,0.0,88,0.00,,SKC,0.01,VWS V14.01,2013-01-03 04:15:00,
2013-01-03 18:16:00,40.0,36.7,30.15,ENE,76,0.0,0.0,88,0.00,,SKC,0.01,VWS V14.01,2013-01-03 04:16:00,
2013-01-03 18:17:00,40.0,36.7,30.15,ENE,76,0.0,0.0,88,0.00,,SKC,0.01,VWS V14.01,2013-01-03 04:17:00,
2013-01-03 18:18:00,40.0,36.7,30.15,ENE,76,0.0,0.0,88,0.00,,SKC,0.01,VWS V14.01,2013-01-03 04:18:00,
2013-01-03 18:19:00,39.9,36.9,30.15,ENE,76,0.0,0.0,89,0.00,,SKC,0.01,VWS V14.01,2013-01-03 04:19:00,
2013-01-03 18:20:00,39.8,36.5,30.15,ENE,76,0.0,0.0,88,0.00,,SKC,0.01,VWS V14.01,2013-01-03 04:20:00,
2013-01-03 18:21:00,39.6,36.6,30.15,ENE,76,0.0,0.0,89,0.00,,SKC,0.01,VWS V14.01,2013-01-03 04:21:00,
2013-01-03 18:22:00,39.6,36.6,30.15,ENE,76,0.0,0.0,89,0.00,,SKC,0.01,VWS V14.01,2013-01-03 04:22:00,
2013-01-03 18:23:00,39.5,36.2,30.15,ENE,76,0.0,0.0,88,0.00,,SKC,0.01,VWS V14.01,2013-01-03 04:23:00,
2013-01-03 18:24:00,39.5,36.5,30.15,ENE,76,0.0,0.0,89,0.00,,SKC,0.01,VWS V14.01,2013-01-03 04:24:00,
2013-01-03 18:25:00,39.5,36.5,30.15,ENE,76,0.0,0.0,89,0.00,,SKC,0.01,VWS V14.01,2013-01-03 04:25:00,
2013-01-03 18:26:00,39.5,36.5,30.15,ENE,76,0.0,0.0,89,0.00,,SKC,0.01,VWS V14.01,2013-01-03 04:26:00,
2013-01-03 18:27:00,39.4,36.4,30.15,ENE,76,0.0,0.0,89,0.00,,SKC,0.01,VWS V14.01,2013-01-03 04:27:00,
2013-01-03 18:28:00,39.5,36.8,30.15,ENE,76,0.0,0.0,90,0.00,,SKC,0.01,VWS V14.01,2013-01-03 04:28:00,
2013-01-03 18:29:00,39.5,36.8,30.15,ENE,76,0.0,1.0,90,0.00,,SKC,0.01,VWS V14.01,2013-01-03 04:29:00,
2013-01-03 18:30:00,39.5,36.8,30.15,ENE,76,0.0,1.0,90,0.00,,SKC,0.01,VWS V14.01,2013-01-03 04:30:00,
2013-01-03 18:31:00,39.3,36.3,30.15,ENE,76,0.0,0.0,89,0.00,,SKC,0.01,VWS V14.01,2013-01-03 04:31:00,
2013-01-03 18:32:00,39.3,36.3,30.15,ENE,76,0.0,0.0,89,0.00,,SKC,0.01,VWS V14.01,2013-01-03 04:32:00,
2013-01-03 18:33:00,39.2,36.2,30.15,ENE,76,0.0,0.0,89,0.00,,SKC,0.01,VWS V14.01,2013-01-03 04:33:00,
2013-01-03 18:34:00,39.2,36.2,30.15,ENE,76,0.0,0.0,89,0.00,,SKC,0.01,VWS V14.01,2013-01-03 04:34:00,
2013-01-03 18:35:00,39.1,36.1,30.15,ENE,76,0.0,0.0,89,0.00,,SKC,0.01,VWS V14.01,2013-01-03 04:35:00,
2013-01-03 18:36:00,39.1,36.4,30.15,ENE,76,0.0,0.0,90,0.00,,SKC,0.01,VWS V14.01,2013-01-03 04:36:00,
2013-01-03 18:37:00,39.1,36.4,30.15,ENE,76,0.0,0.0,90,0.00,,SKC,0.01,VWS V14.01,2013-01-03 04:37:00,
2013-01-03 18:38:00,39.1,36.4,30.15,ENE,76,0.0,0.0,90,0.00,,SKC,0.01,VWS V14.01,2013-01-03 04:38:00,
2013-01-03 18:39:00,39.1,36.4,30.15,ENE,76,0.0,0.0,90,0.00,,SKC,0.01,VWS V14.01,2013-01-03 04:39:00,
2013-01-03 18:40:00,39.0,36.3,30.15,ENE,76,0.0,0.0,90,0.00,,SKC,0.01,VWS V14.01,2013-01-03 04:40:00,
2013-01-03 18:41:00,38.9,36.2,30.15,ENE,76,0.0,0.0,90,0.00,,SKC,0.01,VWS V14.01,2013-01-03 04:41:00,
2013-01-03 18:42:00,38.9,36.2,30.15,ENE,76,0.0,0.0,90,0.00,,SKC,0.01,VWS V14.01,2013-01-03 04:42:00,
2013-01-03 18:43:00,38.8,36.1,30.15,ENE,76,0.0,0.0,90,0.00,,SKC,0.01,VWS V14.01,2013-01-03 04:43:00,
2013-01-03 18:44:00,38.7,36.0,30.15,ENE,76,0.0,1.0,90,0.00,,SKC,0.01,VWS V14.01,2013-01-03 04:44:00,
2013-01-03 18:45:00,38.6,35.9,30.15,ENE,76,0.0,0.0,90,0.00,,SKC,0.01,VWS V14.01,2013-01-03 04:45:00,
2013-01-03 18:46:00,38.6,35.9,30.16,ENE,76,0.0,0.0,90,0.00,,SKC,0.01,VWS V14.01,2013-01-03 04:46:00,
2013-01-03 18:47:00,38.6,35.9,30.16,ENE,76,0.0,0.0,90,0.00,,SKC,0.01,VWS V14.01,2013-01-03 04:47:00,
2013-01-03 18:48:00,38.5,35.8,30.16,ENE,76,0.0,0.0,90,0.00,,SKC,0.01,VWS V14.01,2013-01-03 04:48:00,
2013-01-03 18:49:00,38.5,35.8,30.16,ENE,76,0.0,0.0,90,0.00,,SKC,0.01,VWS V14.01,2013-01-03 04:49:00,
2013-01-03 18:50:00,38.4,35.7,30.16,ENE,76,0.0,0.0,90,0.00,,SKC,0.01,VWS V14.01,2013-01-03 04:50:00,
2013-01-03 18:51:00,38.4,36.0,30.16,ENE,76,0.0,0.0,91,0.00,,SKC,0.01,VWS V14.01,2013-01-03 04:51:00,
2013-01-03 18:52:00,38.4,36.0,30.16,ENE,76,0.0,0.0,91,0.00,,SKC,0.01,VWS V14.01,2013-01-03 04:52:00,
2013-01-03 18:53:00,38.4,36.0,30.16,ENE,76,0.0,0.0,91,0.00,,SKC,0.01,VWS V14.01,2013-01-03 04:53:00,
2013-01-03 18:54:00,38.3,35.9,30.16,ENE,76,0.0,0.0,91,0.00,,SKC,0.01,VWS V14.01,2013-01-03 04:54:00,
2013-01-03 18:55:00,38.3,35.9,30.16,ENE,76,0.0,0.0,91,0.00,,SKC,0.01,VWS V14.01,2013-01-03 04:55:00,
2013-01-03 18:56:00,38.1,35.7,30.16,ENE,76,0.0,0.0,91,0.00,,SKC,0.01,VWS V14.01,2013-01-03 04:56:00,
2013-01-03 18:57:00,38.1,35.7,30.16,ENE,76,0.0,0.0,91,0.00,,SKC,0.01,VWS V14.01,2013-01-03 04:57:00,
2013-01-03 18:58:00,38.0,35.6,30.16,ENE,76,0.0,0.0,91,0.00,,SKC,0.01,VWS V14.01,2013-01-03 04:58:00,
2013-01-03 18:59:00,38.0,35.6,30.16,ENE,76,0.0,1.0,91,0.00,,SKC,0.01,VWS V14.01,2013-01-03 04:59:00,
2013-01-03 19:00:00,38.0,35.6,30.16,ENE,76,0.0,0.0,91,0.00,,SKC,0.01,VWS V14.01,2013-01-03 05:00:00,
2013-01-03 19:01:00,38.0,35.6,30.16,ENE,76,0.0,0.0,91,0.00,,SKC,0.01,VWS V14.01,2013-01-03 05:01:00,
2013-01-03 19:02:00,38.1,36.0,30.16,ENE,76,0.0,0.0,92,0.00,,SKC,0.01,VWS V14.01,2013-01-03 05:02:00,
2013-01-03 19:03:00,38.1,36.0,30.16,ENE,76,0.0,0.0,92,0.00,,SKC,0.01,VWS V14.01,2013-01-03 05:03:00,
2013-01-03 19:04:00,38.1,36.0,30.16,ENE,76,0.0,0.0,92,0.00,,SKC,0.01,VWS V14.01,2013-01-03 05:04:00,
2013-01-03 19:05:00,38.0,35.9,30.16,ENE,76,0.0,0.0,92,0.00,,SKC,0.01,VWS V14.01,2013-01-03 05:05:00,
2013-01-03 19:06:00,38.1,36.0,30.16,ENE,76,0.0,0.0,92,0.00,,SKC,0.01,VWS V14.01,2013-01-03 05:06:00,
2013-01-03 19:07:00,38.0,35.9,30.16,ENE,76,0.0,0.0,92,0.00,,SKC,0.01,VWS V14.01,2013-01-03 05:07:00,
2013-01-03 19:08:00,38.0,35.9,30.16,ENE,76,0.0,0.0,92,0.00,,SKC,0.01,VWS V14.01,2013-01-03 05:08:00,
2013-01-03 19:09:00,38.0,35.9,30.16,ENE,76,0.0,0.0,92,0.00,,SKC,0.01,VWS V14.01,2013-01-03 05:09:00,
2013-01-03 19:10:00,38.1,36.0,30.16,ENE,76,0.0,1.0,92,0.00,,SKC,0.01,VWS V14.01,2013-01-03 05:10:00,
2013-01-03 19:11:00,38.0,35.9,30.16,ENE,76,0.0,1.0,92,0.00,,SKC,0.01,VWS V14.01,2013-01-03 05:11:00,
2013-01-03 19:12:00,38.0,35.9,30.16,ENE,76,0.0,1.0,92,0.00,,SKC,0.01,VWS V14.01,2013-01-03 05:12:00,
2013-01-03 19:13:00,38.0,35.9,30.16,ENE,76,0.0,0.0,92,0.00,,SKC,0.01,VWS V14.01,2013-01-03 05:13:00,
2013-01-03 19:14:00,38.0,35.9,30.16,ENE,76,0.0,1.0,92,0.00,,SKC,0.01,VWS V14.01,2013-01-03 05:14:00,
2013-01-03 19:15:00,38.0,35.9,30.16,ENE,76,0.0,0.0,92,0.00,,SKC,0.01,VWS V14.01,2013-01-03 05:15:00,
2013-01-03 19:16:00,38.0,35.9,30.16,ENE,76,0.0,0.0,92,0.00,,SKC,0.01,VWS V14.01,2013-01-03 05:16:00,
2013-01-03 19:17:00,37.9,35.8,30.16,ENE,76,0.0,0.0,92,0.00,,SKC,0.01,VWS V14.01,2013-01-03 05:17:00,
2013-01-03 19:18:00,37.9,35.8,30.16,ENE,76,0.0,0.0,92,0.00,,SKC,0.01,VWS V14.01,2013-01-03 05:18:00,
2013-01-03 19:19:00,37.9,35.8,30.16,ENE,76,0.0,0.0,92,0.00,,SKC,0.01,VWS V14.01,2013-01-03 05:19:00,
2013-01-03 19:20:00,37.9,35.8,30.16,ENE,76,0.0,0.0,92,0.00,,SKC,0.01,VWS V14.01,2013-01-03 05:20:00,
2013-01-03 19:21:00,37.9,35.8,30.17,ENE,76,0.0,0.0,92,0.00,,SKC,0.01,VWS V14.01,2013-01-03 05:21:00,
2013-01-03 19:22:00,37.9,35.8,30.17,ENE,76,0.0,0.0,92,0.00,,SKC,0.01,VWS V14.01,2013-01-03 05:22:00,
2013-01-03 19:23:00,38.0,35.9,30.16,ENE,76,0.0,0.0,92,0.00,,SKC,0.01,VWS V14.01,2013-01-03 05:23:00,
2013-01-03 19:24:00,38.0,35.9,30.16,ENE,76,0.0,0.0,92,0.00,,SKC,0.01,VWS V14.01,2013-01-03 05:24:00,
2013-01-03 19:25:00,38.0,35.9,30.16,ENE,76,0.0,0.0,92,0.00,,SKC,0.01,VWS V14.01,2013-01-03 05:25:00,
2013-01-03 19:26:00,37.9,35.8,30.16,ENE,76,0.0,0.0,92,0.00,,SKC,0.01,VWS V14.01,2013-01-03 05:26:00,
2013-01-03 19:27:00,37.9,35.8,30.17,ENE,76,0.0,0.0,92,0.00,,SKC,0.01,VWS V14.01,2013-01-03 05:27:00,
2013-01-03 19:28:00,37.7,35.6,30.17,ENE,76,0.0,0.0,92,0.00,,SKC,0.01,VWS V14.01,2013-01-03 05:28:00,
2013-01-03 19:29:00,37.7,35.6,30.17,ENE,76,0.0,0.0,92,0.00,,SKC,0.01,VWS V14.01,2013-01-03 05:29:00,
2013-01-03 19:30:00,37.7,35.6,30.17,ENE,76,0.0,0.0,92,0.00,,SKC,0.01,VWS V14.01,2013-01-03 05:30:00,
2013-01-03 19:31:00,37.6,35.5,30.17,ENE,76,0.0,0.0,92,0.00,,SKC,0.01,VWS V14.01,2013-01-03 05:31:00,
2013-01-03 19:32:00,37.6,35.5,30.17,ENE,76,0.0,0.0,92,0.00,,SKC,0.01,VWS V14.01,2013-01-03 05:32:00,
2013-01-03 19:33:00,37.6,35.5,30.17,ENE,76,0.0,0.0,92,0.00,,SKC,0.01,VWS V14.01,2013-01-03 05:33:00,
2013-01-03 19:34:00,37.6,35.5,30.17,ENE,76,0.0,0.0,92,0.00,,SKC,0.01,VWS V14.01,2013-01-03 05:34:00,
2013-01-03 19:35:00,37.5,35.4,30.17,ENE,76,0.0,0.0,92,0.00,,SKC,0.01,VWS V14.01,2013-01-03 05:35:00,
2013-01-03 19:36:00,37.5,35.4,30.17,ENE,76,0.0,0.0,92,0.00,,SKC,0.01,VWS V14.01,2013-01-03 05:36:00,
2013-01-03 19:37:00,37.4,35.3,30.17,ENE,76,0.0,0.0,92,0.00,,SKC,0.01,VWS V14.01,2013-01-03 05:37:00,
2013-01-03 19:38:00,37.2,35.1,30.17,ENE,76,0.0,0.0,92,0.00,,SKC,0.01,VWS V14.01,2013-01-03 05:38:00,
2013-01-03 19:39:00,37.2,35.1,30.17,ENE,76,0.0,1.0,92,0.00,,SKC,0.01,VWS V14.01,2013-01-03 05:39:00,
2013-01-03 19:40:00,37.1,35.0,30.16,ENE,76,0.0,0.0,92,0.00,,SKC,0.01,VWS V14.01,2013-01-03 05:40:00,
2013-01-03 19:41:00,37.1,35.0,30.17,ENE,76,0.0,0.0,92,0.00,,SKC,0.01,VWS V14.01,2013-01-03 05:41:00,
2013-01-03 19:42:00,37.1,35.0,30.17,ENE,76,0.0,0.0,92,0.00,,SKC,0.01,VWS V14.01,2013-01-03 05:42:00,
2013-01-03 19:43:00,37.1,35.0,30.17,ENE,76,0.0,0.0,92,0.00,,SKC,0.01,VWS V14.01,2013-01-03 05:43:00,
2013-01-03 19:44:00,37.1,35.0,30.17,ENE,76,0.0,0.0,92,0.00,,SKC,0.01,VWS V14.01,2013-01-03 05:44:00,
2013-01-03 19:45:00,37.1,35.0,30.17,ENE,76,0.0,0.0,92,0.00,,SKC,0.01,VWS V14.01,2013-01-03 05:45:00,
2013-01-03 19:46:00,37.1,35.0,30.17,ENE,76,0.0,0.0,92,0.00,,SKC,0.01,VWS V14.01,2013-01-03 05:46:00,
2013-01-03 19:47:00,37.0,34.9,30.17,ENE,76,0.0,0.0,92,0.00,,SKC,0.01,VWS V14.01,2013-01-03 05:47:00,
2013-01-03 19:48:00,37.0,34.9,30.17,ENE,76,0.0,0.0,92,0.00,,SKC,0.01,VWS V14.01,2013-01-03 05:48:00,
2013-01-03 19:49:00,37.0,34.9,30.17,ENE,76,0.0,0.0,92,0.00,,SKC,0.01,VWS V14.01,2013-01-03 05:49:00,
2013-01-03 19:50:00,36.9,34.8,30.16,ENE,76,0.0,0.0,92,0.00,,SKC,0.01,VWS V14.01,2013-01-03 05:50:00,
2013-01-03 19:51:00,36.8,34.7,30.16,ENE,76,0.0,0.0,92,0.00,,SKC,0.01,VWS V14.01,2013-01-03 05:51:00,
2013-01-03 19:52:00,36.8,34.7,30.17,ENE,76,0.0,0.0,92,0.00,,SKC,0.01,VWS V14.01,2013-01-03 05:52:00,
2013-01-03 19:53:00,36.7,34.6,30.17,ENE,76,0.0,0.0,92,0.00,,SKC,0.01,VWS V14.01,2013-01-03 05:53:00,
2013-01-03 19:54:00,36.7,34.6,30.17,ENE,76,0.0,0.0,92,0.00,,SKC,0.01,VWS V14.01,2013-01-03 05:54:00,
2013-01-03 19:55:00,36.7,34.6,30.17,ENE,76,0.0,0.0,92,0.00,,SKC,0.01,VWS V14.01,2013-01-03 05:55:00,
2013-01-03 19:56:00,36.7,34.9,30.17,ENE,76,0.0,0.0,93,0.00,,SKC,0.01,VWS V14.01,2013-01-03 05:56:00,
2013-01-03 19:57:00,36.6,34.5,30.17,ENE,76,0.0,0.0,92,0.00,,SKC,0.01,VWS V14.01,2013-01-03 05:57:00,
2013-01-03 19:58:00,36.5,34.4,30.17,ENE,76,0.0,0.0,92,0.00,,SKC,0.01,VWS V14.01,2013-01-03 05:58:00,
2013-01-03 19:59:00,36.5,34.4,30.17,ENE,76,0.0,0.0,92,0.00,,SKC,0.01,VWS V14.01,2013-01-03 05:59:00,
2013-01-03 20:00:00,36.4,34.3,30.17,ENE,76,0.0,0.0,92,0.00,,SKC,0.01,VWS V14.01,2013-01-03 06:00:00,
2013-01-03 20:01:00,36.4,34.3,30.17,ENE,76,0.0,0.0,92,0.00,,SKC,0.01,VWS V14.01,2013-01-03 06:01:00,
2013-01-03 20:02:00,36.4,34.3,30.17,ENE,76,0.0,0.0,92,0.00,,SKC,0.01,VWS V14.01,2013-01-03 06:02:00,
2013-01-03 20:03:00,36.3,34.5,30.17,ENE,76,0.0,0.0,93,0.00,,SKC,0.01,VWS V14.01,2013-01-03 06:03:00,
2013-01-03 20:04:00,36.3,34.5,30.17,ENE,76,0.0,0.0,93,0.00,,SKC,0.01,VWS V14.01,2013-01-03 06:04:00,
2013-01-03 20:05:00,36.4,34.6,30.17,ENE,76,0.0,0.0,93,0.00,,SKC,0.01,VWS V14.01,2013-01-03 06:05:00,
2013-01-03 20:06:00,36.3,34.5,30.17,ENE,76,0.0,0.0,93,0.00,,SKC,0.01,VWS V14.01,2013-01-03 06:06:00,
2013-01-03 20:07:00,36.3,34.5,30.17,ENE,76,0.0,0.0,93,0.00,,SKC,0.01,VWS V14.01,2013-01-03 06:07:00,
2013-01-03 20:08:00,36.3,34.5,30.17,ENE,76,0.0,0.0,93,0.00,,SKC,0.01,VWS V14.01,2013-01-03 06:08:00,
2013-01-03 20:09:00,36.3,34.5,30.17,ENE,76,0.0,0.0,93,0.00,,SKC,0.01,VWS V14.01,2013-01-03 06:09:00,
2013-01-03 20:10:00,36.4,34.6,30.17,ENE,76,0.0,0.0,93,0.00,,SKC,0.01,VWS V14.01,2013-01-03 06:10:00,
2013-01-03 20:11:00,36.4,34.6,30.17,ENE,76,0.0,0.0,93,0.00,,SKC,0.01,VWS V14.01,2013-01-03 06:11:00,
2013-01-03 20:12:00,36.4,34.6,30.17,ENE,76,0.0,0.0,93,0.00,,SKC,0.01,VWS V14.01,2013-01-03 06:12:00,
2013-01-03 20:13:00,36.4,34.6,30.17,ENE,76,0.0,0.0,93,0.00,,SKC,0.01,VWS V14.01,2013-01-03 06:13:00,
2013-01-03 20:14:00,36.4,34.6,30.17,ENE,76,0.0,0.0,93,0.00,,SKC,0.01,VWS V14.01,2013-01-03 06:14:00,
2013-01-03 20:15:00,36.4,34.6,30.17,ENE,76,0.0,0.0,93,0.00,,SKC,0.01,VWS V14.01,2013-01-03 06:15:00,
2013-01-03 20:16:00,36.4,34.6,30.17,ENE,76,0.0,0.0,93,0.00,,SKC,0.01,VWS V14.01,2013-01-03 06:16:00,
2013-01-03 20:17:00,36.4,34.6,30.17,ENE,76,0.0,0.0,93,0.00,,SKC,0.01,VWS V14.01,2013-01-03 06:17:00,
2013-01-03 20:18:00,36.2,34.4,30.17,ENE,76,0.0,0.0,93,0.00,,SKC,0.01,VWS V14.01,2013-01-03 06:18:00,
2013-01-03 20:19:00,36.2,34.4,30.17,ENE,76,0.0,0.0,93,0.00,,SKC,0.01,VWS V14.01,2013-01-03 06:19:00,
2013-01-03 20:20:00,36.2,34.4,30.17,ENE,76,0.0,0.0,93,0.00,,SKC,0.01,VWS V14.01,2013-01-03 06:20:00,
2013-01-03 20:21:00,36.2,34.4,30.17,ENE,76,0.0,0.0,93,0.00,,SKC,0.01,VWS V14.01,2013-01-03 06:21:00,
2013-01-03 20:22:00,36.2,34.4,30.17,ENE,76,0.0,0.0,93,0.00,,SKC,0.01,VWS V14.01,2013-01-03 06:22:00,
2013-01-03 20:23:00,36.2,34.4,30.17,ENE,76,0.0,0.0,93,0.00,,SKC,0.01,VWS V14.01,2013-01-03 06:23:00,
2013-01-03 20:24:00,36.2,34.4,30.17,ENE,76,0.0,0.0,93,0.00,,SKC,0.01,VWS V14.01,2013-01-03 06:24:00,
2013-01-03 20:25:00,36.1,34.3,30.17,ENE,76,0.0,0.0,93,0.00,,SKC,0.01,VWS V14.01,2013-01-03 06:25:00,
2013-01-03 20:26:00,36.1,34.3,30.17,ENE,76,0.0,0.0,93,0.00,,SKC,0.01,VWS V14.01,2013-01-03 06:26:00,
2013-01-03 20:27:00,36.1,34.3,30.17,ENE,76,0.0,0.0,93,0.00,,SKC,0.01,VWS V14.01,2013-01-03 06:27:00,
2013-01-03 20:28:00,36.0,34.2,30.17,ENE,76,0.0,0.0,93,0.00,,SKC,0.01,VWS V14.01,2013-01-03 06:28:00,
2013-01-03 20:29:00,36.0,34.2,30.17,ENE,76,0.0,0.0,93,0.00,,SKC,0.01,VWS V14.01,2013-01-03 06:29:00,
2013-01-03 20:30:00,36.0,34.2,30.17,ENE,76,0.0,0.0,93,0.00,,SKC,0.01,VWS V14.01,2013-01-03 06:30:00,
2013-01-03 20:31:00,36.0,34.2,30.17,ENE,76,0.0,0.0,93,0.00,,SKC,0.01,VWS V14.01,2013-01-03 06:31:00,
2013-01-03 20:32:00,36.0,34.2,30.17,ENE,76,0.0,0.0,93,0.00,,SKC,0.01,VWS V14.01,2013-01-03 06:32:00,
2013-01-03 20:33:00,36.0,34.2,30.17,ENE,76,0.0,0.0,93,0.00,,SKC,0.01,VWS V14.01,2013-01-03 06:33:00,
2013-01-03 20:34:00,36.0,34.2,30.17,ENE,76,0.0,0.0,93,0.00,,SKC,0.01,VWS V14.01,2013-01-03 06:34:00,
2013-01-03 20:35:00,35.9,34.1,30.17,ENE,76,0.0,0.0,93,0.00,,SKC,0.01,VWS V14.01,2013-01-03 06:35:00,
2013-01-03 20:36:00,35.9,34.1,30.17,ENE,76,0.0,0.0,93,0.00,,SKC,0.01,VWS V14.01,2013-01-03 06:36:00,
2013-01-03 20:37:00,35.8,34.0,30.17,ENE,76,0.0,0.0,93,0.00,,SKC,0.01,VWS V14.01,2013-01-03 06:37:00,
2013-01-03 20:38:00,35.7,33.9,30.17,ENE,76,0.0,0.0,93,0.00,,SKC,0.01,VWS V14.01,2013-01-03 06:38:00,
2013-01-03 20:39:00,35.7,33.9,30.17,ENE,76,0.0,0.0,93,0.00,,SKC,0.01,VWS V14.01,2013-01-03 06:39:00,
2013-01-03 20:40:00,35.7,33.9,30.17,ENE,76,0.0,0.0,93,0.00,,SKC,0.01,VWS V14.01,2013-01-03 06:40:00,
2013-01-03 20:41:00,35.6,33.8,30.17,ENE,76,0.0,0.0,93,0.00,,SKC,0.01,VWS V14.01,2013-01-03 06:41:00,
2013-01-03 20:42:00,35.6,33.8,30.17,ENE,76,0.0,0.0,93,0.00,,SKC,0.01,VWS V14.01,2013-01-03 06:42:00,
2013-01-03 20:43:00,35.5,33.7,30.17,ENE,76,0.0,0.0,93,0.00,,SKC,0.01,VWS V14.01,2013-01-03 06:43:00,
2013-01-03 20:44:00,35.5,33.7,30.17,ENE,76,0.0,0.0,93,0.00,,SKC,0.01,VWS V14.01,2013-01-03 06:44:00,
2013-01-03 20:45:00,35.4,33.6,30.17,ENE,76,0.0,0.0,93,0.00,,SKC,0.01,VWS V14.01,2013-01-03 06:45:00,
2013-01-03 20:46:00,35.4,33.6,30.17,ENE,76,0.0,0.0,93,0.00,,SKC,0.01,VWS V14.01,2013-01-03 06:46:00,
2013-01-03 20:47:00,35.3,33.5,30.17,ENE,76,0.0,0.0,93,0.00,,SKC,0.01,VWS V14.01,2013-01-03 06:47:00,
2013-01-03 20:48:00,35.3,33.8,30.17,ENE,76,0.0,0.0,94,0.00,,SKC,0.01,VWS V14.01,2013-01-03 06:48:00,
2013-01-03 20:49:00,35.3,33.8,30.17,ENE,76,0.0,0.0,94,0.00,,SKC,0.01,VWS V14.01,2013-01-03 06:49:00,
2013-01-03 20:50:00,35.3,33.8,30.17,ENE,76,0.0,0.0,94,0.00,,SKC,0.01,VWS V14.01,2013-01-03 06:50:00,
2013-01-03 20:51:00,35.3,33.5,30.17,ENE,76,0.0,0.0,93,0.00,,SKC,0.01,VWS V14.01,2013-01-03 06:51:00,
2013-01-03 20:52:00,35.3,33.5,30.17,ENE,76,0.0,0.0,93,0.00,,SKC,0.01,VWS V14.01,2013-01-03 06:52:00,
2013-01-03 20:53:00,35.2,33.4,30.17,ENE,76,0.0,0.0,93,0.00,,SKC,0.01,VWS V14.01,2013-01-03 06:53:00,
2013-01-03 20:54:00,35.2,33.4,30.17,ENE,76,0.0,0.0,93,0.00,,SKC,0.01,VWS V14.01,2013-01-03 06:54:00,
2013-01-03 20:55:00,35.1,33.3,30.17,ENE,76,0.0,0.0,93,0.00,,SKC,0.01,VWS V14.01,2013-01-03 06:55:00,
2013-01-03 20:56:00,35.2,33.4,30.17,ENE,76,1.0,1.0,93,0.00,,SKC,0.01,VWS V14.01,2013-01-03 06:56:00,
2013-01-03 20:57:00,35.1,33.3,30.17,ENE,76,0.0,1.0,93,0.00,,SKC,0.01,VWS V14.01,2013-01-03 06:57:00,
2013-01-03 20:58:00,35.1,33.5,30.17,ENE,76,0.0,0.0,94,0.00,,SKC,0.01,VWS V14.01,2013-01-03 06:58:00,
2013-01-03 20:59:00,35.1,33.5,30.17,ENE,76,0.0,0.0,94,0.00,,SKC,0.01,VWS V14.01,2013-01-03 06:59:00,
2013-01-03 21:00:00,35.1,33.5,30.17,ENE,76,0.0,0.0,94,0.00,,SKC,0.01,VWS V14.01,2013-01-03 07:00:00,
2013-01-03 21:01:00,35.1,33.5,30.17,ENE,76,0.0,0.0,94,0.00,,SKC,0.01,VWS V14.01,2013-01-03 07:01:00,
2013-01-03 21:02:00,35.0,33.5,30.17,ENE,76,0.0,0.0,94,0.00,,SKC,0.01,VWS V14.01,2013-01-03 07:02:00,
2013-01-03 21:03:00,35.0,33.5,30.17,ENE,76,0.0,0.0,94,0.00,,SKC,0.01,VWS V14.01,2013-01-03 07:03:00,
2013-01-03 21:04:00,35.0,33.5,30.17,ENE,76,0.0,0.0,94,0.00,,SKC,0.01,VWS V14.01,2013-01-03 07:04:00,
2013-01-03 21:05:00,35.0,33.5,30.17,ENE,76,0.0,0.0,94,0.00,,SKC,0.01,VWS V14.01,2013-01-03 07:05:00,
2013-01-03 21:06:00,34.9,33.3,30.17,ENE,76,0.0,1.0,94,0.00,,SKC,0.01,VWS V14.01,2013-01-03 07:06:00,
2013-01-03 21:07:00,34.9,33.3,30.17,ENE,76,0.0,1.0,94,0.00,,SKC,0.01,VWS V14.01,2013-01-03 07:07:00,
2013-01-03 21:08:00,34.8,33.2,30.17,ENE,76,1.0,2.0,94,0.00,,SKC,0.01,VWS V14.01,2013-01-03 07:08:00,
2013-01-03 21:09:00,34.9,33.3,30.17,ENE,76,2.0,2.0,94,0.00,,SKC,0.01,VWS V14.01,2013-01-03 07:09:00,
2013-01-03 21:10:00,34.9,33.3,30.17,ENE,76,0.0,2.0,94,0.00,,SKC,0.01,VWS V14.01,2013-01-03 07:10:00,
2013-01-03 21:11:00,34.9,33.3,30.17,ENE,76,0.0,1.0,94,0.00,,SKC,0.01,VWS V14.01,2013-01-03 07:11:00,
2013-01-03 21:12:00,34.9,33.3,30.17,ENE,76,0.0,0.0,94,0.00,,SKC,0.01,VWS V14.01,2013-01-03 07:12:00,
2013-01-03 21:13:00,34.9,33.3,30.17,ENE,76,0.0,0.0,94,0.00,,SKC,0.01,VWS V14.01,2013-01-03 07:13:00,
2013-01-03 21:14:00,34.9,33.3,30.17,ENE,76,0.0,0.0,94,0.00,,SKC,0.01,VWS V14.01,2013-01-03 07:14:00,
2013-01-03 21:15:00,34.9,33.3,30.17,ENE,76,0.0,1.0,94,0.00,,SKC,0.01,VWS V14.01,2013-01-03 07:15:00,
2013-01-03 21:16:00,34.9,33.3,30.17,ENE,76,0.0,1.0,94,0.00,,SKC,0.01,VWS V14.01,2013-01-03 07:16:00,
2013-01-03 21:17:00,34.8,33.2,30.17,ENE,76,0.0,0.0,94,0.00,,SKC,0.01,VWS V14.01,2013-01-03 07:17:00,
2013-01-03 21:18:00,34.8,33.2,30.17,ENE,76,0.0,0.0,94,0.00,,SKC,0.01,VWS V14.01,2013-01-03 07:18:00,
2013-01-03 21:19:00,34.8,33.2,30.17,ENE,76,0.0,0.0,94,0.00,,SKC,0.01,VWS V14.01,2013-01-03 07:19:00,
2013-01-03 21:20:00,34.7,33.2,30.17,ENE,76,0.0,0.0,94,0.00,,SKC,0.01,VWS V14.01,2013-01-03 07:20:00,
2013-01-03 21:21:00,34.8,33.2,30.17,ENE,76,0.0,0.0,94,0.00,,SKC,0.01,VWS V14.01,2013-01-03 07:21:00,
2013-01-03 21:22:00,34.8,33.2,30.17,ENE,76,0.0,0.0,94,0.00,,SKC,0.01,VWS V14.01,2013-01-03 07:22:00,
2013-01-03 21:23:00,35.0,33.5,30.17,ENE,76,0.0,0.0,94,0.00,,SKC,0.01,VWS V14.01,2013-01-03 07:23:00,
2013-01-03 21:24:00,35.0,33.5,30.17,ENE,76,0.0,0.0,94,0.00,,SKC,0.01,VWS V14.01,2013-01-03 07:24:00,
2013-01-03 21:25:00,35.0,33.5,30.17,ENE,76,0.0,0.0,94,0.00,,SKC,0.01,VWS V14.01,2013-01-03 07:25:00,
2013-01-03 21:26:00,35.1,33.5,30.17,ENE,76,0.0,0.0,94,0.00,,SKC,0.01,VWS V14.01,2013-01-03 07:26:00,
2013-01-03 21:27:00,35.1,33.5,30.17,ENE,76,0.0,0.0,94,0.00,,SKC,0.01,VWS V14.01,2013-01-03 07:27:00,
2013-01-03 21:28:00,35.1,33.5,30.17,ENE,76,0.0,0.0,94,0.00,,SKC,0.01,VWS V14.01,2013-01-03 07:28:00,
2013-01-03 21:29:00,35.1,33.5,30.17,ENE,76,0.0,0.0,94,0.00,,SKC,0.01,VWS V14.01,2013-01-03 07:29:00,
2013-01-03 21:30:00,35.1,33.5,30.17,ENE,76,0.0,0.0,94,0.00,,SKC,0.01,VWS V14.01,2013-01-03 07:30:00,
2013-01-03 21:31:00,35.0,33.5,30.17,ENE,76,0.0,0.0,94,0.00,,SKC,0.01,VWS V14.01,2013-01-03 07:31:00,
2013-01-03 21:32:00,34.9,33.3,30.17,ENE,76,0.0,0.0,94,0.00,,SKC,0.01,VWS V14.01,2013-01-03 07:32:00,
2013-01-03 21:33:00,34.8,33.2,30.17,ENE,76,0.0,0.0,94,0.00,,SKC,0.01,VWS V14.01,2013-01-03 07:33:00,
2013-01-03 21:34:00,34.8,33.2,30.17,ENE,76,0.0,0.0,94,0.00,,SKC,0.01,VWS V14.01,2013-01-03 07:34:00,
2013-01-03 21:35:00,34.8,33.2,30.17,ENE,76,0.0,0.0,94,0.00,,SKC,0.01,VWS V14.01,2013-01-03 07:35:00,
2013-01-03 21:36:00,34.8,33.2,30.17,ENE,76,0.0,0.0,94,0.00,,SKC,0.01,VWS V14.01,2013-01-03 07:36:00,
2013-01-03 21:37:00,34.8,33.2,30.17,ENE,76,0.0,0.0,94,0.00,,SKC,0.01,VWS V14.01,2013-01-03 07:37:00,
2013-01-03 21:38:00,34.8,33.2,30.17,ENE,76,0.0,0.0,94,0.00,,SKC,0.01,VWS V14.01,2013-01-03 07:38:00,
2013-01-03 21:39:00,34.8,33.2,30.17,ENE,76,0.0,0.0,94,0.00,,SKC,0.01,VWS V14.01,2013-01-03 07:39:00,
2013-01-03 21:40:00,34.7,33.2,30.17,ENE,76,0.0,0.0,94,0.00,,SKC,0.01,VWS V14.01,2013-01-03 07:40:00,
2013-01-03 21:41:00,34.7,33.2,30.17,ENE,76,0.0,0.0,94,0.00,,SKC,0.01,VWS V14.01,2013-01-03 07:41:00,
2013-01-03 21:42:00,34.6,33.0,30.17,ENE,76,0.0,0.0,94,0.00,,SKC,0.01,VWS V14.01,2013-01-03 07:42:00,
2013-01-03 21:43:00,34.4,32.9,30.17,ENE,76,0.0,0.0,94,0.00,,SKC,0.01,VWS V14.01,2013-01-03 07:43:00,
2013-01-03 21:44:00,34.4,32.9,30.17,ENE,76,0.0,0.0,94,0.00,,SKC,0.01,VWS V14.01,2013-01-03 07:44:00,
2013-01-03 21:45:00,34.4,32.9,30.17,ENE,76,0.0,0.0,94,0.00,,SKC,0.01,VWS V14.01,2013-01-03 07:45:00,
2013-01-03 21:46:00,34.3,32.8,30.17,ENE,76,0.0,0.0,94,0.00,,SKC,0.01,VWS V14.01,2013-01-03 07:46:00,
2013-01-03 21:47:00,34.4,32.9,30.17,ENE,76,0.0,0.0,94,0.00,,SKC,0.01,VWS V14.01,2013-01-03 07:47:00,
2013-01-03 21:48:00,34.4,32.9,30.17,ENE,76,0.0,0.0,94,0.00,,SKC,0.01,VWS V14.01,2013-01-03 07:48:00,
2013-01-03 21:49:00,34.4,32.9,30.17,ENE,76,0.0,0.0,94,0.00,,SKC,0.01,VWS V14.01,2013-01-03 07:49:00,
2013-01-03 21:50:00,34.4,32.9,30.17,ENE,76,0.0,0.0,94,0.00,,SKC,0.01,VWS V14.01,2013-01-03 07:50:00,
2013-01-03 21:51:00,34.4,32.9,30.17,ENE,76,0.0,0.0,94,0.00,,SKC,0.01,VWS V14.01,2013-01-03 07:51:00,
2013-01-03 21:52:00,34.4,32.9,30.17,ENE,76,0.0,0.0,94,0.00,,SKC,0.01,VWS V14.01,2013-01-03 07:52:00,
2013-01-03 21:53:00,34.3,32.8,30.17,ENE,76,0.0,0.0,94,0.00,,SKC,0.01,VWS V14.01,2013-01-03 07:53:00,
2013-01-03 21:54:00,34.3,32.8,30.17,ENE,76,0.0,0.0,94,0.00,,SKC,0.01,VWS V14.01,2013-01-03 07:54:00,
2013-01-03 21:55:00,34.3,32.8,30.17,ENE,76,0.0,0.0,94,0.00,,SKC,0.01,VWS V14.01,2013-01-03 07:55:00,
2013-01-03 21:56:00,34.3,32.8,30.17,ENE,76,0.0,0.0,94,0.00,,SKC,0.01,VWS V14.01,2013-01-03 07:56:00,
2013-01-03 21:57:00,34.2,32.7,30.17,ENE,76,0.0,0.0,94,0.00,,SKC,0.01,VWS V14.01,2013-01-03 07:57:00,
2013-01-03 21:58:00,34.1,32.6,30.17,ENE,76,0.0,0.0,94,0.00,,SKC,0.01,VWS V14.01,2013-01-03 07:58:00,
2013-01-03 21:59:00,34.1,32.6,30.17,ENE,76,0.0,0.0,94,0.00,,SKC,0.01,VWS V14.01,2013-01-03 07:59:00,
2013-01-03 22:00:00,34.1,32.6,30.17,ENE,76,0.0,0.0,94,0.00,,SKC,0.00,VWS V14.01,2013-01-03 08:00:00,
2013-01-03 22:01:00,34.1,32.6,30.17,ENE,76,0.0,0.0,94,0.00,,SKC,0.00,VWS V14.01,2013-01-03 08:01:00,
2013-01-03 22:02:00,34.2,32.7,30.17,ENE,76,0.0,0.0,94,0.00,,SKC,0.00,VWS V14.01,2013-01-03 08:02:00,
2013-01-03 22:03:00,34.2,32.7,30.17,ENE,76,0.0,0.0,94,0.00,,SKC,0.00,VWS V14.01,2013-01-03 08:03:00,
2013-01-03 22:04:00,34.2,32.7,30.17,ENE,76,0.0,0.0,94,0.00,,SKC,0.00,VWS V14.01,2013-01-03 08:04:00,
2013-01-03 22:05:00,34.1,32.6,30.17,ENE,76,0.0,0.0,94,0.00,,SKC,0.00,VWS V14.01,2013-01-03 08:05:00,
2013-01-03 22:06:00,34.0,32.5,30.17,ENE,76,0.0,0.0,94,0.00,,SKC,0.00,VWS V14.01,2013-01-03 08:06:00,
2013-01-03 22:07:00,33.9,32.4,30.17,ENE,76,0.0,0.0,94,0.00,,SKC,0.00,VWS V14.01,2013-01-03 08:07:00,
2013-01-03 22:08:00,33.9,32.4,30.17,ENE,76,0.0,0.0,94,0.00,,SKC,0.00,VWS V14.01,2013-01-03 08:08:00,
2013-01-03 22:09:00,33.9,32.4,30.17,ENE,76,0.0,0.0,94,0.00,,SKC,0.00,VWS V14.01,2013-01-03 08:09:00,
2013-01-03 22:10:00,33.9,32.4,30.17,ENE,76,0.0,0.0,94,0.00,,SKC,0.00,VWS V14.01,2013-01-03 08:10:00,
2013-01-03 22:11:00,33.9,32.4,30.17,ENE,76,0.0,0.0,94,0.00,,SKC,0.00,VWS V14.01,2013-01-03 08:11:00,
2013-01-03 22:12:00,33.9,32.4,30.17,ENE,76,0.0,0.0,94,0.00,,SKC,0.00,VWS V14.01,2013-01-03 08:12:00,
2013-01-03 22:13:00,33.7,32.2,30.17,ENE,76,0.0,0.0,94,0.00,,SKC,0.00,VWS V14.01,2013-01-03 08:13:00,
2013-01-03 22:14:00,33.7,32.2,30.17,ENE,76,0.0,0.0,94,0.00,,SKC,0.00,VWS V14.01,2013-01-03 08:14:00,
2013-01-03 22:15:00,33.6,32.1,30.17,ENE,76,0.0,0.0,94,0.00,,SKC,0.00,VWS V14.01,2013-01-03 08:15:00,
2013-01-03 22:16:00,33.6,32.1,30.17,ENE,76,0.0,0.0,94,0.00,,SKC,0.00,VWS V14.01,2013-01-03 08:16:00,
2013-01-03 22:17:00,33.6,32.1,30.17,ENE,76,0.0,0.0,94,0.00,,SKC,0.00,VWS V14.01,2013-01-03 08:17:00,
2013-01-03 22:18:00,33.7,32.2,30.17,ENE,76,0.0,0.0,94,0.00,,SKC,0.00,VWS V14.01,2013-01-03 08:18:00,
2013-01-03 22:19:00,33.7,32.2,30.17,ENE,76,0.0,0.0,94,0.00,,SKC,0.00,VWS V14.01,2013-01-03 08:19:00,
2013-01-03 22:20:00,33.7,32.4,30.17,ENE,76,0.0,0.0,95,0.00,,SKC,0.00,VWS V14.01,2013-01-03 08:20:00,
2013-01-03 22:21:00,33.7,32.4,30.17,ENE,76,0.0,0.0,95,0.00,,SKC,0.00,VWS V14.01,2013-01-03 08:21:00,
2013-01-03 22:22:00,33.7,32.4,30.17,ENE,76,0.0,0.0,95,0.00,,SKC,0.00,VWS V14.01,2013-01-03 08:22:00,
2013-01-03 22:23:00,33.6,32.1,30.17,ENE,76,0.0,0.0,94,0.00,,SKC,0.00,VWS V14.01,2013-01-03 08:23:00,
2013-01-03 22:24:00,33.6,32.1,30.17,ENE,76,0.0,0.0,94,0.00,,SKC,0.00,VWS V14.01,2013-01-03 08:24:00,
2013-01-03 22:25:00,33.6,32.3,30.17,ENE,76,0.0,0.0,95,0.00,,SKC,0.00,VWS V14.01,2013-01-03 08:25:00,
2013-01-03 22:26:00,33.5,32.0,30.17,ENE,76,0.0,0.0,94,0.00,,SKC,0.00,VWS V14.01,2013-01-03 08:26:00,
2013-01-03 22:27:00,33.5,32.0,30.17,ENE,76,0.0,0.0,94,0.00,,SKC,0.00,VWS V14.01,2013-01-03 08:27:00,
2013-01-03 22:28:00,33.4,31.9,30.17,ENE,76,0.0,0.0,94,0.00,,SKC,0.00,VWS V14.01,2013-01-03 08:28:00,
2013-01-03 22:30:00,33.4,31.9,30.17,ENE,76,0.0,0.0,94,0.00,,SKC,0.00,VWS V14.01,2013-01-03 08:30:00,
2013-01-03 22:32:00,33.6,32.3,30.17,ENE,76,0.0,0.0,95,0.00,,SKC,0.00,VWS V14.01,2013-01-03 08:32:00,
2013-01-03 22:33:00,33.6,32.3,30.17,ENE,76,0.0,0.0,95,0.00,,SKC,0.00,VWS V14.01,2013-01-03 08:33:00,
2013-01-03 22:34:00,33.6,32.3,30.17,ENE,76,0.0,0.0,95,0.00,,SKC,0.00,VWS V14.01,2013-01-03 08:34:00,
2013-01-03 22:35:00,33.6,32.3,30.17,ENE,76,0.0,0.0,95,0.00,,SKC,0.00,VWS V14.01,2013-01-03 08:35:00,
2013-01-03 22:36:00,33.5,32.0,30.17,ENE,76,0.0,0.0,94,0.00,,SKC,0.00,VWS V14.01,2013-01-03 08:36:00,
2013-01-03 22:38:00,33.5,32.2,30.17,ENE,76,0.0,0.0,95,0.00,,SKC,0.00,VWS V14.01,2013-01-03 08:38:00,
2013-01-03 22:39:00,33.5,32.2,30.17,ENE,76,0.0,0.0,95,0.00,,SKC,0.00,VWS V14.01,2013-01-03 08:39:00,
2013-01-03 22:43:00,33.5,32.2,30.17,ENE,76,0.0,0.0,95,0.00,,SKC,0.00,VWS V14.01,2013-01-03 08:43:00,
2013-01-03 22:46:00,33.3,32.0,30.18,ENE,76,0.0,0.0,95,0.00,,SKC,0.00,VWS V14.01,2013-01-03 08:46:00,
2013-01-03 22:48:00,33.2,31.9,30.18,ENE,76,0.0,0.0,95,0.00,,SKC,0.00,VWS V14.01,2013-01-03 08:48:00,
2013-01-03 22:49:00,33.2,31.9,30.18,ENE,76,0.0,0.0,95,0.00,,SKC,0.00,VWS V14.01,2013-01-03 08:49:00,
2013-01-03 22:50:00,33.2,31.9,30.18,ENE,76,0.0,0.0,95,0.00,,SKC,0.00,VWS V14.01,2013-01-03 08:50:00,
2013-01-03 22:53:00,33.0,31.7,30.18,ENE,76,0.0,0.0,95,0.00,,SKC,0.00,VWS V14.01,2013-01-03 08:53:00,
2013-01-03 22:56:00,33.1,31.8,30.18,ENE,76,0.0,0.0,95,0.00,,SKC,0.00,VWS V14.01,2013-01-03 08:56:00,
2013-01-03 22:58:00,33.1,31.8,30.18,ENE,76,0.0,0.0,95,0.00,,SKC,0.00,VWS V14.01,2013-01-03 08:58:00,
2013-01-03 23:00:00,33.0,31.7,30.18,ENE,76,0.0,0.0,95,0.00,,SKC,0.00,VWS V14.01,2013-01-03 09:00:00,
2013-01-03 23:01:00,32.9,31.6,30.18,ENE,76,0.0,1.0,95,0.00,,SKC,0.00,VWS V14.01,2013-01-03 09:01:00,
2013-01-03 23:02:00,32.9,31.6,30.18,ENE,76,0.0,0.0,95,0.00,,SKC,0.00,VWS V14.01,2013-01-03 09:02:00,
2013-01-03 23:03:00,32.8,31.5,30.18,ENE,76,1.0,1.0,95,0.00,,SKC,0.00,VWS V14.01,2013-01-03 09:03:00,
2013-01-03 23:04:00,32.8,31.5,30.18,ENE,76,1.0,1.0,95,0.00,,SKC,0.00,VWS V14.01,2013-01-03 09:04:00,
2013-01-03 23:05:00,32.7,31.4,30.18,ENE,76,0.0,1.0,95,0.00,,SKC,0.00,VWS V14.01,2013-01-03 09:05:00,
2013-01-03 23:08:00,32.7,31.4,30.18,ENE,76,0.0,0.0,95,0.00,,SKC,0.00,VWS V14.01,2013-01-03 09:08:00,
2013-01-03 23:13:00,32.6,31.3,30.18,ENE,76,0.0,0.0,95,0.00,,SKC,0.00,VWS V14.01,2013-01-03 09:13:00,
2013-01-03 23:15:00,32.6,31.3,30.18,ENE,76,0.0,0.0,95,0.00,,SKC,0.00,VWS V14.01,2013-01-03 09:15:00,
2013-01-03 23:16:00,32.7,31.4,30.18,ENE,76,0.0,0.0,95,0.00,,SKC,0.00,VWS V14.01,2013-01-03 09:16:00,
2013-01-03 23:17:00,32.8,31.5,30.18,ENE,76,0.0,0.0,95,0.00,,SKC,0.00,VWS V14.01,2013-01-03 09:17:00,
2013-01-03 23:18:00,32.8,31.5,30.18,ENE,76,0.0,0.0,95,0.00,,SKC,0.00,VWS V14.01,2013-01-03 09:18:00,
2013-01-03 23:19:00,32.8,31.5,30.18,ENE,76,0.0,0.0,95,0.00,,SKC,0.00,VWS V14.01,2013-01-03 09:19:00,
2013-01-03 23:20:00,32.8,31.5,30.18,ENE,76,0.0,0.0,95,0.00,,SKC,0.00,VWS V14.01,2013-01-03 09:20:00,
2013-01-03 23:21:00,32.7,31.4,30.18,ENE,76,0.0,0.0,95,0.00,,SKC,0.00,VWS V14.01,2013-01-03 09:21:00,
2013-01-03 23:23:00,32.7,31.4,30.18,ENE,76,0.0,0.0,95,0.00,,SKC,0.00,VWS V14.01,2013-01-03 09:23:00,
2013-01-03 23:24:00,32.7,31.4,30.18,ENE,76,0.0,0.0,95,0.00,,SKC,0.00,VWS V14.01,2013-01-03 09:24:00,
2013-01-03 23:25:00,32.7,31.4,30.18,ENE,76,0.0,0.0,95,0.00,,SKC,0.00,VWS V14.01,2013-01-03 09:25:00,
2013-01-03 23:26:00,32.6,31.3,30.18,ENE,76,0.0,0.0,95,0.00,,SKC,0.00,VWS V14.01,2013-01-03 09:26:00,
2013-01-03 23:27:00,32.6,31.3,30.18,ENE,76,0.0,0.0,95,0.00,,SKC,0.00,VWS V14.01,2013-01-03 09:27:00,
2013-01-03 23:28:00,32.6,31.3,30.18,ENE,76,0.0,1.0,95,0.00,,SKC,0.00,VWS V14.01,2013-01-03 09:28:00,
2013-01-03 23:29:00,32.6,31.3,30.18,ENE,76,0.0,1.0,95,0.00,,SKC,0.00,VWS V14.01,2013-01-03 09:29:00,
2013-01-03 23:30:00,32.6,31.3,30.18,ENE,76,0.0,0.0,95,0.00,,SKC,0.00,VWS V14.01,2013-01-03 09:30:00,
2013-01-03 23:31:00,32.5,31.2,30.18,ENE,76,0.0,0.0,95,0.00,,SKC,0.00,VWS V14.01,2013-01-03 09:31:00,
2013-01-03 23:32:00,32.5,31.2,30.18,ENE,76,0.0,0.0,95,0.00,,SKC,0.00,VWS V14.01,2013-01-03 09:32:00,
2013-01-03 23:33:00,32.5,31.2,30.18,ENE,76,0.0,0.0,95,0.00,,SKC,0.00,VWS V14.01,2013-01-03 09:33:00,
2013-01-03 23:34:00,32.5,31.2,30.18,ENE,76,0.0,0.0,95,0.00,,SKC,0.00,VWS V14.01,2013-01-03 09:34:00,
2013-01-03 23:35:00,32.6,31.3,30.18,ENE,76,0.0,0.0,95,0.00,,SKC,0.00,VWS V14.01,2013-01-03 09:35:00,
2013-01-03 23:36:00,32.6,31.3,30.18,ENE,76,0.0,0.0,95,0.00,,SKC,0.00,VWS V14.01,2013-01-03 09:36:00,
2013-01-03 23:37:00,32.7,31.4,30.18,ENE,76,0.0,0.0,95,0.00,,SKC,0.00,VWS V14.01,2013-01-03 09:37:00,
2013-01-03 23:38:00,32.7,31.4,30.18,ENE,76,0.0,0.0,95,0.00,,SKC,0.00,VWS V14.01,2013-01-03 09:38:00,
2013-01-03 23:40:00,32.6,31.3,30.18,ENE,76,0.0,0.0,95,0.00,,SKC,0.00,VWS V14.01,2013-01-03 09:40:00,
2013-01-03 23:41:00,32.6,31.3,30.18,ENE,76,0.0,0.0,95,0.00,,SKC,0.00,VWS V14.01,2013-01-03 09:41:00,
2013-01-03 23:42:00,32.4,31.1,30.18,ENE,76,0.0,0.0,95,0.00,,SKC,0.00,VWS V14.01,2013-01-03 09:42:00,
2013-01-03 23:43:00,32.5,31.2,30.18,ENE,76,0.0,0.0,95,0.00,,SKC,0.00,VWS V14.01,2013-01-03 09:43:00,
2013-01-03 23:44:00,32.4,31.1,30.18,ENE,76,0.0,0.0,95,0.00,,SKC,0.00,VWS V14.01,2013-01-03 09:44:00,
2013-01-03 23:45:00,32.4,31.1,30.18,ENE,76,0.0,0.0,95,0.00,,SKC,0.00,VWS V14.01,2013-01-03 09:45:00,
2013-01-03 23:46:00,32.4,31.1,30.18,ENE,76,0.0,0.0,95,0.00,,SKC,0.00,VWS V14.01,2013-01-03 09:46:00,
2013-01-03 23:47:00,32.4,31.1,30.18,ENE,76,0.0,0.0,95,0.00,,SKC,0.00,VWS V14.01,2013-01-03 09:47:00,
2013-01-03 23:48:00,32.4,31.1,30.18,ENE,76,0.0,0.0,95,0.00,,SKC,0.00,VWS V14.01,2013-01-03 09:48:00,
2013-01-03 23:49:00,32.4,31.1,30.18,ENE,76,0.0,0.0,95,0.00,,SKC,0.00,VWS V14.01,2013-01-03 09:49:00,
2013-01-03 23:50:00,32.4,31.1,30.18,ENE,76,0.0,0.0,95,0.00,,SKC,0.00,VWS V14.01,2013-01-03 09:50:00,
2013-01-03 23:52:00,32.1,30.8,30.18,ENE,76,0.0,0.0,95,0.00,,SKC,0.00,VWS V14.01,2013-01-03 09:52:00,
2013-01-03 23:53:00,32.2,30.9,30.18,ENE,76,0.0,0.0,95,0.00,,SKC,0.00,VWS V14.01,2013-01-03 09:53:00,
2013-01-03 23:54:00,32.1,30.8,30.18,ENE,76,0.0,0.0,95,0.00,,SKC,0.00,VWS V14.01,2013-01-03 09:54:00,
2013-01-03 23:55:00,32.1,30.8,30.18,ENE,76,0.0,0.0,95,0.00,,SKC,0.00,VWS V14.01,2013-01-03 09:55:00,
2013-01-03 23:56:00,32.2,30.9,30.18,ENE,76,0.0,0.0,95,0.00,,SKC,0.00,VWS V14.01,2013-01-03 09:56:00,
2013-01-03 23:57:00,32.2,30.9,30.18,ENE,76,0.0,0.0,95,0.00,,SKC,0.00,VWS V14.01,2013-01-03 09:57:00,
2013-01-03 23:58:00,32.2,30.9,30.18,ENE,76,0.0,0.0,95,0.00,,SKC,0.00,VWS V14.01,2013-01-03 09:58:00,
2013-01-03 23:59:00,32.2,30.9,30.18,ENE,76,0.0,0.0,95,0.00,,SKC,0.00,VWS V14.01,2013-01-03 09:59:00,